<?xml version="1.0" encoding="UTF-8" ?>
<gpx version="1.1" xmlns:xsi="http://www.w3.org/2001/XMLSchema-instance" 
    xmlns="http://www.topografix.com/GPX/1/1" 
    xsi:schemaLocation="http://www.topografix.com/GPX/1/1 http://www.topografix.com/GPX/1/1/gpx.xsd" 
    creator="Openrunner - https://www.openrunner.com" >	<trk>
						<name>ELB P110-20634777</name>
						<trkseg>
					<trkpt lat="48.970700" lon="2.303180">
						<ele>42</ele>
						<time>2025-02-02T22:13:14Z</time>
					</trkpt>
					<trkpt lat="48.970740" lon="2.303120">
						<ele>42</ele>
						<time>2025-02-02T22:13:15Z</time>
					</trkpt>
					<trkpt lat="48.971020" lon="2.303030">
						<ele>41</ele>
						<time>2025-02-02T22:13:20Z</time>
					</trkpt>
					<trkpt lat="48.971550" lon="2.303000">
						<ele>41</ele>
						<time>2025-02-02T22:13:30Z</time>
					</trkpt>
					<trkpt lat="48.971760" lon="2.303100">
						<ele>42</ele>
						<time>2025-02-02T22:13:33Z</time>
					</trkpt>
					<trkpt lat="48.972680" lon="2.304180">
						<ele>44</ele>
						<time>2025-02-02T22:13:54Z</time>
					</trkpt>
					<trkpt lat="48.972870" lon="2.304370">
						<ele>45</ele>
						<time>2025-02-02T22:13:58Z</time>
					</trkpt>
					<trkpt lat="48.973190" lon="2.304580">
						<ele>45</ele>
						<time>2025-02-02T22:14:04Z</time>
					</trkpt>
					<trkpt lat="48.973310" lon="2.304620">
						<ele>45</ele>
						<time>2025-02-02T22:14:07Z</time>
					</trkpt>
					<trkpt lat="48.973580" lon="2.304620">
						<ele>45</ele>
						<time>2025-02-02T22:14:11Z</time>
					</trkpt>
					<trkpt lat="48.973780" lon="2.304570">
						<ele>45</ele>
						<time>2025-02-02T22:14:15Z</time>
					</trkpt>
					<trkpt lat="48.973820" lon="2.304580">
						<ele>45</ele>
						<time>2025-02-02T22:14:16Z</time>
					</trkpt>
					<trkpt lat="48.973860" lon="2.304510">
						<ele>45</ele>
						<time>2025-02-02T22:14:17Z</time>
					</trkpt>
					<trkpt lat="48.974170" lon="2.304220">
						<ele>44</ele>
						<time>2025-02-02T22:14:23Z</time>
					</trkpt>
					<trkpt lat="48.974440" lon="2.303640">
						<ele>44</ele>
						<time>2025-02-02T22:14:32Z</time>
					</trkpt>
					<trkpt lat="48.974940" lon="2.302240">
						<ele>43</ele>
						<time>2025-02-02T22:14:50Z</time>
					</trkpt>
					<trkpt lat="48.975420" lon="2.301400">
						<ele>42</ele>
						<time>2025-02-02T22:15:03Z</time>
					</trkpt>
					<trkpt lat="48.975600" lon="2.301270">
						<ele>42</ele>
						<time>2025-02-02T22:15:07Z</time>
					</trkpt>
					<trkpt lat="48.976320" lon="2.300900">
						<ele>42</ele>
						<time>2025-02-02T22:15:20Z</time>
					</trkpt>
					<trkpt lat="48.976370" lon="2.300910">
						<ele>42</ele>
						<time>2025-02-02T22:15:21Z</time>
					</trkpt>
					<trkpt lat="48.976560" lon="2.301030">
						<ele>42</ele>
						<time>2025-02-02T22:15:25Z</time>
					</trkpt>
					<trkpt lat="48.976730" lon="2.301060">
						<ele>42</ele>
						<time>2025-02-02T22:15:28Z</time>
					</trkpt>
					<trkpt lat="48.980200" lon="2.300690">
						<ele>47</ele>
						<time>2025-02-02T22:16:30Z</time>
					</trkpt>
					<trkpt lat="48.980220" lon="2.300740">
						<ele>47</ele>
						<time>2025-02-02T22:16:30Z</time>
					</trkpt>
					<trkpt lat="48.980280" lon="2.300780">
						<ele>47</ele>
						<time>2025-02-02T22:16:32Z</time>
					</trkpt>
					<trkpt lat="48.980330" lon="2.300730">
						<ele>47</ele>
						<time>2025-02-02T22:16:33Z</time>
					</trkpt>
					<trkpt lat="48.980340" lon="2.300660">
						<ele>47</ele>
						<time>2025-02-02T22:16:33Z</time>
					</trkpt>
					<trkpt lat="48.982270" lon="2.300460">
						<ele>47</ele>
						<time>2025-02-02T22:17:08Z</time>
					</trkpt>
					<trkpt lat="48.982350" lon="2.300470">
						<ele>47</ele>
						<time>2025-02-02T22:17:09Z</time>
					</trkpt>
					<trkpt lat="48.982400" lon="2.300540">
						<ele>47</ele>
						<time>2025-02-02T22:17:11Z</time>
					</trkpt>
					<trkpt lat="48.984150" lon="2.299060">
						<ele>43</ele>
						<time>2025-02-02T22:17:46Z</time>
					</trkpt>
					<trkpt lat="48.984220" lon="2.299170">
						<ele>43</ele>
						<time>2025-02-02T22:17:48Z</time>
					</trkpt>
					<trkpt lat="48.985020" lon="2.299590">
						<ele>46</ele>
						<time>2025-02-02T22:18:03Z</time>
					</trkpt>
					<trkpt lat="48.987650" lon="2.300900">
						<ele>48</ele>
						<time>2025-02-02T22:18:52Z</time>
					</trkpt>
					<trkpt lat="48.987760" lon="2.300940">
						<ele>48</ele>
						<time>2025-02-02T22:18:54Z</time>
					</trkpt>
					<trkpt lat="48.987860" lon="2.300940">
						<ele>48</ele>
						<time>2025-02-02T22:18:56Z</time>
					</trkpt>
					<trkpt lat="48.989960" lon="2.299910">
						<ele>52</ele>
						<time>2025-02-02T22:19:35Z</time>
					</trkpt>
					<trkpt lat="48.991870" lon="2.298940">
						<ele>58</ele>
						<time>2025-02-02T22:20:11Z</time>
					</trkpt>
					<trkpt lat="48.992070" lon="2.298930">
						<ele>58</ele>
						<time>2025-02-02T22:20:15Z</time>
					</trkpt>
					<trkpt lat="48.992180" lon="2.298970">
						<ele>58</ele>
						<time>2025-02-02T22:20:17Z</time>
					</trkpt>
					<trkpt lat="48.993370" lon="2.300220">
						<ele>61</ele>
						<time>2025-02-02T22:20:42Z</time>
					</trkpt>
					<trkpt lat="48.994100" lon="2.300940">
						<ele>62</ele>
						<time>2025-02-02T22:20:58Z</time>
					</trkpt>
					<trkpt lat="48.994770" lon="2.301560">
						<ele>64</ele>
						<time>2025-02-02T22:21:12Z</time>
					</trkpt>
					<trkpt lat="48.995210" lon="2.302090">
						<ele>66</ele>
						<time>2025-02-02T22:21:22Z</time>
					</trkpt>
					<trkpt lat="48.995260" lon="2.302200">
						<ele>66</ele>
						<time>2025-02-02T22:21:23Z</time>
					</trkpt>
					<trkpt lat="48.995280" lon="2.302400">
						<ele>66</ele>
						<time>2025-02-02T22:21:26Z</time>
					</trkpt>
					<trkpt lat="48.995360" lon="2.302500">
						<ele>67</ele>
						<time>2025-02-02T22:21:28Z</time>
					</trkpt>
					<trkpt lat="48.995450" lon="2.302510">
						<ele>67</ele>
						<time>2025-02-02T22:21:29Z</time>
					</trkpt>
					<trkpt lat="48.995540" lon="2.302410">
						<ele>67</ele>
						<time>2025-02-02T22:21:31Z</time>
					</trkpt>
					<trkpt lat="48.995550" lon="2.302250">
						<ele>67</ele>
						<time>2025-02-02T22:21:33Z</time>
					</trkpt>
					<trkpt lat="48.995600" lon="2.302060">
						<ele>66</ele>
						<time>2025-02-02T22:21:35Z</time>
					</trkpt>
					<trkpt lat="48.996220" lon="2.300300">
						<ele>64</ele>
						<time>2025-02-02T22:21:59Z</time>
					</trkpt>
					<trkpt lat="48.996390" lon="2.299900">
						<ele>64</ele>
						<time>2025-02-02T22:22:04Z</time>
					</trkpt>
					<trkpt lat="48.996760" lon="2.299240">
						<ele>65</ele>
						<time>2025-02-02T22:22:14Z</time>
					</trkpt>
					<trkpt lat="48.996930" lon="2.298820">
						<ele>65</ele>
						<time>2025-02-02T22:22:20Z</time>
					</trkpt>
					<trkpt lat="48.997000" lon="2.298760">
						<ele>65</ele>
						<time>2025-02-02T22:22:22Z</time>
					</trkpt>
					<trkpt lat="48.997050" lon="2.298660">
						<ele>65</ele>
						<time>2025-02-02T22:22:23Z</time>
					</trkpt>
					<trkpt lat="48.998350" lon="2.295030">
						<ele>70</ele>
						<time>2025-02-02T22:23:11Z</time>
					</trkpt>
					<trkpt lat="48.999030" lon="2.293770">
						<ele>70</ele>
						<time>2025-02-02T22:23:30Z</time>
					</trkpt>
					<trkpt lat="48.999140" lon="2.293660">
						<ele>70</ele>
						<time>2025-02-02T22:23:33Z</time>
					</trkpt>
					<trkpt lat="48.999240" lon="2.293600">
						<ele>70</ele>
						<time>2025-02-02T22:23:35Z</time>
					</trkpt>
					<trkpt lat="48.999290" lon="2.293600">
						<ele>70</ele>
						<time>2025-02-02T22:23:36Z</time>
					</trkpt>
					<trkpt lat="48.999360" lon="2.293500">
						<ele>71</ele>
						<time>2025-02-02T22:23:37Z</time>
					</trkpt>
					<trkpt lat="48.999380" lon="2.293370">
						<ele>71</ele>
						<time>2025-02-02T22:23:39Z</time>
					</trkpt>
					<trkpt lat="48.999440" lon="2.293230">
						<ele>70</ele>
						<time>2025-02-02T22:23:41Z</time>
					</trkpt>
					<trkpt lat="48.999420" lon="2.292910">
						<ele>70</ele>
						<time>2025-02-02T22:23:44Z</time>
					</trkpt>
					<trkpt lat="48.999690" lon="2.292130">
						<ele>69</ele>
						<time>2025-02-02T22:23:55Z</time>
					</trkpt>
					<trkpt lat="49.000650" lon="2.290660">
						<ele>71</ele>
						<time>2025-02-02T22:24:19Z</time>
					</trkpt>
					<trkpt lat="49.001240" lon="2.289690">
						<ele>71</ele>
						<time>2025-02-02T22:24:34Z</time>
					</trkpt>
					<trkpt lat="49.001450" lon="2.289280">
						<ele>70</ele>
						<time>2025-02-02T22:24:41Z</time>
					</trkpt>
					<trkpt lat="49.001290" lon="2.289110">
						<ele>70</ele>
						<time>2025-02-02T22:24:44Z</time>
					</trkpt>
					<trkpt lat="49.001220" lon="2.288950">
						<ele>70</ele>
						<time>2025-02-02T22:24:46Z</time>
					</trkpt>
					<trkpt lat="49.001250" lon="2.288740">
						<ele>70</ele>
						<time>2025-02-02T22:24:49Z</time>
					</trkpt>
					<trkpt lat="49.001590" lon="2.287880">
						<ele>70</ele>
						<time>2025-02-02T22:25:00Z</time>
					</trkpt>
					<trkpt lat="49.001690" lon="2.287550">
						<ele>69</ele>
						<time>2025-02-02T22:25:05Z</time>
					</trkpt>
					<trkpt lat="49.002010" lon="2.286870">
						<ele>66</ele>
						<time>2025-02-02T22:25:14Z</time>
					</trkpt>
					<trkpt lat="49.002140" lon="2.286310">
						<ele>65</ele>
						<time>2025-02-02T22:25:21Z</time>
					</trkpt>
					<trkpt lat="49.002250" lon="2.285980">
						<ele>65</ele>
						<time>2025-02-02T22:25:26Z</time>
					</trkpt>
					<trkpt lat="49.002620" lon="2.284200">
						<ele>61</ele>
						<time>2025-02-02T22:25:48Z</time>
					</trkpt>
					<trkpt lat="49.003000" lon="2.283160">
						<ele>63</ele>
						<time>2025-02-02T22:26:01Z</time>
					</trkpt>
					<trkpt lat="49.003550" lon="2.281480">
						<ele>64</ele>
						<time>2025-02-02T22:26:23Z</time>
					</trkpt>
					<trkpt lat="49.003600" lon="2.281430">
						<ele>64</ele>
						<time>2025-02-02T22:26:24Z</time>
					</trkpt>
					<trkpt lat="49.003710" lon="2.281410">
						<ele>65</ele>
						<time>2025-02-02T22:26:26Z</time>
					</trkpt>
					<trkpt lat="49.003830" lon="2.281440">
						<ele>65</ele>
						<time>2025-02-02T22:26:29Z</time>
					</trkpt>
					<trkpt lat="49.004200" lon="2.281680">
						<ele>66</ele>
						<time>2025-02-02T22:26:36Z</time>
					</trkpt>
					<trkpt lat="49.004300" lon="2.281790">
						<ele>66</ele>
						<time>2025-02-02T22:26:38Z</time>
					</trkpt>
					<trkpt lat="49.005300" lon="2.282530">
						<ele>67</ele>
						<time>2025-02-02T22:26:58Z</time>
					</trkpt>
					<trkpt lat="49.005930" lon="2.282950">
						<ele>68</ele>
						<time>2025-02-02T22:27:10Z</time>
					</trkpt>
					<trkpt lat="49.006200" lon="2.283160">
						<ele>68</ele>
						<time>2025-02-02T22:27:15Z</time>
					</trkpt>
					<trkpt lat="49.006280" lon="2.283260">
						<ele>68</ele>
						<time>2025-02-02T22:27:17Z</time>
					</trkpt>
					<trkpt lat="49.006560" lon="2.284120">
						<ele>68</ele>
						<time>2025-02-02T22:27:28Z</time>
					</trkpt>
					<trkpt lat="49.006620" lon="2.284240">
						<ele>68</ele>
						<time>2025-02-02T22:27:30Z</time>
					</trkpt>
					<trkpt lat="49.006720" lon="2.284290">
						<ele>68</ele>
						<time>2025-02-02T22:27:32Z</time>
					</trkpt>
					<trkpt lat="49.007280" lon="2.284480">
						<ele>70</ele>
						<time>2025-02-02T22:27:42Z</time>
					</trkpt>
					<trkpt lat="49.007770" lon="2.284610">
						<ele>71</ele>
						<time>2025-02-02T22:27:51Z</time>
					</trkpt>
					<trkpt lat="49.008080" lon="2.284660">
						<ele>71</ele>
						<time>2025-02-02T22:27:57Z</time>
					</trkpt>
					<trkpt lat="49.008530" lon="2.284660">
						<ele>72</ele>
						<time>2025-02-02T22:28:05Z</time>
					</trkpt>
					<trkpt lat="49.008930" lon="2.284720">
						<ele>73</ele>
						<time>2025-02-02T22:28:12Z</time>
					</trkpt>
					<trkpt lat="49.010240" lon="2.285150">
						<ele>78</ele>
						<time>2025-02-02T22:28:36Z</time>
					</trkpt>
					<trkpt lat="49.010590" lon="2.285220">
						<ele>78</ele>
						<time>2025-02-02T22:28:42Z</time>
					</trkpt>
					<trkpt lat="49.010870" lon="2.285390">
						<ele>78</ele>
						<time>2025-02-02T22:28:47Z</time>
					</trkpt>
					<trkpt lat="49.011260" lon="2.285560">
						<ele>79</ele>
						<time>2025-02-02T22:28:54Z</time>
					</trkpt>
					<trkpt lat="49.011650" lon="2.285700">
						<ele>80</ele>
						<time>2025-02-02T22:29:02Z</time>
					</trkpt>
					<trkpt lat="49.012210" lon="2.285850">
						<ele>81</ele>
						<time>2025-02-02T22:29:12Z</time>
					</trkpt>
					<trkpt lat="49.012790" lon="2.286130">
						<ele>81</ele>
						<time>2025-02-02T22:29:22Z</time>
					</trkpt>
					<trkpt lat="49.013310" lon="2.286300">
						<ele>80</ele>
						<time>2025-02-02T22:29:32Z</time>
					</trkpt>
					<trkpt lat="49.013690" lon="2.286370">
						<ele>80</ele>
						<time>2025-02-02T22:29:39Z</time>
					</trkpt>
					<trkpt lat="49.013860" lon="2.286430">
						<ele>80</ele>
						<time>2025-02-02T22:29:42Z</time>
					</trkpt>
					<trkpt lat="49.014110" lon="2.286620">
						<ele>79</ele>
						<time>2025-02-02T22:29:47Z</time>
					</trkpt>
					<trkpt lat="49.014110" lon="2.286740">
						<ele>79</ele>
						<time>2025-02-02T22:29:48Z</time>
					</trkpt>
					<trkpt lat="49.014140" lon="2.286790">
						<ele>79</ele>
						<time>2025-02-02T22:29:49Z</time>
					</trkpt>
					<trkpt lat="49.014200" lon="2.286820">
						<ele>79</ele>
						<time>2025-02-02T22:29:50Z</time>
					</trkpt>
					<trkpt lat="49.014360" lon="2.286990">
						<ele>80</ele>
						<time>2025-02-02T22:29:54Z</time>
					</trkpt>
					<trkpt lat="49.015120" lon="2.287930">
						<ele>82</ele>
						<time>2025-02-02T22:30:11Z</time>
					</trkpt>
					<trkpt lat="49.015430" lon="2.288210">
						<ele>84</ele>
						<time>2025-02-02T22:30:17Z</time>
					</trkpt>
					<trkpt lat="49.016420" lon="2.288900">
						<ele>86</ele>
						<time>2025-02-02T22:30:37Z</time>
					</trkpt>
					<trkpt lat="49.016850" lon="2.289110">
						<ele>86</ele>
						<time>2025-02-02T22:30:45Z</time>
					</trkpt>
					<trkpt lat="49.017440" lon="2.289350">
						<ele>87</ele>
						<time>2025-02-02T22:30:56Z</time>
					</trkpt>
					<trkpt lat="49.017570" lon="2.289430">
						<ele>87</ele>
						<time>2025-02-02T22:30:58Z</time>
					</trkpt>
					<trkpt lat="49.017730" lon="2.289600">
						<ele>87</ele>
						<time>2025-02-02T22:31:02Z</time>
					</trkpt>
					<trkpt lat="49.018180" lon="2.290360">
						<ele>89</ele>
						<time>2025-02-02T22:31:14Z</time>
					</trkpt>
					<trkpt lat="49.018520" lon="2.290820">
						<ele>91</ele>
						<time>2025-02-02T22:31:22Z</time>
					</trkpt>
					<trkpt lat="49.018790" lon="2.291080">
						<ele>94</ele>
						<time>2025-02-02T22:31:27Z</time>
					</trkpt>
					<trkpt lat="49.019110" lon="2.291340">
						<ele>95</ele>
						<time>2025-02-02T22:31:34Z</time>
					</trkpt>
					<trkpt lat="49.019950" lon="2.291800">
						<ele>97</ele>
						<time>2025-02-02T22:31:50Z</time>
					</trkpt>
					<trkpt lat="49.020440" lon="2.291920">
						<ele>98</ele>
						<time>2025-02-02T22:31:59Z</time>
					</trkpt>
					<trkpt lat="49.020720" lon="2.292060">
						<ele>99</ele>
						<time>2025-02-02T22:32:04Z</time>
					</trkpt>
					<trkpt lat="49.020890" lon="2.292250">
						<ele>100</ele>
						<time>2025-02-02T22:32:08Z</time>
					</trkpt>
					<trkpt lat="49.021060" lon="2.292550">
						<ele>100</ele>
						<time>2025-02-02T22:32:12Z</time>
					</trkpt>
					<trkpt lat="49.021140" lon="2.292740">
						<ele>100</ele>
						<time>2025-02-02T22:32:15Z</time>
					</trkpt>
					<trkpt lat="49.021390" lon="2.293550">
						<ele>100</ele>
						<time>2025-02-02T22:32:25Z</time>
					</trkpt>
					<trkpt lat="49.021500" lon="2.293800">
						<ele>101</ele>
						<time>2025-02-02T22:32:29Z</time>
					</trkpt>
					<trkpt lat="49.021640" lon="2.294000">
						<ele>101</ele>
						<time>2025-02-02T22:32:32Z</time>
					</trkpt>
					<trkpt lat="49.022620" lon="2.295060">
						<ele>103</ele>
						<time>2025-02-02T22:32:54Z</time>
					</trkpt>
					<trkpt lat="49.024360" lon="2.296550">
						<ele>101</ele>
						<time>2025-02-02T22:33:29Z</time>
					</trkpt>
					<trkpt lat="49.024580" lon="2.296790">
						<ele>102</ele>
						<time>2025-02-02T22:33:34Z</time>
					</trkpt>
					<trkpt lat="49.024850" lon="2.297170">
						<ele>103</ele>
						<time>2025-02-02T22:33:40Z</time>
					</trkpt>
					<trkpt lat="49.025030" lon="2.297510">
						<ele>103</ele>
						<time>2025-02-02T22:33:46Z</time>
					</trkpt>
					<trkpt lat="49.025260" lon="2.298190">
						<ele>106</ele>
						<time>2025-02-02T22:33:54Z</time>
					</trkpt>
					<trkpt lat="49.025390" lon="2.298800">
						<ele>107</ele>
						<time>2025-02-02T22:34:02Z</time>
					</trkpt>
					<trkpt lat="49.025410" lon="2.299180">
						<ele>107</ele>
						<time>2025-02-02T22:34:06Z</time>
					</trkpt>
					<trkpt lat="49.025370" lon="2.300100">
						<ele>108</ele>
						<time>2025-02-02T22:34:17Z</time>
					</trkpt>
					<trkpt lat="49.025130" lon="2.303380">
						<ele>122</ele>
						<time>2025-02-02T22:34:56Z</time>
					</trkpt>
					<trkpt lat="49.025180" lon="2.304010">
						<ele>125</ele>
						<time>2025-02-02T22:35:03Z</time>
					</trkpt>
					<trkpt lat="49.025860" lon="2.310030">
						<ele>143</ele>
						<time>2025-02-02T22:36:14Z</time>
					</trkpt>
					<trkpt lat="49.025910" lon="2.310630">
						<ele>144</ele>
						<time>2025-02-02T22:36:21Z</time>
					</trkpt>
					<trkpt lat="49.026010" lon="2.311060">
						<ele>146</ele>
						<time>2025-02-02T22:36:27Z</time>
					</trkpt>
					<trkpt lat="49.026180" lon="2.311460">
						<ele>148</ele>
						<time>2025-02-02T22:36:32Z</time>
					</trkpt>
					<trkpt lat="49.026440" lon="2.311750">
						<ele>150</ele>
						<time>2025-02-02T22:36:38Z</time>
					</trkpt>
					<trkpt lat="49.026610" lon="2.311860">
						<ele>151</ele>
						<time>2025-02-02T22:36:41Z</time>
					</trkpt>
					<trkpt lat="49.026860" lon="2.311950">
						<ele>152</ele>
						<time>2025-02-02T22:36:46Z</time>
					</trkpt>
					<trkpt lat="49.027140" lon="2.312000">
						<ele>153</ele>
						<time>2025-02-02T22:36:51Z</time>
					</trkpt>
					<trkpt lat="49.027380" lon="2.311980">
						<ele>153</ele>
						<time>2025-02-02T22:36:55Z</time>
					</trkpt>
					<trkpt lat="49.027520" lon="2.311940">
						<ele>154</ele>
						<time>2025-02-02T22:36:58Z</time>
					</trkpt>
					<trkpt lat="49.027730" lon="2.311820">
						<ele>154</ele>
						<time>2025-02-02T22:37:02Z</time>
					</trkpt>
					<trkpt lat="49.027870" lon="2.311710">
						<ele>154</ele>
						<time>2025-02-02T22:37:04Z</time>
					</trkpt>
					<trkpt lat="49.028100" lon="2.311420">
						<ele>156</ele>
						<time>2025-02-02T22:37:10Z</time>
					</trkpt>
					<trkpt lat="49.028200" lon="2.311230">
						<ele>156</ele>
						<time>2025-02-02T22:37:13Z</time>
					</trkpt>
					<trkpt lat="49.028480" lon="2.310550">
						<ele>157</ele>
						<time>2025-02-02T22:37:22Z</time>
					</trkpt>
					<trkpt lat="49.028640" lon="2.310300">
						<ele>158</ele>
						<time>2025-02-02T22:37:26Z</time>
					</trkpt>
					<trkpt lat="49.029170" lon="2.309830">
						<ele>158</ele>
						<time>2025-02-02T22:37:37Z</time>
					</trkpt>
					<trkpt lat="49.029580" lon="2.309300">
						<ele>159</ele>
						<time>2025-02-02T22:37:47Z</time>
					</trkpt>
					<trkpt lat="49.030530" lon="2.308270">
						<ele>156</ele>
						<time>2025-02-02T22:38:07Z</time>
					</trkpt>
					<trkpt lat="49.030680" lon="2.308190">
						<ele>156</ele>
						<time>2025-02-02T22:38:10Z</time>
					</trkpt>
					<trkpt lat="49.030870" lon="2.308160">
						<ele>155</ele>
						<time>2025-02-02T22:38:13Z</time>
					</trkpt>
					<trkpt lat="49.031070" lon="2.308170">
						<ele>155</ele>
						<time>2025-02-02T22:38:17Z</time>
					</trkpt>
					<trkpt lat="49.031200" lon="2.308220">
						<ele>154</ele>
						<time>2025-02-02T22:38:19Z</time>
					</trkpt>
					<trkpt lat="49.031520" lon="2.308470">
						<ele>153</ele>
						<time>2025-02-02T22:38:26Z</time>
					</trkpt>
					<trkpt lat="49.032450" lon="2.309900">
						<ele>146</ele>
						<time>2025-02-02T22:38:49Z</time>
					</trkpt>
					<trkpt lat="49.032710" lon="2.310200">
						<ele>143</ele>
						<time>2025-02-02T22:38:55Z</time>
					</trkpt>
					<trkpt lat="49.033090" lon="2.310580">
						<ele>138</ele>
						<time>2025-02-02T22:39:03Z</time>
					</trkpt>
					<trkpt lat="49.033670" lon="2.310930">
						<ele>131</ele>
						<time>2025-02-02T22:39:14Z</time>
					</trkpt>
					<trkpt lat="49.036890" lon="2.311960">
						<ele>116</ele>
						<time>2025-02-02T22:40:13Z</time>
					</trkpt>
					<trkpt lat="49.037150" lon="2.312060">
						<ele>115</ele>
						<time>2025-02-02T22:40:18Z</time>
					</trkpt>
					<trkpt lat="49.037420" lon="2.312230">
						<ele>114</ele>
						<time>2025-02-02T22:40:23Z</time>
					</trkpt>
					<trkpt lat="49.039240" lon="2.315060">
						<ele>109</ele>
						<time>2025-02-02T22:41:09Z</time>
					</trkpt>
					<trkpt lat="49.039500" lon="2.315520">
						<ele>109</ele>
						<time>2025-02-02T22:41:16Z</time>
					</trkpt>
					<trkpt lat="49.039780" lon="2.315880">
						<ele>109</ele>
						<time>2025-02-02T22:41:23Z</time>
					</trkpt>
					<trkpt lat="49.040450" lon="2.316950">
						<ele>109</ele>
						<time>2025-02-02T22:41:40Z</time>
					</trkpt>
					<trkpt lat="49.040610" lon="2.317250">
						<ele>109</ele>
						<time>2025-02-02T22:41:44Z</time>
					</trkpt>
					<trkpt lat="49.040720" lon="2.317530">
						<ele>109</ele>
						<time>2025-02-02T22:41:48Z</time>
					</trkpt>
					<trkpt lat="49.041120" lon="2.318810">
						<ele>106</ele>
						<time>2025-02-02T22:42:05Z</time>
					</trkpt>
					<trkpt lat="49.041380" lon="2.319300">
						<ele>105</ele>
						<time>2025-02-02T22:42:12Z</time>
					</trkpt>
					<trkpt lat="49.041850" lon="2.319890">
						<ele>103</ele>
						<time>2025-02-02T22:42:23Z</time>
					</trkpt>
					<trkpt lat="49.041920" lon="2.319950">
						<ele>103</ele>
						<time>2025-02-02T22:42:24Z</time>
					</trkpt>
					<trkpt lat="49.042020" lon="2.319990">
						<ele>103</ele>
						<time>2025-02-02T22:42:26Z</time>
					</trkpt>
					<trkpt lat="49.042160" lon="2.320140">
						<ele>103</ele>
						<time>2025-02-02T22:42:29Z</time>
					</trkpt>
					<trkpt lat="49.042240" lon="2.320320">
						<ele>102</ele>
						<time>2025-02-02T22:42:32Z</time>
					</trkpt>
					<trkpt lat="49.042540" lon="2.320670">
						<ele>101</ele>
						<time>2025-02-02T22:42:39Z</time>
					</trkpt>
					<trkpt lat="49.042610" lon="2.320790">
						<ele>100</ele>
						<time>2025-02-02T22:42:40Z</time>
					</trkpt>
					<trkpt lat="49.043030" lon="2.321320">
						<ele>101</ele>
						<time>2025-02-02T22:42:50Z</time>
					</trkpt>
					<trkpt lat="49.043470" lon="2.322440">
						<ele>99</ele>
						<time>2025-02-02T22:43:05Z</time>
					</trkpt>
					<trkpt lat="49.043840" lon="2.323600">
						<ele>99</ele>
						<time>2025-02-02T22:43:20Z</time>
					</trkpt>
					<trkpt lat="49.044340" lon="2.324700">
						<ele>97</ele>
						<time>2025-02-02T22:43:36Z</time>
					</trkpt>
					<trkpt lat="49.045230" lon="2.327490">
						<ele>94</ele>
						<time>2025-02-02T22:44:12Z</time>
					</trkpt>
					<trkpt lat="49.045560" lon="2.328340">
						<ele>94</ele>
						<time>2025-02-02T22:44:24Z</time>
					</trkpt>
					<trkpt lat="49.045770" lon="2.328980">
						<ele>92</ele>
						<time>2025-02-02T22:44:32Z</time>
					</trkpt>
					<trkpt lat="49.045900" lon="2.329250">
						<ele>91</ele>
						<time>2025-02-02T22:44:36Z</time>
					</trkpt>
					<trkpt lat="49.046200" lon="2.329780">
						<ele>92</ele>
						<time>2025-02-02T22:44:44Z</time>
					</trkpt>
					<trkpt lat="49.046440" lon="2.330330">
						<ele>91</ele>
						<time>2025-02-02T22:44:52Z</time>
					</trkpt>
					<trkpt lat="49.046560" lon="2.330550">
						<ele>91</ele>
						<time>2025-02-02T22:44:55Z</time>
					</trkpt>
					<trkpt lat="49.047240" lon="2.331630">
						<ele>90</ele>
						<time>2025-02-02T22:45:13Z</time>
					</trkpt>
					<trkpt lat="49.047350" lon="2.331900">
						<ele>89</ele>
						<time>2025-02-02T22:45:16Z</time>
					</trkpt>
					<trkpt lat="49.047660" lon="2.332140">
						<ele>88</ele>
						<time>2025-02-02T22:45:23Z</time>
					</trkpt>
					<trkpt lat="49.048300" lon="2.333110">
						<ele>85</ele>
						<time>2025-02-02T22:45:39Z</time>
					</trkpt>
					<trkpt lat="49.048430" lon="2.333240">
						<ele>85</ele>
						<time>2025-02-02T22:45:41Z</time>
					</trkpt>
					<trkpt lat="49.048460" lon="2.333350">
						<ele>85</ele>
						<time>2025-02-02T22:45:43Z</time>
					</trkpt>
					<trkpt lat="49.048530" lon="2.333400">
						<ele>85</ele>
						<time>2025-02-02T22:45:44Z</time>
					</trkpt>
					<trkpt lat="49.048840" lon="2.333780">
						<ele>86</ele>
						<time>2025-02-02T22:45:51Z</time>
					</trkpt>
					<trkpt lat="49.049260" lon="2.334240">
						<ele>86</ele>
						<time>2025-02-02T22:46:00Z</time>
					</trkpt>
					<trkpt lat="49.048370" lon="2.335470">
						<ele>85</ele>
						<time>2025-02-02T22:46:22Z</time>
					</trkpt>
					<trkpt lat="49.048260" lon="2.335670">
						<ele>85</ele>
						<time>2025-02-02T22:46:25Z</time>
					</trkpt>
					<trkpt lat="49.048110" lon="2.336220">
						<ele>86</ele>
						<time>2025-02-02T22:46:32Z</time>
					</trkpt>
					<trkpt lat="49.048090" lon="2.336350">
						<ele>86</ele>
						<time>2025-02-02T22:46:33Z</time>
					</trkpt>
					<trkpt lat="49.048110" lon="2.336460">
						<ele>86</ele>
						<time>2025-02-02T22:46:35Z</time>
					</trkpt>
					<trkpt lat="49.049730" lon="2.335660">
						<ele>92</ele>
						<time>2025-02-02T22:47:05Z</time>
					</trkpt>
					<trkpt lat="49.050210" lon="2.335510">
						<ele>94</ele>
						<time>2025-02-02T22:47:14Z</time>
					</trkpt>
					<trkpt lat="49.050270" lon="2.335650">
						<ele>95</ele>
						<time>2025-02-02T22:47:16Z</time>
					</trkpt>
					<trkpt lat="49.050530" lon="2.336860">
						<ele>97</ele>
						<time>2025-02-02T22:47:30Z</time>
					</trkpt>
					<trkpt lat="49.051000" lon="2.337800">
						<ele>98</ele>
						<time>2025-02-02T22:47:44Z</time>
					</trkpt>
					<trkpt lat="49.051680" lon="2.338990">
						<ele>99</ele>
						<time>2025-02-02T22:48:03Z</time>
					</trkpt>
					<trkpt lat="49.054930" lon="2.342160">
						<ele>97</ele>
						<time>2025-02-02T22:49:11Z</time>
					</trkpt>
					<trkpt lat="49.055450" lon="2.342560">
						<ele>98</ele>
						<time>2025-02-02T22:49:22Z</time>
					</trkpt>
					<trkpt lat="49.056280" lon="2.343070">
						<ele>97</ele>
						<time>2025-02-02T22:49:38Z</time>
					</trkpt>
					<trkpt lat="49.056410" lon="2.343300">
						<ele>97</ele>
						<time>2025-02-02T22:49:41Z</time>
					</trkpt>
					<trkpt lat="49.056790" lon="2.344850">
						<ele>96</ele>
						<time>2025-02-02T22:50:00Z</time>
					</trkpt>
					<trkpt lat="49.056880" lon="2.345010">
						<ele>97</ele>
						<time>2025-02-02T22:50:03Z</time>
					</trkpt>
					<trkpt lat="49.056980" lon="2.345080">
						<ele>96</ele>
						<time>2025-02-02T22:50:05Z</time>
					</trkpt>
					<trkpt lat="49.057320" lon="2.345610">
						<ele>97</ele>
						<time>2025-02-02T22:50:13Z</time>
					</trkpt>
					<trkpt lat="49.057450" lon="2.345900">
						<ele>98</ele>
						<time>2025-02-02T22:50:18Z</time>
					</trkpt>
					<trkpt lat="49.057500" lon="2.346150">
						<ele>100</ele>
						<time>2025-02-02T22:50:21Z</time>
					</trkpt>
					<trkpt lat="49.057550" lon="2.346270">
						<ele>100</ele>
						<time>2025-02-02T22:50:22Z</time>
					</trkpt>
					<trkpt lat="49.057710" lon="2.346530">
						<ele>102</ele>
						<time>2025-02-02T22:50:26Z</time>
					</trkpt>
					<trkpt lat="49.058020" lon="2.346940">
						<ele>104</ele>
						<time>2025-02-02T22:50:34Z</time>
					</trkpt>
					<trkpt lat="49.058180" lon="2.347670">
						<ele>108</ele>
						<time>2025-02-02T22:50:43Z</time>
					</trkpt>
					<trkpt lat="49.058240" lon="2.348100">
						<ele>108</ele>
						<time>2025-02-02T22:50:48Z</time>
					</trkpt>
					<trkpt lat="49.058280" lon="2.349300">
						<ele>108</ele>
						<time>2025-02-02T22:51:02Z</time>
					</trkpt>
					<trkpt lat="49.058380" lon="2.350250">
						<ele>108</ele>
						<time>2025-02-02T22:51:13Z</time>
					</trkpt>
					<trkpt lat="49.058810" lon="2.351820">
						<ele>107</ele>
						<time>2025-02-02T22:51:33Z</time>
					</trkpt>
					<trkpt lat="49.059120" lon="2.352740">
						<ele>108</ele>
						<time>2025-02-02T22:51:45Z</time>
					</trkpt>
					<trkpt lat="49.059040" lon="2.352920">
						<ele>108</ele>
						<time>2025-02-02T22:51:47Z</time>
					</trkpt>
					<trkpt lat="49.059010" lon="2.353080">
						<ele>108</ele>
						<time>2025-02-02T22:51:49Z</time>
					</trkpt>
					<trkpt lat="49.059160" lon="2.357150">
						<ele>113</ele>
						<time>2025-02-02T22:52:37Z</time>
					</trkpt>
					<trkpt lat="49.059120" lon="2.358700">
						<ele>113</ele>
						<time>2025-02-02T22:52:55Z</time>
					</trkpt>
					<trkpt lat="49.059180" lon="2.360720">
						<ele>113</ele>
						<time>2025-02-02T22:53:19Z</time>
					</trkpt>
					<trkpt lat="49.059190" lon="2.362320">
						<ele>111</ele>
						<time>2025-02-02T22:53:37Z</time>
					</trkpt>
					<trkpt lat="49.059810" lon="2.366300">
						<ele>109</ele>
						<time>2025-02-02T22:54:25Z</time>
					</trkpt>
					<trkpt lat="49.060310" lon="2.368900">
						<ele>108</ele>
						<time>2025-02-02T22:54:57Z</time>
					</trkpt>
					<trkpt lat="49.060350" lon="2.369710">
						<ele>109</ele>
						<time>2025-02-02T22:55:06Z</time>
					</trkpt>
					<trkpt lat="49.060310" lon="2.370640">
						<ele>113</ele>
						<time>2025-02-02T22:55:17Z</time>
					</trkpt>
					<trkpt lat="49.060340" lon="2.373910">
						<ele>117</ele>
						<time>2025-02-02T22:55:55Z</time>
					</trkpt>
					<trkpt lat="49.060370" lon="2.374910">
						<ele>117</ele>
						<time>2025-02-02T22:56:07Z</time>
					</trkpt>
					<trkpt lat="49.060810" lon="2.377280">
						<ele>117</ele>
						<time>2025-02-02T22:56:35Z</time>
					</trkpt>
					<trkpt lat="49.061090" lon="2.378640">
						<ele>118</ele>
						<time>2025-02-02T22:56:52Z</time>
					</trkpt>
					<trkpt lat="49.061110" lon="2.379340">
						<ele>118</ele>
						<time>2025-02-02T22:57:00Z</time>
					</trkpt>
					<trkpt lat="49.061040" lon="2.380970">
						<ele>118</ele>
						<time>2025-02-02T22:57:19Z</time>
					</trkpt>
					<trkpt lat="49.060800" lon="2.382570">
						<ele>118</ele>
						<time>2025-02-02T22:57:38Z</time>
					</trkpt>
					<trkpt lat="49.060670" lon="2.383670">
						<ele>117</ele>
						<time>2025-02-02T22:57:51Z</time>
					</trkpt>
					<trkpt lat="49.063850" lon="2.385000">
						<ele>121</ele>
						<time>2025-02-02T22:58:50Z</time>
					</trkpt>
					<trkpt lat="49.065730" lon="2.385550">
						<ele>119</ele>
						<time>2025-02-02T22:59:24Z</time>
					</trkpt>
					<trkpt lat="49.066820" lon="2.385930">
						<ele>121</ele>
						<time>2025-02-02T22:59:44Z</time>
					</trkpt>
					<trkpt lat="49.067250" lon="2.386250">
						<ele>121</ele>
						<time>2025-02-02T22:59:53Z</time>
					</trkpt>
					<trkpt lat="49.067670" lon="2.386410">
						<ele>122</ele>
						<time>2025-02-02T23:00:00Z</time>
					</trkpt>
					<trkpt lat="49.068820" lon="2.386340">
						<ele>126</ele>
						<time>2025-02-02T23:00:21Z</time>
					</trkpt>
					<trkpt lat="49.069060" lon="2.386380">
						<ele>126</ele>
						<time>2025-02-02T23:00:25Z</time>
					</trkpt>
					<trkpt lat="49.069490" lon="2.386590">
						<ele>127</ele>
						<time>2025-02-02T23:00:33Z</time>
					</trkpt>
					<trkpt lat="49.069590" lon="2.386660">
						<ele>127</ele>
						<time>2025-02-02T23:00:35Z</time>
					</trkpt>
					<trkpt lat="49.069680" lon="2.386830">
						<ele>127</ele>
						<time>2025-02-02T23:00:38Z</time>
					</trkpt>
					<trkpt lat="49.069870" lon="2.387370">
						<ele>127</ele>
						<time>2025-02-02T23:00:45Z</time>
					</trkpt>
					<trkpt lat="49.069860" lon="2.387350">
						<ele>127</ele>
						<time>2025-02-02T23:00:45Z</time>
					</trkpt>
					<trkpt lat="49.070160" lon="2.388100">
						<ele>127</ele>
						<time>2025-02-02T23:00:55Z</time>
					</trkpt>
					<trkpt lat="49.070280" lon="2.388230">
						<ele>127</ele>
						<time>2025-02-02T23:00:58Z</time>
					</trkpt>
					<trkpt lat="49.070460" lon="2.388200">
						<ele>128</ele>
						<time>2025-02-02T23:01:01Z</time>
					</trkpt>
					<trkpt lat="49.070510" lon="2.388590">
						<ele>128</ele>
						<time>2025-02-02T23:01:06Z</time>
					</trkpt>
					<trkpt lat="49.070620" lon="2.389040">
						<ele>129</ele>
						<time>2025-02-02T23:01:11Z</time>
					</trkpt>
					<trkpt lat="49.071270" lon="2.390810">
						<ele>128</ele>
						<time>2025-02-02T23:01:35Z</time>
					</trkpt>
					<trkpt lat="49.071530" lon="2.391730">
						<ele>129</ele>
						<time>2025-02-02T23:01:47Z</time>
					</trkpt>
					<trkpt lat="49.071750" lon="2.392950">
						<ele>130</ele>
						<time>2025-02-02T23:02:01Z</time>
					</trkpt>
					<trkpt lat="49.071830" lon="2.393950">
						<ele>128</ele>
						<time>2025-02-02T23:02:13Z</time>
					</trkpt>
					<trkpt lat="49.071840" lon="2.394800">
						<ele>127</ele>
						<time>2025-02-02T23:02:23Z</time>
					</trkpt>
					<trkpt lat="49.071750" lon="2.396100">
						<ele>127</ele>
						<time>2025-02-02T23:02:38Z</time>
					</trkpt>
					<trkpt lat="49.070920" lon="2.402880">
						<ele>129</ele>
						<time>2025-02-02T23:03:59Z</time>
					</trkpt>
					<trkpt lat="49.070890" lon="2.403340">
						<ele>128</ele>
						<time>2025-02-02T23:04:04Z</time>
					</trkpt>
					<trkpt lat="49.070930" lon="2.404170">
						<ele>129</ele>
						<time>2025-02-02T23:04:14Z</time>
					</trkpt>
					<trkpt lat="49.071090" lon="2.405650">
						<ele>128</ele>
						<time>2025-02-02T23:04:31Z</time>
					</trkpt>
					<trkpt lat="49.071080" lon="2.406460">
						<ele>127</ele>
						<time>2025-02-02T23:04:41Z</time>
					</trkpt>
					<trkpt lat="49.071020" lon="2.406890">
						<ele>127</ele>
						<time>2025-02-02T23:04:46Z</time>
					</trkpt>
					<trkpt lat="49.070930" lon="2.407260">
						<ele>127</ele>
						<time>2025-02-02T23:04:50Z</time>
					</trkpt>
					<trkpt lat="49.070210" lon="2.409390">
						<ele>126</ele>
						<time>2025-02-02T23:05:18Z</time>
					</trkpt>
					<trkpt lat="49.070140" lon="2.409750">
						<ele>126</ele>
						<time>2025-02-02T23:05:23Z</time>
					</trkpt>
					<trkpt lat="49.069670" lon="2.413850">
						<ele>130</ele>
						<time>2025-02-02T23:06:11Z</time>
					</trkpt>
					<trkpt lat="49.069430" lon="2.415550">
						<ele>132</ele>
						<time>2025-02-02T23:06:32Z</time>
					</trkpt>
					<trkpt lat="49.069350" lon="2.415930">
						<ele>132</ele>
						<time>2025-02-02T23:06:36Z</time>
					</trkpt>
					<trkpt lat="49.069140" lon="2.416560">
						<ele>131</ele>
						<time>2025-02-02T23:06:44Z</time>
					</trkpt>
					<trkpt lat="49.068920" lon="2.417060">
						<ele>131</ele>
						<time>2025-02-02T23:06:51Z</time>
					</trkpt>
					<trkpt lat="49.068550" lon="2.417770">
						<ele>132</ele>
						<time>2025-02-02T23:07:02Z</time>
					</trkpt>
					<trkpt lat="49.068160" lon="2.418430">
						<ele>133</ele>
						<time>2025-02-02T23:07:12Z</time>
					</trkpt>
					<trkpt lat="49.067980" lon="2.418800">
						<ele>134</ele>
						<time>2025-02-02T23:07:18Z</time>
					</trkpt>
					<trkpt lat="49.067720" lon="2.419590">
						<ele>136</ele>
						<time>2025-02-02T23:07:28Z</time>
					</trkpt>
					<trkpt lat="49.067620" lon="2.420050">
						<ele>138</ele>
						<time>2025-02-02T23:07:34Z</time>
					</trkpt>
					<trkpt lat="49.066950" lon="2.424280">
						<ele>138</ele>
						<time>2025-02-02T23:08:24Z</time>
					</trkpt>
					<trkpt lat="49.066920" lon="2.424600">
						<ele>138</ele>
						<time>2025-02-02T23:08:28Z</time>
					</trkpt>
					<trkpt lat="49.066920" lon="2.425400">
						<ele>139</ele>
						<time>2025-02-02T23:08:38Z</time>
					</trkpt>
					<trkpt lat="49.066880" lon="2.425880">
						<ele>139</ele>
						<time>2025-02-02T23:08:43Z</time>
					</trkpt>
					<trkpt lat="49.066310" lon="2.428880">
						<ele>136</ele>
						<time>2025-02-02T23:09:20Z</time>
					</trkpt>
					<trkpt lat="49.066080" lon="2.429900">
						<ele>133</ele>
						<time>2025-02-02T23:09:32Z</time>
					</trkpt>
					<trkpt lat="49.066040" lon="2.430200">
						<ele>132</ele>
						<time>2025-02-02T23:09:36Z</time>
					</trkpt>
					<trkpt lat="49.065760" lon="2.431090">
						<ele>131</ele>
						<time>2025-02-02T23:09:47Z</time>
					</trkpt>
					<trkpt lat="49.065770" lon="2.431140">
						<ele>131</ele>
						<time>2025-02-02T23:09:48Z</time>
					</trkpt>
					<trkpt lat="49.065890" lon="2.431330">
						<ele>131</ele>
						<time>2025-02-02T23:09:51Z</time>
					</trkpt>
					<trkpt lat="49.066240" lon="2.431720">
						<ele>131</ele>
						<time>2025-02-02T23:09:59Z</time>
					</trkpt>
					<trkpt lat="49.068550" lon="2.434730">
						<ele>132</ele>
						<time>2025-02-02T23:10:53Z</time>
					</trkpt>
					<trkpt lat="49.068630" lon="2.434890">
						<ele>131</ele>
						<time>2025-02-02T23:10:55Z</time>
					</trkpt>
					<trkpt lat="49.068630" lon="2.434980">
						<ele>131</ele>
						<time>2025-02-02T23:10:56Z</time>
					</trkpt>
					<trkpt lat="49.067700" lon="2.439960">
						<ele>123</ele>
						<time>2025-02-02T23:11:56Z</time>
					</trkpt>
					<trkpt lat="49.067660" lon="2.440340">
						<ele>123</ele>
						<time>2025-02-02T23:12:01Z</time>
					</trkpt>
					<trkpt lat="49.067540" lon="2.443040">
						<ele>131</ele>
						<time>2025-02-02T23:12:32Z</time>
					</trkpt>
					<trkpt lat="49.067460" lon="2.443730">
						<ele>132</ele>
						<time>2025-02-02T23:12:41Z</time>
					</trkpt>
					<trkpt lat="49.066830" lon="2.446500">
						<ele>135</ele>
						<time>2025-02-02T23:13:15Z</time>
					</trkpt>
					<trkpt lat="49.066120" lon="2.449210">
						<ele>145</ele>
						<time>2025-02-02T23:13:49Z</time>
					</trkpt>
					<trkpt lat="49.066070" lon="2.449530">
						<ele>146</ele>
						<time>2025-02-02T23:13:53Z</time>
					</trkpt>
					<trkpt lat="49.066060" lon="2.449950">
						<ele>149</ele>
						<time>2025-02-02T23:13:58Z</time>
					</trkpt>
					<trkpt lat="49.066190" lon="2.453010">
						<ele>162</ele>
						<time>2025-02-02T23:14:33Z</time>
					</trkpt>
					<trkpt lat="49.066180" lon="2.453350">
						<ele>163</ele>
						<time>2025-02-02T23:14:37Z</time>
					</trkpt>
					<trkpt lat="49.066220" lon="2.453680">
						<ele>165</ele>
						<time>2025-02-02T23:14:41Z</time>
					</trkpt>
					<trkpt lat="49.066310" lon="2.455750">
						<ele>165</ele>
						<time>2025-02-02T23:15:05Z</time>
					</trkpt>
					<trkpt lat="49.066310" lon="2.457590">
						<ele>163</ele>
						<time>2025-02-02T23:15:27Z</time>
					</trkpt>
					<trkpt lat="49.066280" lon="2.459310">
						<ele>160</ele>
						<time>2025-02-02T23:15:47Z</time>
					</trkpt>
					<trkpt lat="49.066350" lon="2.460590">
						<ele>154</ele>
						<time>2025-02-02T23:16:02Z</time>
					</trkpt>
					<trkpt lat="49.066340" lon="2.460860">
						<ele>153</ele>
						<time>2025-02-02T23:16:05Z</time>
					</trkpt>
					<trkpt lat="49.066430" lon="2.462080">
						<ele>150</ele>
						<time>2025-02-02T23:16:19Z</time>
					</trkpt>
					<trkpt lat="49.066480" lon="2.462380">
						<ele>150</ele>
						<time>2025-02-02T23:16:23Z</time>
					</trkpt>
					<trkpt lat="49.066780" lon="2.463480">
						<ele>147</ele>
						<time>2025-02-02T23:16:37Z</time>
					</trkpt>
					<trkpt lat="49.067080" lon="2.464200">
						<ele>142</ele>
						<time>2025-02-02T23:16:47Z</time>
					</trkpt>
					<trkpt lat="49.067170" lon="2.464480">
						<ele>141</ele>
						<time>2025-02-02T23:16:50Z</time>
					</trkpt>
					<trkpt lat="49.067210" lon="2.464710">
						<ele>140</ele>
						<time>2025-02-02T23:16:53Z</time>
					</trkpt>
					<trkpt lat="49.067210" lon="2.465900">
						<ele>135</ele>
						<time>2025-02-02T23:17:07Z</time>
					</trkpt>
					<trkpt lat="49.067250" lon="2.466340">
						<ele>134</ele>
						<time>2025-02-02T23:17:12Z</time>
					</trkpt>
					<trkpt lat="49.067630" lon="2.468080">
						<ele>133</ele>
						<time>2025-02-02T23:17:34Z</time>
					</trkpt>
					<trkpt lat="49.067720" lon="2.468610">
						<ele>133</ele>
						<time>2025-02-02T23:17:40Z</time>
					</trkpt>
					<trkpt lat="49.067770" lon="2.469350">
						<ele>133</ele>
						<time>2025-02-02T23:17:49Z</time>
					</trkpt>
					<trkpt lat="49.067830" lon="2.471400">
						<ele>131</ele>
						<time>2025-02-02T23:18:13Z</time>
					</trkpt>
					<trkpt lat="49.067800" lon="2.471490">
						<ele>131</ele>
						<time>2025-02-02T23:18:14Z</time>
					</trkpt>
					<trkpt lat="49.067880" lon="2.471740">
						<ele>131</ele>
						<time>2025-02-02T23:18:17Z</time>
					</trkpt>
					<trkpt lat="49.067960" lon="2.471830">
						<ele>131</ele>
						<time>2025-02-02T23:18:19Z</time>
					</trkpt>
					<trkpt lat="49.067860" lon="2.472040">
						<ele>131</ele>
						<time>2025-02-02T23:18:22Z</time>
					</trkpt>
					<trkpt lat="49.067850" lon="2.472140">
						<ele>132</ele>
						<time>2025-02-02T23:18:23Z</time>
					</trkpt>
					<trkpt lat="49.067950" lon="2.472930">
						<ele>131</ele>
						<time>2025-02-02T23:18:32Z</time>
					</trkpt>
					<trkpt lat="49.067980" lon="2.474440">
						<ele>130</ele>
						<time>2025-02-02T23:18:50Z</time>
					</trkpt>
					<trkpt lat="49.067950" lon="2.475040">
						<ele>130</ele>
						<time>2025-02-02T23:18:57Z</time>
					</trkpt>
					<trkpt lat="49.067700" lon="2.476330">
						<ele>130</ele>
						<time>2025-02-02T23:19:13Z</time>
					</trkpt>
					<trkpt lat="49.068250" lon="2.477480">
						<ele>126</ele>
						<time>2025-02-02T23:19:29Z</time>
					</trkpt>
					<trkpt lat="49.068530" lon="2.477720">
						<ele>123</ele>
						<time>2025-02-02T23:19:35Z</time>
					</trkpt>
					<trkpt lat="49.068590" lon="2.477810">
						<ele>123</ele>
						<time>2025-02-02T23:19:36Z</time>
					</trkpt>
					<trkpt lat="49.068660" lon="2.478000">
						<ele>122</ele>
						<time>2025-02-02T23:19:39Z</time>
					</trkpt>
					<trkpt lat="49.068870" lon="2.479500">
						<ele>123</ele>
						<time>2025-02-02T23:19:57Z</time>
					</trkpt>
					<trkpt lat="49.068910" lon="2.479620">
						<ele>123</ele>
						<time>2025-02-02T23:19:58Z</time>
					</trkpt>
					<trkpt lat="49.069460" lon="2.480220">
						<ele>127</ele>
						<time>2025-02-02T23:20:11Z</time>
					</trkpt>
					<trkpt lat="49.069780" lon="2.481060">
						<ele>127</ele>
						<time>2025-02-02T23:20:22Z</time>
					</trkpt>
					<trkpt lat="49.069900" lon="2.481770">
						<ele>126</ele>
						<time>2025-02-02T23:20:30Z</time>
					</trkpt>
					<trkpt lat="49.069890" lon="2.481910">
						<ele>126</ele>
						<time>2025-02-02T23:20:32Z</time>
					</trkpt>
					<trkpt lat="49.069830" lon="2.482070">
						<ele>125</ele>
						<time>2025-02-02T23:20:34Z</time>
					</trkpt>
					<trkpt lat="49.069910" lon="2.482190">
						<ele>126</ele>
						<time>2025-02-02T23:20:36Z</time>
					</trkpt>
					<trkpt lat="49.069930" lon="2.482290">
						<ele>126</ele>
						<time>2025-02-02T23:20:37Z</time>
					</trkpt>
					<trkpt lat="49.070060" lon="2.485380">
						<ele>132</ele>
						<time>2025-02-02T23:21:13Z</time>
					</trkpt>
					<trkpt lat="49.070110" lon="2.485740">
						<ele>132</ele>
						<time>2025-02-02T23:21:18Z</time>
					</trkpt>
					<trkpt lat="49.073170" lon="2.494100">
						<ele>135</ele>
						<time>2025-02-02T23:23:09Z</time>
					</trkpt>
					<trkpt lat="49.074010" lon="2.495780">
						<ele>135</ele>
						<time>2025-02-02T23:23:34Z</time>
					</trkpt>
					<trkpt lat="49.074080" lon="2.496020">
						<ele>135</ele>
						<time>2025-02-02T23:23:37Z</time>
					</trkpt>
					<trkpt lat="49.074140" lon="2.497930">
						<ele>135</ele>
						<time>2025-02-02T23:23:59Z</time>
					</trkpt>
					<trkpt lat="49.073930" lon="2.498060">
						<ele>135</ele>
						<time>2025-02-02T23:24:03Z</time>
					</trkpt>
					<trkpt lat="49.073040" lon="2.498970">
						<ele>133</ele>
						<time>2025-02-02T23:24:22Z</time>
					</trkpt>
					<trkpt lat="49.072950" lon="2.499020">
						<ele>133</ele>
						<time>2025-02-02T23:24:24Z</time>
					</trkpt>
					<trkpt lat="49.072790" lon="2.499050">
						<ele>133</ele>
						<time>2025-02-02T23:24:27Z</time>
					</trkpt>
					<trkpt lat="49.072200" lon="2.499060">
						<ele>131</ele>
						<time>2025-02-02T23:24:38Z</time>
					</trkpt>
					<trkpt lat="49.071740" lon="2.498980">
						<ele>131</ele>
						<time>2025-02-02T23:24:46Z</time>
					</trkpt>
					<trkpt lat="49.071600" lon="2.498890">
						<ele>131</ele>
						<time>2025-02-02T23:24:48Z</time>
					</trkpt>
					<trkpt lat="49.071430" lon="2.498620">
						<ele>131</ele>
						<time>2025-02-02T23:24:53Z</time>
					</trkpt>
					<trkpt lat="49.071340" lon="2.498590">
						<ele>131</ele>
						<time>2025-02-02T23:24:54Z</time>
					</trkpt>
					<trkpt lat="49.071290" lon="2.498600">
						<ele>131</ele>
						<time>2025-02-02T23:24:55Z</time>
					</trkpt>
					<trkpt lat="49.071210" lon="2.498690">
						<ele>130</ele>
						<time>2025-02-02T23:24:57Z</time>
					</trkpt>
					<trkpt lat="49.071180" lon="2.498760">
						<ele>130</ele>
						<time>2025-02-02T23:24:58Z</time>
					</trkpt>
					<trkpt lat="49.071170" lon="2.498910">
						<ele>130</ele>
						<time>2025-02-02T23:25:00Z</time>
					</trkpt>
					<trkpt lat="49.071220" lon="2.499070">
						<ele>130</ele>
						<time>2025-02-02T23:25:02Z</time>
					</trkpt>
					<trkpt lat="49.071400" lon="2.499200">
						<ele>130</ele>
						<time>2025-02-02T23:25:06Z</time>
					</trkpt>
					<trkpt lat="49.071430" lon="2.499290">
						<ele>130</ele>
						<time>2025-02-02T23:25:07Z</time>
					</trkpt>
					<trkpt lat="49.071790" lon="2.504180">
						<ele>125</ele>
						<time>2025-02-02T23:26:04Z</time>
					</trkpt>
					<trkpt lat="49.071800" lon="2.504490">
						<ele>126</ele>
						<time>2025-02-02T23:26:08Z</time>
					</trkpt>
					<trkpt lat="49.071780" lon="2.504620">
						<ele>126</ele>
						<time>2025-02-02T23:26:09Z</time>
					</trkpt>
					<trkpt lat="49.071690" lon="2.504890">
						<ele>126</ele>
						<time>2025-02-02T23:26:13Z</time>
					</trkpt>
					<trkpt lat="49.064010" lon="2.520500">
						<ele>115</ele>
						<time>2025-02-02T23:30:00Z</time>
					</trkpt>
					<trkpt lat="49.063740" lon="2.521090">
						<ele>116</ele>
						<time>2025-02-02T23:30:09Z</time>
					</trkpt>
					<trkpt lat="49.063410" lon="2.521690">
						<ele>118</ele>
						<time>2025-02-02T23:30:18Z</time>
					</trkpt>
					<trkpt lat="49.063320" lon="2.521740">
						<ele>118</ele>
						<time>2025-02-02T23:30:20Z</time>
					</trkpt>
					<trkpt lat="49.063220" lon="2.521740">
						<ele>118</ele>
						<time>2025-02-02T23:30:21Z</time>
					</trkpt>
					<trkpt lat="49.063170" lon="2.521700">
						<ele>118</ele>
						<time>2025-02-02T23:30:22Z</time>
					</trkpt>
					<trkpt lat="49.063100" lon="2.521710">
						<ele>118</ele>
						<time>2025-02-02T23:30:24Z</time>
					</trkpt>
					<trkpt lat="49.062960" lon="2.521900">
						<ele>119</ele>
						<time>2025-02-02T23:30:27Z</time>
					</trkpt>
					<trkpt lat="49.062890" lon="2.521940">
						<ele>119</ele>
						<time>2025-02-02T23:30:28Z</time>
					</trkpt>
					<trkpt lat="49.062630" lon="2.521930">
						<ele>119</ele>
						<time>2025-02-02T23:30:33Z</time>
					</trkpt>
					<trkpt lat="49.062530" lon="2.521950">
						<ele>119</ele>
						<time>2025-02-02T23:30:35Z</time>
					</trkpt>
					<trkpt lat="49.062470" lon="2.521990">
						<ele>119</ele>
						<time>2025-02-02T23:30:36Z</time>
					</trkpt>
					<trkpt lat="49.062230" lon="2.522260">
						<ele>118</ele>
						<time>2025-02-02T23:30:41Z</time>
					</trkpt>
					<trkpt lat="49.062170" lon="2.522250">
						<ele>118</ele>
						<time>2025-02-02T23:30:42Z</time>
					</trkpt>
					<trkpt lat="49.062060" lon="2.522300">
						<ele>117</ele>
						<time>2025-02-02T23:30:44Z</time>
					</trkpt>
					<trkpt lat="49.061990" lon="2.522430">
						<ele>117</ele>
						<time>2025-02-02T23:30:46Z</time>
					</trkpt>
					<trkpt lat="49.061970" lon="2.522590">
						<ele>117</ele>
						<time>2025-02-02T23:30:48Z</time>
					</trkpt>
					<trkpt lat="49.061990" lon="2.522900">
						<ele>118</ele>
						<time>2025-02-02T23:30:52Z</time>
					</trkpt>
					<trkpt lat="49.061910" lon="2.523170">
						<ele>118</ele>
						<time>2025-02-02T23:30:55Z</time>
					</trkpt>
					<trkpt lat="49.061730" lon="2.523530">
						<ele>117</ele>
						<time>2025-02-02T23:31:00Z</time>
					</trkpt>
					<trkpt lat="49.061690" lon="2.523780">
						<ele>117</ele>
						<time>2025-02-02T23:31:03Z</time>
					</trkpt>
					<trkpt lat="49.061690" lon="2.523960">
						<ele>117</ele>
						<time>2025-02-02T23:31:06Z</time>
					</trkpt>
					<trkpt lat="49.061720" lon="2.524170">
						<ele>117</ele>
						<time>2025-02-02T23:31:08Z</time>
					</trkpt>
					<trkpt lat="49.061770" lon="2.524330">
						<ele>117</ele>
						<time>2025-02-02T23:31:10Z</time>
					</trkpt>
					<trkpt lat="49.061870" lon="2.524500">
						<ele>117</ele>
						<time>2025-02-02T23:31:13Z</time>
					</trkpt>
					<trkpt lat="49.062460" lon="2.524980">
						<ele>119</ele>
						<time>2025-02-02T23:31:25Z</time>
					</trkpt>
					<trkpt lat="49.062550" lon="2.525080">
						<ele>119</ele>
						<time>2025-02-02T23:31:27Z</time>
					</trkpt>
					<trkpt lat="49.062640" lon="2.525220">
						<ele>119</ele>
						<time>2025-02-02T23:31:29Z</time>
					</trkpt>
					<trkpt lat="49.062730" lon="2.525580">
						<ele>119</ele>
						<time>2025-02-02T23:31:33Z</time>
					</trkpt>
					<trkpt lat="49.062720" lon="2.525900">
						<ele>119</ele>
						<time>2025-02-02T23:31:37Z</time>
					</trkpt>
					<trkpt lat="49.062680" lon="2.526170">
						<ele>118</ele>
						<time>2025-02-02T23:31:40Z</time>
					</trkpt>
					<trkpt lat="49.062560" lon="2.526550">
						<ele>117</ele>
						<time>2025-02-02T23:31:45Z</time>
					</trkpt>
					<trkpt lat="49.062450" lon="2.526710">
						<ele>117</ele>
						<time>2025-02-02T23:31:48Z</time>
					</trkpt>
					<trkpt lat="49.062600" lon="2.527290">
						<ele>117</ele>
						<time>2025-02-02T23:31:55Z</time>
					</trkpt>
					<trkpt lat="49.062620" lon="2.528360">
						<ele>117</ele>
						<time>2025-02-02T23:32:08Z</time>
					</trkpt>
					<trkpt lat="49.062590" lon="2.528710">
						<ele>118</ele>
						<time>2025-02-02T23:32:12Z</time>
					</trkpt>
					<trkpt lat="49.062510" lon="2.529120">
						<ele>118</ele>
						<time>2025-02-02T23:32:17Z</time>
					</trkpt>
					<trkpt lat="49.062390" lon="2.529490">
						<ele>118</ele>
						<time>2025-02-02T23:32:22Z</time>
					</trkpt>
					<trkpt lat="49.062210" lon="2.529820">
						<ele>118</ele>
						<time>2025-02-02T23:32:27Z</time>
					</trkpt>
					<trkpt lat="49.061670" lon="2.530490">
						<ele>117</ele>
						<time>2025-02-02T23:32:39Z</time>
					</trkpt>
					<trkpt lat="49.061400" lon="2.530870">
						<ele>116</ele>
						<time>2025-02-02T23:32:46Z</time>
					</trkpt>
					<trkpt lat="49.060860" lon="2.531740">
						<ele>115</ele>
						<time>2025-02-02T23:33:00Z</time>
					</trkpt>
					<trkpt lat="49.060650" lon="2.532000">
						<ele>115</ele>
						<time>2025-02-02T23:33:04Z</time>
					</trkpt>
					<trkpt lat="49.060420" lon="2.532350">
						<ele>115</ele>
						<time>2025-02-02T23:33:10Z</time>
					</trkpt>
					<trkpt lat="49.060210" lon="2.532770">
						<ele>115</ele>
						<time>2025-02-02T23:33:16Z</time>
					</trkpt>
					<trkpt lat="49.060100" lon="2.532850">
						<ele>115</ele>
						<time>2025-02-02T23:33:19Z</time>
					</trkpt>
					<trkpt lat="49.060050" lon="2.532930">
						<ele>115</ele>
						<time>2025-02-02T23:33:20Z</time>
					</trkpt>
					<trkpt lat="49.060050" lon="2.533030">
						<ele>115</ele>
						<time>2025-02-02T23:33:21Z</time>
					</trkpt>
					<trkpt lat="49.060190" lon="2.533290">
						<ele>115</ele>
						<time>2025-02-02T23:33:25Z</time>
					</trkpt>
					<trkpt lat="49.060210" lon="2.533450">
						<ele>115</ele>
						<time>2025-02-02T23:33:27Z</time>
					</trkpt>
					<trkpt lat="49.059850" lon="2.536690">
						<ele>117</ele>
						<time>2025-02-02T23:34:05Z</time>
					</trkpt>
					<trkpt lat="49.059960" lon="2.537640">
						<ele>117</ele>
						<time>2025-02-02T23:34:16Z</time>
					</trkpt>
					<trkpt lat="49.059800" lon="2.538910">
						<ele>117</ele>
						<time>2025-02-02T23:34:31Z</time>
					</trkpt>
					<trkpt lat="49.059870" lon="2.539830">
						<ele>118</ele>
						<time>2025-02-02T23:34:42Z</time>
					</trkpt>
					<trkpt lat="49.060030" lon="2.540830">
						<ele>117</ele>
						<time>2025-02-02T23:34:54Z</time>
					</trkpt>
					<trkpt lat="49.060080" lon="2.541320">
						<ele>117</ele>
						<time>2025-02-02T23:35:00Z</time>
					</trkpt>
					<trkpt lat="49.060190" lon="2.542810">
						<ele>116</ele>
						<time>2025-02-02T23:35:18Z</time>
					</trkpt>
					<trkpt lat="49.060160" lon="2.543020">
						<ele>116</ele>
						<time>2025-02-02T23:35:20Z</time>
					</trkpt>
					<trkpt lat="49.060130" lon="2.543080">
						<ele>116</ele>
						<time>2025-02-02T23:35:21Z</time>
					</trkpt>
					<trkpt lat="49.060150" lon="2.543190">
						<ele>116</ele>
						<time>2025-02-02T23:35:22Z</time>
					</trkpt>
					<trkpt lat="49.060190" lon="2.543220">
						<ele>116</ele>
						<time>2025-02-02T23:35:23Z</time>
					</trkpt>
					<trkpt lat="49.060250" lon="2.543360">
						<ele>116</ele>
						<time>2025-02-02T23:35:25Z</time>
					</trkpt>
					<trkpt lat="49.060490" lon="2.544670">
						<ele>119</ele>
						<time>2025-02-02T23:35:41Z</time>
					</trkpt>
					<trkpt lat="49.060540" lon="2.545560">
						<ele>118</ele>
						<time>2025-02-02T23:35:51Z</time>
					</trkpt>
					<trkpt lat="49.060550" lon="2.549100">
						<ele>114</ele>
						<time>2025-02-02T23:36:33Z</time>
					</trkpt>
					<trkpt lat="49.060470" lon="2.552010">
						<ele>101</ele>
						<time>2025-02-02T23:37:06Z</time>
					</trkpt>
					<trkpt lat="49.060550" lon="2.552590">
						<ele>101</ele>
						<time>2025-02-02T23:37:13Z</time>
					</trkpt>
					<trkpt lat="49.060640" lon="2.552910">
						<ele>101</ele>
						<time>2025-02-02T23:37:17Z</time>
					</trkpt>
					<trkpt lat="49.060730" lon="2.553120">
						<ele>100</ele>
						<time>2025-02-02T23:37:20Z</time>
					</trkpt>
					<trkpt lat="49.061030" lon="2.553660">
						<ele>100</ele>
						<time>2025-02-02T23:37:29Z</time>
					</trkpt>
					<trkpt lat="49.061210" lon="2.553910">
						<ele>101</ele>
						<time>2025-02-02T23:37:33Z</time>
					</trkpt>
					<trkpt lat="49.061430" lon="2.554150">
						<ele>101</ele>
						<time>2025-02-02T23:37:38Z</time>
					</trkpt>
					<trkpt lat="49.062020" lon="2.554620">
						<ele>103</ele>
						<time>2025-02-02T23:37:50Z</time>
					</trkpt>
					<trkpt lat="49.063200" lon="2.555410">
						<ele>105</ele>
						<time>2025-02-02T23:38:13Z</time>
					</trkpt>
					<trkpt lat="49.063410" lon="2.555590">
						<ele>105</ele>
						<time>2025-02-02T23:38:17Z</time>
					</trkpt>
					<trkpt lat="49.063720" lon="2.555970">
						<ele>105</ele>
						<time>2025-02-02T23:38:24Z</time>
					</trkpt>
					<trkpt lat="49.063900" lon="2.556320">
						<ele>105</ele>
						<time>2025-02-02T23:38:29Z</time>
					</trkpt>
					<trkpt lat="49.064290" lon="2.557220">
						<ele>103</ele>
						<time>2025-02-02T23:38:42Z</time>
					</trkpt>
					<trkpt lat="49.064500" lon="2.557630">
						<ele>103</ele>
						<time>2025-02-02T23:38:48Z</time>
					</trkpt>
					<trkpt lat="49.064630" lon="2.557830">
						<ele>103</ele>
						<time>2025-02-02T23:38:51Z</time>
					</trkpt>
					<trkpt lat="49.064750" lon="2.557960">
						<ele>103</ele>
						<time>2025-02-02T23:38:54Z</time>
					</trkpt>
					<trkpt lat="49.064900" lon="2.558040">
						<ele>103</ele>
						<time>2025-02-02T23:38:56Z</time>
					</trkpt>
					<trkpt lat="49.065540" lon="2.558250">
						<ele>105</ele>
						<time>2025-02-02T23:39:08Z</time>
					</trkpt>
					<trkpt lat="49.066890" lon="2.558880">
						<ele>107</ele>
						<time>2025-02-02T23:39:33Z</time>
					</trkpt>
					<trkpt lat="49.067060" lon="2.559040">
						<ele>107</ele>
						<time>2025-02-02T23:39:37Z</time>
					</trkpt>
					<trkpt lat="49.067320" lon="2.559440">
						<ele>107</ele>
						<time>2025-02-02T23:39:43Z</time>
					</trkpt>
					<trkpt lat="49.067590" lon="2.560160">
						<ele>107</ele>
						<time>2025-02-02T23:39:53Z</time>
					</trkpt>
					<trkpt lat="49.067690" lon="2.560750">
						<ele>107</ele>
						<time>2025-02-02T23:40:00Z</time>
					</trkpt>
					<trkpt lat="49.067820" lon="2.562220">
						<ele>108</ele>
						<time>2025-02-02T23:40:17Z</time>
					</trkpt>
					<trkpt lat="49.067930" lon="2.562820">
						<ele>109</ele>
						<time>2025-02-02T23:40:25Z</time>
					</trkpt>
					<trkpt lat="49.068460" lon="2.564450">
						<ele>109</ele>
						<time>2025-02-02T23:40:46Z</time>
					</trkpt>
					<trkpt lat="49.068740" lon="2.565230">
						<ele>110</ele>
						<time>2025-02-02T23:40:56Z</time>
					</trkpt>
					<trkpt lat="49.068920" lon="2.565600">
						<ele>110</ele>
						<time>2025-02-02T23:41:02Z</time>
					</trkpt>
					<trkpt lat="49.069120" lon="2.565910">
						<ele>110</ele>
						<time>2025-02-02T23:41:07Z</time>
					</trkpt>
					<trkpt lat="49.069240" lon="2.566420">
						<ele>111</ele>
						<time>2025-02-02T23:41:13Z</time>
					</trkpt>
					<trkpt lat="49.069240" lon="2.566510">
						<ele>111</ele>
						<time>2025-02-02T23:41:14Z</time>
					</trkpt>
					<trkpt lat="49.068900" lon="2.567310">
						<ele>112</ele>
						<time>2025-02-02T23:41:25Z</time>
					</trkpt>
					<trkpt lat="49.068830" lon="2.567530">
						<ele>112</ele>
						<time>2025-02-02T23:41:28Z</time>
					</trkpt>
					<trkpt lat="49.068980" lon="2.568200">
						<ele>113</ele>
						<time>2025-02-02T23:41:36Z</time>
					</trkpt>
					<trkpt lat="49.070020" lon="2.570600">
						<ele>114</ele>
						<time>2025-02-02T23:42:10Z</time>
					</trkpt>
					<trkpt lat="49.070160" lon="2.571130">
						<ele>115</ele>
						<time>2025-02-02T23:42:16Z</time>
					</trkpt>
					<trkpt lat="49.070490" lon="2.572700">
						<ele>115</ele>
						<time>2025-02-02T23:42:36Z</time>
					</trkpt>
					<trkpt lat="49.070670" lon="2.572480">
						<ele>113</ele>
						<time>2025-02-02T23:42:40Z</time>
					</trkpt>
					<trkpt lat="49.070920" lon="2.572230">
						<ele>113</ele>
						<time>2025-02-02T23:42:45Z</time>
					</trkpt>
					<trkpt lat="49.071170" lon="2.572040">
						<ele>115</ele>
						<time>2025-02-02T23:42:50Z</time>
					</trkpt>
					<trkpt lat="49.071740" lon="2.571830">
						<ele>118</ele>
						<time>2025-02-02T23:43:01Z</time>
					</trkpt>
					<trkpt lat="49.071970" lon="2.571670">
						<ele>120</ele>
						<time>2025-02-02T23:43:05Z</time>
					</trkpt>
					<trkpt lat="49.071990" lon="2.571610">
						<ele>120</ele>
						<time>2025-02-02T23:43:06Z</time>
					</trkpt>
					<trkpt lat="49.072110" lon="2.571630">
						<ele>121</ele>
						<time>2025-02-02T23:43:08Z</time>
					</trkpt>
					<trkpt lat="49.072330" lon="2.571620">
						<ele>123</ele>
						<time>2025-02-02T23:43:12Z</time>
					</trkpt>
					<trkpt lat="49.072610" lon="2.571500">
						<ele>126</ele>
						<time>2025-02-02T23:43:17Z</time>
					</trkpt>
					<trkpt lat="49.072850" lon="2.571190">
						<ele>128</ele>
						<time>2025-02-02T23:43:23Z</time>
					</trkpt>
					<trkpt lat="49.074390" lon="2.569940">
						<ele>133</ele>
						<time>2025-02-02T23:43:54Z</time>
					</trkpt>
					<trkpt lat="49.077880" lon="2.569720">
						<ele>127</ele>
						<time>2025-02-02T23:44:56Z</time>
					</trkpt>
					<trkpt lat="49.079000" lon="2.569520">
						<ele>127</ele>
						<time>2025-02-02T23:45:16Z</time>
					</trkpt>
					<trkpt lat="49.079240" lon="2.569520">
						<ele>126</ele>
						<time>2025-02-02T23:45:20Z</time>
					</trkpt>
					<trkpt lat="49.079390" lon="2.569540">
						<ele>126</ele>
						<time>2025-02-02T23:45:23Z</time>
					</trkpt>
					<trkpt lat="49.080560" lon="2.570020">
						<ele>128</ele>
						<time>2025-02-02T23:45:44Z</time>
					</trkpt>
					<trkpt lat="49.081540" lon="2.570260">
						<ele>130</ele>
						<time>2025-02-02T23:46:02Z</time>
					</trkpt>
					<trkpt lat="49.081800" lon="2.570230">
						<ele>131</ele>
						<time>2025-02-02T23:46:07Z</time>
					</trkpt>
					<trkpt lat="49.082050" lon="2.570120">
						<ele>131</ele>
						<time>2025-02-02T23:46:11Z</time>
					</trkpt>
					<trkpt lat="49.082340" lon="2.569920">
						<ele>130</ele>
						<time>2025-02-02T23:46:17Z</time>
					</trkpt>
					<trkpt lat="49.082700" lon="2.569610">
						<ele>130</ele>
						<time>2025-02-02T23:46:24Z</time>
					</trkpt>
					<trkpt lat="49.083010" lon="2.569390">
						<ele>129</ele>
						<time>2025-02-02T23:46:30Z</time>
					</trkpt>
					<trkpt lat="49.083260" lon="2.569280">
						<ele>128</ele>
						<time>2025-02-02T23:46:35Z</time>
					</trkpt>
					<trkpt lat="49.083450" lon="2.569260">
						<ele>128</ele>
						<time>2025-02-02T23:46:38Z</time>
					</trkpt>
					<trkpt lat="49.083580" lon="2.569320">
						<ele>129</ele>
						<time>2025-02-02T23:46:41Z</time>
					</trkpt>
					<trkpt lat="49.083690" lon="2.569420">
						<ele>129</ele>
						<time>2025-02-02T23:46:43Z</time>
					</trkpt>
					<trkpt lat="49.084110" lon="2.570060">
						<ele>131</ele>
						<time>2025-02-02T23:46:54Z</time>
					</trkpt>
					<trkpt lat="49.084330" lon="2.570300">
						<ele>132</ele>
						<time>2025-02-02T23:46:59Z</time>
					</trkpt>
					<trkpt lat="49.084620" lon="2.570400">
						<ele>132</ele>
						<time>2025-02-02T23:47:04Z</time>
					</trkpt>
					<trkpt lat="49.086890" lon="2.570590">
						<ele>139</ele>
						<time>2025-02-02T23:47:44Z</time>
					</trkpt>
					<trkpt lat="49.087030" lon="2.570530">
						<ele>140</ele>
						<time>2025-02-02T23:47:47Z</time>
					</trkpt>
					<trkpt lat="49.087190" lon="2.570380">
						<ele>141</ele>
						<time>2025-02-02T23:47:50Z</time>
					</trkpt>
					<trkpt lat="49.088000" lon="2.568910">
						<ele>148</ele>
						<time>2025-02-02T23:48:13Z</time>
					</trkpt>
					<trkpt lat="49.088720" lon="2.567760">
						<ele>154</ele>
						<time>2025-02-02T23:48:31Z</time>
					</trkpt>
					<trkpt lat="49.089280" lon="2.566760">
						<ele>159</ele>
						<time>2025-02-02T23:48:46Z</time>
					</trkpt>
					<trkpt lat="49.090930" lon="2.564900">
						<ele>163</ele>
						<time>2025-02-02T23:49:23Z</time>
					</trkpt>
					<trkpt lat="49.091700" lon="2.567120">
						<ele>167</ele>
						<time>2025-02-02T23:49:52Z</time>
					</trkpt>
					<trkpt lat="49.091750" lon="2.567490">
						<ele>168</ele>
						<time>2025-02-02T23:49:57Z</time>
					</trkpt>
					<trkpt lat="49.091960" lon="2.567680">
						<ele>167</ele>
						<time>2025-02-02T23:50:01Z</time>
					</trkpt>
					<trkpt lat="49.092210" lon="2.567980">
						<ele>166</ele>
						<time>2025-02-02T23:50:07Z</time>
					</trkpt>
					<trkpt lat="49.093940" lon="2.569780">
						<ele>166</ele>
						<time>2025-02-02T23:50:44Z</time>
					</trkpt>
					<trkpt lat="49.093980" lon="2.569890">
						<ele>166</ele>
						<time>2025-02-02T23:50:45Z</time>
					</trkpt>
					<trkpt lat="49.094320" lon="2.570250">
						<ele>167</ele>
						<time>2025-02-02T23:50:53Z</time>
					</trkpt>
					<trkpt lat="49.094610" lon="2.570480">
						<ele>168</ele>
						<time>2025-02-02T23:50:58Z</time>
					</trkpt>
					<trkpt lat="49.095480" lon="2.571380">
						<ele>170</ele>
						<time>2025-02-02T23:51:17Z</time>
					</trkpt>
					<trkpt lat="49.095660" lon="2.571600">
						<ele>169</ele>
						<time>2025-02-02T23:51:21Z</time>
					</trkpt>
					<trkpt lat="49.095770" lon="2.571790">
						<ele>168</ele>
						<time>2025-02-02T23:51:24Z</time>
					</trkpt>
					<trkpt lat="49.095860" lon="2.572120">
						<ele>167</ele>
						<time>2025-02-02T23:51:28Z</time>
					</trkpt>
					<trkpt lat="49.095920" lon="2.572480">
						<ele>165</ele>
						<time>2025-02-02T23:51:33Z</time>
					</trkpt>
					<trkpt lat="49.095910" lon="2.573150">
						<ele>161</ele>
						<time>2025-02-02T23:51:41Z</time>
					</trkpt>
					<trkpt lat="49.095750" lon="2.573750">
						<ele>161</ele>
						<time>2025-02-02T23:51:48Z</time>
					</trkpt>
					<trkpt lat="49.095310" lon="2.574440">
						<ele>165</ele>
						<time>2025-02-02T23:51:59Z</time>
					</trkpt>
					<trkpt lat="49.095200" lon="2.574740">
						<ele>165</ele>
						<time>2025-02-02T23:52:03Z</time>
					</trkpt>
					<trkpt lat="49.095170" lon="2.575070">
						<ele>166</ele>
						<time>2025-02-02T23:52:07Z</time>
					</trkpt>
					<trkpt lat="49.095250" lon="2.575360">
						<ele>166</ele>
						<time>2025-02-02T23:52:11Z</time>
					</trkpt>
					<trkpt lat="49.095580" lon="2.575760">
						<ele>164</ele>
						<time>2025-02-02T23:52:18Z</time>
					</trkpt>
					<trkpt lat="49.095890" lon="2.575920">
						<ele>161</ele>
						<time>2025-02-02T23:52:24Z</time>
					</trkpt>
					<trkpt lat="49.096050" lon="2.575930">
						<ele>158</ele>
						<time>2025-02-02T23:52:27Z</time>
					</trkpt>
					<trkpt lat="49.096200" lon="2.575830">
						<ele>155</ele>
						<time>2025-02-02T23:52:30Z</time>
					</trkpt>
					<trkpt lat="49.096330" lon="2.575700">
						<ele>152</ele>
						<time>2025-02-02T23:52:33Z</time>
					</trkpt>
					<trkpt lat="49.096640" lon="2.574820">
						<ele>146</ele>
						<time>2025-02-02T23:52:44Z</time>
					</trkpt>
					<trkpt lat="49.096750" lon="2.574630">
						<ele>145</ele>
						<time>2025-02-02T23:52:47Z</time>
					</trkpt>
					<trkpt lat="49.096900" lon="2.574460">
						<ele>144</ele>
						<time>2025-02-02T23:52:51Z</time>
					</trkpt>
					<trkpt lat="49.097220" lon="2.574240">
						<ele>143</ele>
						<time>2025-02-02T23:52:57Z</time>
					</trkpt>
					<trkpt lat="49.097520" lon="2.574150">
						<ele>142</ele>
						<time>2025-02-02T23:53:02Z</time>
					</trkpt>
					<trkpt lat="49.097800" lon="2.574180">
						<ele>142</ele>
						<time>2025-02-02T23:53:07Z</time>
					</trkpt>
					<trkpt lat="49.098050" lon="2.574300">
						<ele>140</ele>
						<time>2025-02-02T23:53:12Z</time>
					</trkpt>
					<trkpt lat="49.098540" lon="2.574800">
						<ele>134</ele>
						<time>2025-02-02T23:53:22Z</time>
					</trkpt>
					<trkpt lat="49.098920" lon="2.575230">
						<ele>131</ele>
						<time>2025-02-02T23:53:31Z</time>
					</trkpt>
					<trkpt lat="49.101340" lon="2.578060">
						<ele>113</ele>
						<time>2025-02-02T23:54:25Z</time>
					</trkpt>
					<trkpt lat="49.102690" lon="2.579560">
						<ele>111</ele>
						<time>2025-02-02T23:54:55Z</time>
					</trkpt>
					<trkpt lat="49.102740" lon="2.579510">
						<ele>111</ele>
						<time>2025-02-02T23:54:56Z</time>
					</trkpt>
					<trkpt lat="49.103430" lon="2.577980">
						<ele>113</ele>
						<time>2025-02-02T23:55:18Z</time>
					</trkpt>
					<trkpt lat="49.103800" lon="2.577410">
						<ele>114</ele>
						<time>2025-02-02T23:55:27Z</time>
					</trkpt>
					<trkpt lat="49.104660" lon="2.576230">
						<ele>114</ele>
						<time>2025-02-02T23:55:47Z</time>
					</trkpt>
					<trkpt lat="49.105570" lon="2.575150">
						<ele>110</ele>
						<time>2025-02-02T23:56:08Z</time>
					</trkpt>
					<trkpt lat="49.105910" lon="2.576350">
						<ele>110</ele>
						<time>2025-02-02T23:56:23Z</time>
					</trkpt>
					<trkpt lat="49.106230" lon="2.577830">
						<ele>110</ele>
						<time>2025-02-02T23:56:41Z</time>
					</trkpt>
					<trkpt lat="49.106480" lon="2.579490">
						<ele>111</ele>
						<time>2025-02-02T23:57:01Z</time>
					</trkpt>
					<trkpt lat="49.106550" lon="2.579800">
						<ele>112</ele>
						<time>2025-02-02T23:57:05Z</time>
					</trkpt>
					<trkpt lat="49.106570" lon="2.580110">
						<ele>113</ele>
						<time>2025-02-02T23:57:09Z</time>
					</trkpt>
					<trkpt lat="49.106490" lon="2.580330">
						<ele>114</ele>
						<time>2025-02-02T23:57:12Z</time>
					</trkpt>
					<trkpt lat="49.105990" lon="2.580600">
						<ele>112</ele>
						<time>2025-02-02T23:57:21Z</time>
					</trkpt>
					<trkpt lat="49.104970" lon="2.581080">
						<ele>106</ele>
						<time>2025-02-02T23:57:40Z</time>
					</trkpt>
					<trkpt lat="49.104680" lon="2.581340">
						<ele>106</ele>
						<time>2025-02-02T23:57:46Z</time>
					</trkpt>
					<trkpt lat="49.104400" lon="2.581710">
						<ele>106</ele>
						<time>2025-02-02T23:57:53Z</time>
					</trkpt>
					<trkpt lat="49.104110" lon="2.582280">
						<ele>105</ele>
						<time>2025-02-02T23:58:01Z</time>
					</trkpt>
					<trkpt lat="49.103980" lon="2.583030">
						<ele>103</ele>
						<time>2025-02-02T23:58:10Z</time>
					</trkpt>
					<trkpt lat="49.103250" lon="2.585170">
						<ele>104</ele>
						<time>2025-02-02T23:58:38Z</time>
					</trkpt>
					<trkpt lat="49.103620" lon="2.585710">
						<ele>104</ele>
						<time>2025-02-02T23:58:47Z</time>
					</trkpt>
					<trkpt lat="49.104300" lon="2.587350">
						<ele>102</ele>
						<time>2025-02-02T23:59:10Z</time>
					</trkpt>
					<trkpt lat="49.105300" lon="2.588670">
						<ele>101</ele>
						<time>2025-02-02T23:59:33Z</time>
					</trkpt>
					<trkpt lat="49.105650" lon="2.590430">
						<ele>100</ele>
						<time>2025-02-02T23:59:55Z</time>
					</trkpt>
					<trkpt lat="49.105770" lon="2.591250">
						<ele>101</ele>
						<time>2025-02-03T00:00:05Z</time>
					</trkpt>
					<trkpt lat="49.105800" lon="2.592250">
						<ele>101</ele>
						<time>2025-02-03T00:00:16Z</time>
					</trkpt>
					<trkpt lat="49.105890" lon="2.592310">
						<ele>101</ele>
						<time>2025-02-03T00:00:18Z</time>
					</trkpt>
					<trkpt lat="49.106020" lon="2.593540">
						<ele>101</ele>
						<time>2025-02-03T00:00:32Z</time>
					</trkpt>
					<trkpt lat="49.106190" lon="2.594670">
						<ele>102</ele>
						<time>2025-02-03T00:00:46Z</time>
					</trkpt>
					<trkpt lat="49.106490" lon="2.596280">
						<ele>100</ele>
						<time>2025-02-03T00:01:05Z</time>
					</trkpt>
					<trkpt lat="49.106680" lon="2.597010">
						<ele>101</ele>
						<time>2025-02-03T00:01:15Z</time>
					</trkpt>
					<trkpt lat="49.106910" lon="2.597630">
						<ele>101</ele>
						<time>2025-02-03T00:01:23Z</time>
					</trkpt>
					<trkpt lat="49.107070" lon="2.597900">
						<ele>102</ele>
						<time>2025-02-03T00:01:27Z</time>
					</trkpt>
					<trkpt lat="49.107280" lon="2.598190">
						<ele>103</ele>
						<time>2025-02-03T00:01:32Z</time>
					</trkpt>
					<trkpt lat="49.108110" lon="2.599110">
						<ele>104</ele>
						<time>2025-02-03T00:01:50Z</time>
					</trkpt>
					<trkpt lat="49.110990" lon="2.601820">
						<ele>102</ele>
						<time>2025-02-03T00:02:51Z</time>
					</trkpt>
					<trkpt lat="49.111190" lon="2.602060">
						<ele>103</ele>
						<time>2025-02-03T00:02:55Z</time>
					</trkpt>
					<trkpt lat="49.111330" lon="2.602320">
						<ele>104</ele>
						<time>2025-02-03T00:02:59Z</time>
					</trkpt>
					<trkpt lat="49.111330" lon="2.602790">
						<ele>105</ele>
						<time>2025-02-03T00:03:05Z</time>
					</trkpt>
					<trkpt lat="49.111290" lon="2.603510">
						<ele>106</ele>
						<time>2025-02-03T00:03:13Z</time>
					</trkpt>
					<trkpt lat="49.110670" lon="2.607050">
						<ele>101</ele>
						<time>2025-02-03T00:03:56Z</time>
					</trkpt>
					<trkpt lat="49.110510" lon="2.609370">
						<ele>94</ele>
						<time>2025-02-03T00:04:23Z</time>
					</trkpt>
					<trkpt lat="49.110490" lon="2.609980">
						<ele>95</ele>
						<time>2025-02-03T00:04:30Z</time>
					</trkpt>
					<trkpt lat="49.110560" lon="2.610490">
						<ele>96</ele>
						<time>2025-02-03T00:04:36Z</time>
					</trkpt>
					<trkpt lat="49.110700" lon="2.610910">
						<ele>98</ele>
						<time>2025-02-03T00:04:41Z</time>
					</trkpt>
					<trkpt lat="49.111030" lon="2.611470">
						<ele>99</ele>
						<time>2025-02-03T00:04:50Z</time>
					</trkpt>
					<trkpt lat="49.112160" lon="2.612750">
						<ele>99</ele>
						<time>2025-02-03T00:05:15Z</time>
					</trkpt>
					<trkpt lat="49.112440" lon="2.613130">
						<ele>100</ele>
						<time>2025-02-03T00:05:22Z</time>
					</trkpt>
					<trkpt lat="49.116070" lon="2.619000">
						<ele>97</ele>
						<time>2025-02-03T00:06:56Z</time>
					</trkpt>
					<trkpt lat="49.116290" lon="2.619410">
						<ele>97</ele>
						<time>2025-02-03T00:07:02Z</time>
					</trkpt>
					<trkpt lat="49.116460" lon="2.619860">
						<ele>96</ele>
						<time>2025-02-03T00:07:08Z</time>
					</trkpt>
					<trkpt lat="49.116500" lon="2.620090">
						<ele>95</ele>
						<time>2025-02-03T00:07:11Z</time>
					</trkpt>
					<trkpt lat="49.116610" lon="2.620080">
						<ele>96</ele>
						<time>2025-02-03T00:07:13Z</time>
					</trkpt>
					<trkpt lat="49.116790" lon="2.620130">
						<ele>97</ele>
						<time>2025-02-03T00:07:16Z</time>
					</trkpt>
					<trkpt lat="49.128300" lon="2.638650">
						<ele>109</ele>
						<time>2025-02-03T00:12:14Z</time>
					</trkpt>
					<trkpt lat="49.128850" lon="2.639490">
						<ele>110</ele>
						<time>2025-02-03T00:12:27Z</time>
					</trkpt>
					<trkpt lat="49.131760" lon="2.644160">
						<ele>108</ele>
						<time>2025-02-03T00:13:43Z</time>
					</trkpt>
					<trkpt lat="49.132660" lon="2.645560">
						<ele>108</ele>
						<time>2025-02-03T00:14:05Z</time>
					</trkpt>
					<trkpt lat="49.132970" lon="2.646090">
						<ele>108</ele>
						<time>2025-02-03T00:14:14Z</time>
					</trkpt>
					<trkpt lat="49.133160" lon="2.646280">
						<ele>108</ele>
						<time>2025-02-03T00:14:18Z</time>
					</trkpt>
					<trkpt lat="49.142290" lon="2.652580">
						<ele>115</ele>
						<time>2025-02-03T00:17:16Z</time>
					</trkpt>
					<trkpt lat="49.151400" lon="2.639620">
						<ele>116</ele>
						<time>2025-02-03T00:20:57Z</time>
					</trkpt>
					<trkpt lat="49.151630" lon="2.639350">
						<ele>116</ele>
						<time>2025-02-03T00:21:03Z</time>
					</trkpt>
					<trkpt lat="49.151820" lon="2.639210">
						<ele>116</ele>
						<time>2025-02-03T00:21:06Z</time>
					</trkpt>
					<trkpt lat="49.156600" lon="2.637370">
						<ele>117</ele>
						<time>2025-02-03T00:22:34Z</time>
					</trkpt>
					<trkpt lat="49.157840" lon="2.636860">
						<ele>121</ele>
						<time>2025-02-03T00:22:57Z</time>
					</trkpt>
					<trkpt lat="49.163940" lon="2.634460">
						<ele>115</ele>
						<time>2025-02-03T00:24:49Z</time>
					</trkpt>
					<trkpt lat="49.170020" lon="2.632100">
						<ele>94</ele>
						<time>2025-02-03T00:26:41Z</time>
					</trkpt>
					<trkpt lat="49.170730" lon="2.631810">
						<ele>91</ele>
						<time>2025-02-03T00:26:54Z</time>
					</trkpt>
					<trkpt lat="49.170840" lon="2.631700">
						<ele>91</ele>
						<time>2025-02-03T00:26:56Z</time>
					</trkpt>
					<trkpt lat="49.172200" lon="2.629510">
						<ele>89</ele>
						<time>2025-02-03T00:27:31Z</time>
					</trkpt>
					<trkpt lat="49.172530" lon="2.629070">
						<ele>89</ele>
						<time>2025-02-03T00:27:39Z</time>
					</trkpt>
					<trkpt lat="49.173370" lon="2.628310">
						<ele>88</ele>
						<time>2025-02-03T00:27:56Z</time>
					</trkpt>
					<trkpt lat="49.173590" lon="2.628070">
						<ele>87</ele>
						<time>2025-02-03T00:28:01Z</time>
					</trkpt>
					<trkpt lat="49.173820" lon="2.627740">
						<ele>87</ele>
						<time>2025-02-03T00:28:07Z</time>
					</trkpt>
					<trkpt lat="49.174040" lon="2.627250">
						<ele>85</ele>
						<time>2025-02-03T00:28:14Z</time>
					</trkpt>
					<trkpt lat="49.174450" lon="2.626210">
						<ele>82</ele>
						<time>2025-02-03T00:28:28Z</time>
					</trkpt>
					<trkpt lat="49.174780" lon="2.625760">
						<ele>81</ele>
						<time>2025-02-03T00:28:36Z</time>
					</trkpt>
					<trkpt lat="49.175240" lon="2.625290">
						<ele>80</ele>
						<time>2025-02-03T00:28:45Z</time>
					</trkpt>
					<trkpt lat="49.175720" lon="2.624660">
						<ele>80</ele>
						<time>2025-02-03T00:28:57Z</time>
					</trkpt>
					<trkpt lat="49.176360" lon="2.623590">
						<ele>79</ele>
						<time>2025-02-03T00:29:14Z</time>
					</trkpt>
					<trkpt lat="49.178010" lon="2.621510">
						<ele>76</ele>
						<time>2025-02-03T00:29:52Z</time>
					</trkpt>
					<trkpt lat="49.178880" lon="2.620190">
						<ele>73</ele>
						<time>2025-02-03T00:30:13Z</time>
					</trkpt>
					<trkpt lat="49.179660" lon="2.619430">
						<ele>72</ele>
						<time>2025-02-03T00:30:30Z</time>
					</trkpt>
					<trkpt lat="49.181260" lon="2.617060">
						<ele>71</ele>
						<time>2025-02-03T00:31:09Z</time>
					</trkpt>
					<trkpt lat="49.181720" lon="2.616210">
						<ele>69</ele>
						<time>2025-02-03T00:31:22Z</time>
					</trkpt>
					<trkpt lat="49.182190" lon="2.615060">
						<ele>68</ele>
						<time>2025-02-03T00:31:38Z</time>
					</trkpt>
					<trkpt lat="49.182780" lon="2.614110">
						<ele>68</ele>
						<time>2025-02-03T00:31:53Z</time>
					</trkpt>
					<trkpt lat="49.182990" lon="2.613830">
						<ele>68</ele>
						<time>2025-02-03T00:31:58Z</time>
					</trkpt>
					<trkpt lat="49.183230" lon="2.613680">
						<ele>68</ele>
						<time>2025-02-03T00:32:03Z</time>
					</trkpt>
					<trkpt lat="49.183530" lon="2.613450">
						<ele>68</ele>
						<time>2025-02-03T00:32:09Z</time>
					</trkpt>
					<trkpt lat="49.183800" lon="2.613170">
						<ele>69</ele>
						<time>2025-02-03T00:32:15Z</time>
					</trkpt>
					<trkpt lat="49.184430" lon="2.612090">
						<ele>71</ele>
						<time>2025-02-03T00:32:31Z</time>
					</trkpt>
					<trkpt lat="49.186240" lon="2.608770">
						<ele>72</ele>
						<time>2025-02-03T00:33:22Z</time>
					</trkpt>
					<trkpt lat="49.188550" lon="2.605130">
						<ele>57</ele>
						<time>2025-02-03T00:34:21Z</time>
					</trkpt>
					<trkpt lat="49.188890" lon="2.604650">
						<ele>58</ele>
						<time>2025-02-03T00:34:29Z</time>
					</trkpt>
					<trkpt lat="49.189280" lon="2.604310">
						<ele>59</ele>
						<time>2025-02-03T00:34:37Z</time>
					</trkpt>
					<trkpt lat="49.189610" lon="2.604120">
						<ele>59</ele>
						<time>2025-02-03T00:34:43Z</time>
					</trkpt>
					<trkpt lat="49.190000" lon="2.603970">
						<ele>59</ele>
						<time>2025-02-03T00:34:50Z</time>
					</trkpt>
					<trkpt lat="49.190340" lon="2.603940">
						<ele>60</ele>
						<time>2025-02-03T00:34:56Z</time>
					</trkpt>
					<trkpt lat="49.190630" lon="2.603970">
						<ele>61</ele>
						<time>2025-02-03T00:35:02Z</time>
					</trkpt>
					<trkpt lat="49.190850" lon="2.604020">
						<ele>62</ele>
						<time>2025-02-03T00:35:06Z</time>
					</trkpt>
					<trkpt lat="49.191370" lon="2.604270">
						<ele>62</ele>
						<time>2025-02-03T00:35:15Z</time>
					</trkpt>
					<trkpt lat="49.191860" lon="2.604720">
						<ele>62</ele>
						<time>2025-02-03T00:35:25Z</time>
					</trkpt>
					<trkpt lat="49.192130" lon="2.605100">
						<ele>61</ele>
						<time>2025-02-03T00:35:32Z</time>
					</trkpt>
					<trkpt lat="49.193280" lon="2.606310">
						<ele>60</ele>
						<time>2025-02-03T00:35:57Z</time>
					</trkpt>
					<trkpt lat="49.193720" lon="2.606480">
						<ele>59</ele>
						<time>2025-02-03T00:36:05Z</time>
					</trkpt>
					<trkpt lat="49.194150" lon="2.606510">
						<ele>57</ele>
						<time>2025-02-03T00:36:13Z</time>
					</trkpt>
					<trkpt lat="49.194510" lon="2.606400">
						<ele>56</ele>
						<time>2025-02-03T00:36:19Z</time>
					</trkpt>
					<trkpt lat="49.194870" lon="2.606180">
						<ele>55</ele>
						<time>2025-02-03T00:36:26Z</time>
					</trkpt>
					<trkpt lat="49.195120" lon="2.605910">
						<ele>55</ele>
						<time>2025-02-03T00:36:31Z</time>
					</trkpt>
					<trkpt lat="49.195350" lon="2.605580">
						<ele>55</ele>
						<time>2025-02-03T00:36:37Z</time>
					</trkpt>
					<trkpt lat="49.195570" lon="2.605150">
						<ele>55</ele>
						<time>2025-02-03T00:36:43Z</time>
					</trkpt>
					<trkpt lat="49.196610" lon="2.602960">
						<ele>58</ele>
						<time>2025-02-03T00:37:15Z</time>
					</trkpt>
					<trkpt lat="49.196780" lon="2.602540">
						<ele>59</ele>
						<time>2025-02-03T00:37:21Z</time>
					</trkpt>
					<trkpt lat="49.196960" lon="2.601750">
						<ele>61</ele>
						<time>2025-02-03T00:37:30Z</time>
					</trkpt>
					<trkpt lat="49.197320" lon="2.598580">
						<ele>57</ele>
						<time>2025-02-03T00:38:08Z</time>
					</trkpt>
					<trkpt lat="49.197450" lon="2.597930">
						<ele>58</ele>
						<time>2025-02-03T00:38:16Z</time>
					</trkpt>
					<trkpt lat="49.197830" lon="2.596970">
						<ele>58</ele>
						<time>2025-02-03T00:38:29Z</time>
					</trkpt>
					<trkpt lat="49.197970" lon="2.596680">
						<ele>58</ele>
						<time>2025-02-03T00:38:33Z</time>
					</trkpt>
					<trkpt lat="49.198580" lon="2.595760">
						<ele>56</ele>
						<time>2025-02-03T00:38:48Z</time>
					</trkpt>
					<trkpt lat="49.199110" lon="2.594770">
						<ele>56</ele>
						<time>2025-02-03T00:39:03Z</time>
					</trkpt>
					<trkpt lat="49.199330" lon="2.594220">
						<ele>56</ele>
						<time>2025-02-03T00:39:10Z</time>
					</trkpt>
					<trkpt lat="49.199590" lon="2.592340">
						<ele>56</ele>
						<time>2025-02-03T00:39:33Z</time>
					</trkpt>
					<trkpt lat="49.199710" lon="2.592220">
						<ele>55</ele>
						<time>2025-02-03T00:39:35Z</time>
					</trkpt>
					<trkpt lat="49.199890" lon="2.589130">
						<ele>52</ele>
						<time>2025-02-03T00:40:11Z</time>
					</trkpt>
					<trkpt lat="49.199490" lon="2.587080">
						<ele>53</ele>
						<time>2025-02-03T00:40:36Z</time>
					</trkpt>
					<trkpt lat="49.199540" lon="2.586980">
						<ele>53</ele>
						<time>2025-02-03T00:40:38Z</time>
					</trkpt>
					<trkpt lat="49.198880" lon="2.586150">
						<ele>56</ele>
						<time>2025-02-03T00:40:53Z</time>
					</trkpt>
					<trkpt lat="49.198300" lon="2.585650">
						<ele>58</ele>
						<time>2025-02-03T00:41:05Z</time>
					</trkpt>
					<trkpt lat="49.198220" lon="2.585560">
						<ele>58</ele>
						<time>2025-02-03T00:41:07Z</time>
					</trkpt>
					<trkpt lat="49.198190" lon="2.585480">
						<ele>58</ele>
						<time>2025-02-03T00:41:08Z</time>
					</trkpt>
					<trkpt lat="49.198220" lon="2.584910">
						<ele>58</ele>
						<time>2025-02-03T00:41:14Z</time>
					</trkpt>
					<trkpt lat="49.198150" lon="2.584590">
						<ele>58</ele>
						<time>2025-02-03T00:41:18Z</time>
					</trkpt>
					<trkpt lat="49.197750" lon="2.583600">
						<ele>58</ele>
						<time>2025-02-03T00:41:32Z</time>
					</trkpt>
					<trkpt lat="49.197460" lon="2.582560">
						<ele>60</ele>
						<time>2025-02-03T00:41:45Z</time>
					</trkpt>
					<trkpt lat="49.197150" lon="2.581380">
						<ele>59</ele>
						<time>2025-02-03T00:42:00Z</time>
					</trkpt>
					<trkpt lat="49.196960" lon="2.580390">
						<ele>58</ele>
						<time>2025-02-03T00:42:12Z</time>
					</trkpt>
					<trkpt lat="49.196580" lon="2.578790">
						<ele>55</ele>
						<time>2025-02-03T00:42:31Z</time>
					</trkpt>
					<trkpt lat="49.196440" lon="2.578530">
						<ele>55</ele>
						<time>2025-02-03T00:42:35Z</time>
					</trkpt>
					<trkpt lat="49.196340" lon="2.578400">
						<ele>55</ele>
						<time>2025-02-03T00:42:38Z</time>
					</trkpt>
					<trkpt lat="49.196160" lon="2.578240">
						<ele>54</ele>
						<time>2025-02-03T00:42:41Z</time>
					</trkpt>
					<trkpt lat="49.195770" lon="2.577930">
						<ele>54</ele>
						<time>2025-02-03T00:42:49Z</time>
					</trkpt>
					<trkpt lat="49.195520" lon="2.577940">
						<ele>54</ele>
						<time>2025-02-03T00:42:54Z</time>
					</trkpt>
					<trkpt lat="49.195330" lon="2.577850">
						<ele>54</ele>
						<time>2025-02-03T00:42:57Z</time>
					</trkpt>
					<trkpt lat="49.195290" lon="2.577670">
						<ele>54</ele>
						<time>2025-02-03T00:42:59Z</time>
					</trkpt>
					<trkpt lat="49.195280" lon="2.577510">
						<ele>54</ele>
						<time>2025-02-03T00:43:01Z</time>
					</trkpt>
					<trkpt lat="49.195490" lon="2.577040">
						<ele>55</ele>
						<time>2025-02-03T00:43:08Z</time>
					</trkpt>
					<trkpt lat="49.195950" lon="2.575030">
						<ele>52</ele>
						<time>2025-02-03T00:43:33Z</time>
					</trkpt>
					<trkpt lat="49.196430" lon="2.571180">
						<ele>51</ele>
						<time>2025-02-03T00:44:18Z</time>
					</trkpt>
					<trkpt lat="49.196450" lon="2.570090">
						<ele>51</ele>
						<time>2025-02-03T00:44:31Z</time>
					</trkpt>
					<trkpt lat="49.196660" lon="2.569670">
						<ele>51</ele>
						<time>2025-02-03T00:44:37Z</time>
					</trkpt>
					<trkpt lat="49.196430" lon="2.569280">
						<ele>51</ele>
						<time>2025-02-03T00:44:43Z</time>
					</trkpt>
					<trkpt lat="49.196140" lon="2.567970">
						<ele>52</ele>
						<time>2025-02-03T00:44:59Z</time>
					</trkpt>
					<trkpt lat="49.195960" lon="2.567300">
						<ele>52</ele>
						<time>2025-02-03T00:45:08Z</time>
					</trkpt>
					<trkpt lat="49.196600" lon="2.564870">
						<ele>50</ele>
						<time>2025-02-03T00:45:38Z</time>
					</trkpt>
					<trkpt lat="49.196490" lon="2.564080">
						<ele>51</ele>
						<time>2025-02-03T00:45:48Z</time>
					</trkpt>
					<trkpt lat="49.196310" lon="2.563280">
						<ele>53</ele>
						<time>2025-02-03T00:45:57Z</time>
					</trkpt>
					<trkpt lat="49.195700" lon="2.561140">
						<ele>54</ele>
						<time>2025-02-03T00:46:25Z</time>
					</trkpt>
					<trkpt lat="49.195600" lon="2.557540">
						<ele>49</ele>
						<time>2025-02-03T00:47:06Z</time>
					</trkpt>
					<trkpt lat="49.195940" lon="2.555310">
						<ele>50</ele>
						<time>2025-02-03T00:47:33Z</time>
					</trkpt>
					<trkpt lat="49.196070" lon="2.553560">
						<ele>52</ele>
						<time>2025-02-03T00:47:54Z</time>
					</trkpt>
					<trkpt lat="49.196000" lon="2.553020">
						<ele>53</ele>
						<time>2025-02-03T00:48:00Z</time>
					</trkpt>
					<trkpt lat="49.195610" lon="2.551720">
						<ele>54</ele>
						<time>2025-02-03T00:48:17Z</time>
					</trkpt>
					<trkpt lat="49.195470" lon="2.550770">
						<ele>55</ele>
						<time>2025-02-03T00:48:28Z</time>
					</trkpt>
					<trkpt lat="49.195340" lon="2.548470">
						<ele>54</ele>
						<time>2025-02-03T00:48:55Z</time>
					</trkpt>
					<trkpt lat="49.195270" lon="2.544900">
						<ele>54</ele>
						<time>2025-02-03T00:49:36Z</time>
					</trkpt>
					<trkpt lat="49.195190" lon="2.542660">
						<ele>55</ele>
						<time>2025-02-03T00:50:02Z</time>
					</trkpt>
					<trkpt lat="49.195130" lon="2.542480">
						<ele>55</ele>
						<time>2025-02-03T00:50:05Z</time>
					</trkpt>
					<trkpt lat="49.194670" lon="2.541970">
						<ele>52</ele>
						<time>2025-02-03T00:50:15Z</time>
					</trkpt>
					<trkpt lat="49.194420" lon="2.541630">
						<ele>50</ele>
						<time>2025-02-03T00:50:21Z</time>
					</trkpt>
					<trkpt lat="49.193830" lon="2.539010">
						<ele>54</ele>
						<time>2025-02-03T00:50:53Z</time>
					</trkpt>
					<trkpt lat="49.193720" lon="2.538180">
						<ele>56</ele>
						<time>2025-02-03T00:51:03Z</time>
					</trkpt>
					<trkpt lat="49.193750" lon="2.537870">
						<ele>56</ele>
						<time>2025-02-03T00:51:07Z</time>
					</trkpt>
					<trkpt lat="49.193760" lon="2.537100">
						<ele>56</ele>
						<time>2025-02-03T00:51:15Z</time>
					</trkpt>
					<trkpt lat="49.194060" lon="2.536620">
						<ele>55</ele>
						<time>2025-02-03T00:51:23Z</time>
					</trkpt>
					<trkpt lat="49.194180" lon="2.536310">
						<ele>55</ele>
						<time>2025-02-03T00:51:27Z</time>
					</trkpt>
					<trkpt lat="49.194150" lon="2.535400">
						<ele>55</ele>
						<time>2025-02-03T00:51:38Z</time>
					</trkpt>
					<trkpt lat="49.194260" lon="2.533710">
						<ele>52</ele>
						<time>2025-02-03T00:51:58Z</time>
					</trkpt>
					<trkpt lat="49.194250" lon="2.533470">
						<ele>52</ele>
						<time>2025-02-03T00:52:01Z</time>
					</trkpt>
					<trkpt lat="49.194220" lon="2.533240">
						<ele>53</ele>
						<time>2025-02-03T00:52:03Z</time>
					</trkpt>
					<trkpt lat="49.193840" lon="2.532180">
						<ele>53</ele>
						<time>2025-02-03T00:52:17Z</time>
					</trkpt>
					<trkpt lat="49.193610" lon="2.531450">
						<ele>53</ele>
						<time>2025-02-03T00:52:27Z</time>
					</trkpt>
					<trkpt lat="49.193150" lon="2.529350">
						<ele>51</ele>
						<time>2025-02-03T00:52:52Z</time>
					</trkpt>
					<trkpt lat="49.192840" lon="2.526990">
						<ele>51</ele>
						<time>2025-02-03T00:53:20Z</time>
					</trkpt>
					<trkpt lat="49.192270" lon="2.522060">
						<ele>47</ele>
						<time>2025-02-03T00:54:19Z</time>
					</trkpt>
					<trkpt lat="49.192310" lon="2.521470">
						<ele>47</ele>
						<time>2025-02-03T00:54:26Z</time>
					</trkpt>
					<trkpt lat="49.192510" lon="2.519810">
						<ele>48</ele>
						<time>2025-02-03T00:54:45Z</time>
					</trkpt>
					<trkpt lat="49.192990" lon="2.517290">
						<ele>48</ele>
						<time>2025-02-03T00:55:16Z</time>
					</trkpt>
					<trkpt lat="49.193620" lon="2.515230">
						<ele>49</ele>
						<time>2025-02-03T00:55:42Z</time>
					</trkpt>
					<trkpt lat="49.193740" lon="2.515090">
						<ele>49</ele>
						<time>2025-02-03T00:55:45Z</time>
					</trkpt>
					<trkpt lat="49.193920" lon="2.514990">
						<ele>49</ele>
						<time>2025-02-03T00:55:48Z</time>
					</trkpt>
					<trkpt lat="49.193990" lon="2.514900">
						<ele>49</ele>
						<time>2025-02-03T00:55:50Z</time>
					</trkpt>
					<trkpt lat="49.194040" lon="2.514720">
						<ele>49</ele>
						<time>2025-02-03T00:55:52Z</time>
					</trkpt>
					<trkpt lat="49.194190" lon="2.513740">
						<ele>49</ele>
						<time>2025-02-03T00:56:04Z</time>
					</trkpt>
					<trkpt lat="49.194220" lon="2.512840">
						<ele>49</ele>
						<time>2025-02-03T00:56:14Z</time>
					</trkpt>
					<trkpt lat="49.193920" lon="2.512920">
						<ele>50</ele>
						<time>2025-02-03T00:56:20Z</time>
					</trkpt>
					<trkpt lat="49.193850" lon="2.512890">
						<ele>50</ele>
						<time>2025-02-03T00:56:21Z</time>
					</trkpt>
					<trkpt lat="49.193350" lon="2.512820">
						<ele>52</ele>
						<time>2025-02-03T00:56:30Z</time>
					</trkpt>
					<trkpt lat="49.192760" lon="2.512650">
						<ele>53</ele>
						<time>2025-02-03T00:56:41Z</time>
					</trkpt>
					<trkpt lat="49.192430" lon="2.512600">
						<ele>53</ele>
						<time>2025-02-03T00:56:47Z</time>
					</trkpt>
					<trkpt lat="49.190870" lon="2.512510">
						<ele>57</ele>
						<time>2025-02-03T00:57:14Z</time>
					</trkpt>
					<trkpt lat="49.190710" lon="2.512430">
						<ele>58</ele>
						<time>2025-02-03T00:57:17Z</time>
					</trkpt>
					<trkpt lat="49.190560" lon="2.512320">
						<ele>59</ele>
						<time>2025-02-03T00:57:20Z</time>
					</trkpt>
					<trkpt lat="49.190310" lon="2.511980">
						<ele>60</ele>
						<time>2025-02-03T00:57:26Z</time>
					</trkpt>
					<trkpt lat="49.188460" lon="2.507490">
						<ele>61</ele>
						<time>2025-02-03T00:58:28Z</time>
					</trkpt>
					<trkpt lat="49.187770" lon="2.505680">
						<ele>64</ele>
						<time>2025-02-03T00:58:52Z</time>
					</trkpt>
					<trkpt lat="49.187420" lon="2.504980">
						<ele>64</ele>
						<time>2025-02-03T00:59:03Z</time>
					</trkpt>
					<trkpt lat="49.183770" lon="2.498940">
						<ele>63</ele>
						<time>2025-02-03T01:00:38Z</time>
					</trkpt>
					<trkpt lat="49.183660" lon="2.498700">
						<ele>63</ele>
						<time>2025-02-03T01:00:42Z</time>
					</trkpt>
					<trkpt lat="49.183570" lon="2.498340">
						<ele>63</ele>
						<time>2025-02-03T01:00:46Z</time>
					</trkpt>
					<trkpt lat="49.183430" lon="2.496270">
						<ele>61</ele>
						<time>2025-02-03T01:01:10Z</time>
					</trkpt>
					<trkpt lat="49.183210" lon="2.491460">
						<ele>61</ele>
						<time>2025-02-03T01:02:06Z</time>
					</trkpt>
					<trkpt lat="49.173430" lon="2.501660">
						<ele>60</ele>
						<time>2025-02-03T01:05:37Z</time>
					</trkpt>
					<trkpt lat="49.168310" lon="2.506930">
						<ele>60</ele>
						<time>2025-02-03T01:07:27Z</time>
					</trkpt>
					<trkpt lat="49.167000" lon="2.508360">
						<ele>61</ele>
						<time>2025-02-03T01:07:55Z</time>
					</trkpt>
					<trkpt lat="49.166870" lon="2.508470">
						<ele>61</ele>
						<time>2025-02-03T01:07:58Z</time>
					</trkpt>
					<trkpt lat="49.166770" lon="2.508500">
						<ele>61</ele>
						<time>2025-02-03T01:08:00Z</time>
					</trkpt>
					<trkpt lat="49.166580" lon="2.508460">
						<ele>61</ele>
						<time>2025-02-03T01:08:03Z</time>
					</trkpt>
					<trkpt lat="49.166480" lon="2.508470">
						<ele>62</ele>
						<time>2025-02-03T01:08:05Z</time>
					</trkpt>
					<trkpt lat="49.166380" lon="2.508590">
						<ele>62</ele>
						<time>2025-02-03T01:08:07Z</time>
					</trkpt>
					<trkpt lat="49.164680" lon="2.507150">
						<ele>65</ele>
						<time>2025-02-03T01:08:42Z</time>
					</trkpt>
					<trkpt lat="49.160530" lon="2.503450">
						<ele>65</ele>
						<time>2025-02-03T01:10:07Z</time>
					</trkpt>
					<trkpt lat="49.158320" lon="2.501540">
						<ele>52</ele>
						<time>2025-02-03T01:10:53Z</time>
					</trkpt>
					<trkpt lat="49.158850" lon="2.503030">
						<ele>55</ele>
						<time>2025-02-03T01:11:12Z</time>
					</trkpt>
					<trkpt lat="49.159370" lon="2.504230">
						<ele>55</ele>
						<time>2025-02-03T01:11:29Z</time>
					</trkpt>
					<trkpt lat="49.159490" lon="2.504580">
						<ele>55</ele>
						<time>2025-02-03T01:11:34Z</time>
					</trkpt>
					<trkpt lat="49.159550" lon="2.504960">
						<ele>55</ele>
						<time>2025-02-03T01:11:38Z</time>
					</trkpt>
					<trkpt lat="49.159530" lon="2.505780">
						<ele>54</ele>
						<time>2025-02-03T01:11:48Z</time>
					</trkpt>
					<trkpt lat="49.159400" lon="2.507050">
						<ele>55</ele>
						<time>2025-02-03T01:12:03Z</time>
					</trkpt>
					<trkpt lat="49.159320" lon="2.507260">
						<ele>55</ele>
						<time>2025-02-03T01:12:06Z</time>
					</trkpt>
					<trkpt lat="49.158930" lon="2.507820">
						<ele>56</ele>
						<time>2025-02-03T01:12:15Z</time>
					</trkpt>
					<trkpt lat="49.158590" lon="2.508220">
						<ele>57</ele>
						<time>2025-02-03T01:12:23Z</time>
					</trkpt>
					<trkpt lat="49.158310" lon="2.508440">
						<ele>58</ele>
						<time>2025-02-03T01:12:28Z</time>
					</trkpt>
					<trkpt lat="49.156920" lon="2.508910">
						<ele>61</ele>
						<time>2025-02-03T01:12:54Z</time>
					</trkpt>
					<trkpt lat="49.155260" lon="2.509410">
						<ele>60</ele>
						<time>2025-02-03T01:13:24Z</time>
					</trkpt>
					<trkpt lat="49.154990" lon="2.509580">
						<ele>59</ele>
						<time>2025-02-03T01:13:29Z</time>
					</trkpt>
					<trkpt lat="49.154980" lon="2.509620">
						<ele>59</ele>
						<time>2025-02-03T01:13:29Z</time>
					</trkpt>
					<trkpt lat="49.154910" lon="2.509580">
						<ele>59</ele>
						<time>2025-02-03T01:13:31Z</time>
					</trkpt>
					<trkpt lat="49.154350" lon="2.509600">
						<ele>55</ele>
						<time>2025-02-03T01:13:41Z</time>
					</trkpt>
					<trkpt lat="49.154040" lon="2.509660">
						<ele>53</ele>
						<time>2025-02-03T01:13:46Z</time>
					</trkpt>
					<trkpt lat="49.153540" lon="2.509910">
						<ele>51</ele>
						<time>2025-02-03T01:13:56Z</time>
					</trkpt>
					<trkpt lat="49.153200" lon="2.509700">
						<ele>51</ele>
						<time>2025-02-03T01:14:02Z</time>
					</trkpt>
					<trkpt lat="49.152990" lon="2.509420">
						<ele>52</ele>
						<time>2025-02-03T01:14:07Z</time>
					</trkpt>
					<trkpt lat="49.152710" lon="2.508970">
						<ele>54</ele>
						<time>2025-02-03T01:14:14Z</time>
					</trkpt>
					<trkpt lat="49.150350" lon="2.506000">
						<ele>65</ele>
						<time>2025-02-03T01:15:09Z</time>
					</trkpt>
					<trkpt lat="49.149580" lon="2.505370">
						<ele>67</ele>
						<time>2025-02-03T01:15:24Z</time>
					</trkpt>
					<trkpt lat="49.145830" lon="2.502110">
						<ele>68</ele>
						<time>2025-02-03T01:16:41Z</time>
					</trkpt>
					<trkpt lat="49.138800" lon="2.495860">
						<ele>87</ele>
						<time>2025-02-03T01:19:06Z</time>
					</trkpt>
					<trkpt lat="49.138890" lon="2.492610">
						<ele>90</ele>
						<time>2025-02-03T01:19:44Z</time>
					</trkpt>
					<trkpt lat="49.138930" lon="2.492110">
						<ele>90</ele>
						<time>2025-02-03T01:19:50Z</time>
					</trkpt>
					<trkpt lat="49.139010" lon="2.491750">
						<ele>89</ele>
						<time>2025-02-03T01:19:54Z</time>
					</trkpt>
					<trkpt lat="49.139620" lon="2.490620">
						<ele>87</ele>
						<time>2025-02-03T01:20:11Z</time>
					</trkpt>
					<trkpt lat="49.139730" lon="2.490270">
						<ele>87</ele>
						<time>2025-02-03T01:20:16Z</time>
					</trkpt>
					<trkpt lat="49.139760" lon="2.490040">
						<ele>87</ele>
						<time>2025-02-03T01:20:18Z</time>
					</trkpt>
					<trkpt lat="49.139730" lon="2.489480">
						<ele>87</ele>
						<time>2025-02-03T01:20:25Z</time>
					</trkpt>
					<trkpt lat="49.139030" lon="2.487480">
						<ele>93</ele>
						<time>2025-02-03T01:20:51Z</time>
					</trkpt>
					<trkpt lat="49.139050" lon="2.484790">
						<ele>93</ele>
						<time>2025-02-03T01:21:22Z</time>
					</trkpt>
					<trkpt lat="49.138960" lon="2.484580">
						<ele>93</ele>
						<time>2025-02-03T01:21:25Z</time>
					</trkpt>
					<trkpt lat="49.138740" lon="2.484230">
						<ele>93</ele>
						<time>2025-02-03T01:21:31Z</time>
					</trkpt>
					<trkpt lat="49.138660" lon="2.483970">
						<ele>92</ele>
						<time>2025-02-03T01:21:34Z</time>
					</trkpt>
					<trkpt lat="49.138620" lon="2.483600">
						<ele>91</ele>
						<time>2025-02-03T01:21:39Z</time>
					</trkpt>
					<trkpt lat="49.138700" lon="2.482720">
						<ele>86</ele>
						<time>2025-02-03T01:21:49Z</time>
					</trkpt>
					<trkpt lat="49.138870" lon="2.481830">
						<ele>80</ele>
						<time>2025-02-03T01:22:00Z</time>
					</trkpt>
					<trkpt lat="49.138940" lon="2.481580">
						<ele>78</ele>
						<time>2025-02-03T01:22:03Z</time>
					</trkpt>
					<trkpt lat="49.139290" lon="2.480780">
						<ele>71</ele>
						<time>2025-02-03T01:22:14Z</time>
					</trkpt>
					<trkpt lat="49.139360" lon="2.480570">
						<ele>71</ele>
						<time>2025-02-03T01:22:17Z</time>
					</trkpt>
					<trkpt lat="49.139440" lon="2.480220">
						<ele>68</ele>
						<time>2025-02-03T01:22:21Z</time>
					</trkpt>
					<trkpt lat="49.139490" lon="2.479700">
						<ele>65</ele>
						<time>2025-02-03T01:22:27Z</time>
					</trkpt>
					<trkpt lat="49.139590" lon="2.479130">
						<ele>61</ele>
						<time>2025-02-03T01:22:34Z</time>
					</trkpt>
					<trkpt lat="49.139650" lon="2.478960">
						<ele>61</ele>
						<time>2025-02-03T01:22:37Z</time>
					</trkpt>
					<trkpt lat="49.140090" lon="2.478150">
						<ele>58</ele>
						<time>2025-02-03T01:22:49Z</time>
					</trkpt>
					<trkpt lat="49.140760" lon="2.477000">
						<ele>51</ele>
						<time>2025-02-03T01:23:07Z</time>
					</trkpt>
					<trkpt lat="49.141910" lon="2.474630">
						<ele>42</ele>
						<time>2025-02-03T01:23:41Z</time>
					</trkpt>
					<trkpt lat="49.142540" lon="2.473710">
						<ele>41</ele>
						<time>2025-02-03T01:23:57Z</time>
					</trkpt>
					<trkpt lat="49.143190" lon="2.472850">
						<ele>41</ele>
						<time>2025-02-03T01:24:12Z</time>
					</trkpt>
					<trkpt lat="49.143230" lon="2.472770">
						<ele>41</ele>
						<time>2025-02-03T01:24:13Z</time>
					</trkpt>
					<trkpt lat="49.143190" lon="2.471390">
						<ele>42</ele>
						<time>2025-02-03T01:24:29Z</time>
					</trkpt>
					<trkpt lat="49.143210" lon="2.470430">
						<ele>42</ele>
						<time>2025-02-03T01:24:40Z</time>
					</trkpt>
					<trkpt lat="49.143250" lon="2.469540">
						<ele>43</ele>
						<time>2025-02-03T01:24:51Z</time>
					</trkpt>
					<trkpt lat="49.143330" lon="2.468520">
						<ele>44</ele>
						<time>2025-02-03T01:25:03Z</time>
					</trkpt>
					<trkpt lat="49.143320" lon="2.468350">
						<ele>44</ele>
						<time>2025-02-03T01:25:05Z</time>
					</trkpt>
					<trkpt lat="49.143170" lon="2.467980">
						<ele>44</ele>
						<time>2025-02-03T01:25:10Z</time>
					</trkpt>
					<trkpt lat="49.142930" lon="2.466760">
						<ele>45</ele>
						<time>2025-02-03T01:25:25Z</time>
					</trkpt>
					<trkpt lat="49.142870" lon="2.465190">
						<ele>45</ele>
						<time>2025-02-03T01:25:43Z</time>
					</trkpt>
					<trkpt lat="49.142990" lon="2.462090">
						<ele>41</ele>
						<time>2025-02-03T01:26:19Z</time>
					</trkpt>
					<trkpt lat="49.143040" lon="2.461670">
						<ele>42</ele>
						<time>2025-02-03T01:26:24Z</time>
					</trkpt>
					<trkpt lat="49.143070" lon="2.461580">
						<ele>42</ele>
						<time>2025-02-03T01:26:25Z</time>
					</trkpt>
					<trkpt lat="49.143030" lon="2.461500">
						<ele>42</ele>
						<time>2025-02-03T01:26:26Z</time>
					</trkpt>
					<trkpt lat="49.143020" lon="2.461220">
						<ele>43</ele>
						<time>2025-02-03T01:26:30Z</time>
					</trkpt>
					<trkpt lat="49.143420" lon="2.450730">
						<ele>42</ele>
						<time>2025-02-03T01:28:32Z</time>
					</trkpt>
					<trkpt lat="49.143450" lon="2.450400">
						<ele>42</ele>
						<time>2025-02-03T01:28:36Z</time>
					</trkpt>
					<trkpt lat="49.143530" lon="2.449950">
						<ele>41</ele>
						<time>2025-02-03T01:28:41Z</time>
					</trkpt>
					<trkpt lat="49.145450" lon="2.441260">
						<ele>39</ele>
						<time>2025-02-03T01:30:28Z</time>
					</trkpt>
					<trkpt lat="49.145580" lon="2.440950">
						<ele>38</ele>
						<time>2025-02-03T01:30:32Z</time>
					</trkpt>
					<trkpt lat="49.145680" lon="2.440800">
						<ele>38</ele>
						<time>2025-02-03T01:30:35Z</time>
					</trkpt>
					<trkpt lat="49.145680" lon="2.440420">
						<ele>38</ele>
						<time>2025-02-03T01:30:39Z</time>
					</trkpt>
					<trkpt lat="49.145750" lon="2.440180">
						<ele>38</ele>
						<time>2025-02-03T01:30:42Z</time>
					</trkpt>
					<trkpt lat="49.145810" lon="2.440130">
						<ele>38</ele>
						<time>2025-02-03T01:30:43Z</time>
					</trkpt>
					<trkpt lat="49.145970" lon="2.440060">
						<ele>37</ele>
						<time>2025-02-03T01:30:46Z</time>
					</trkpt>
					<trkpt lat="49.146110" lon="2.440080">
						<ele>36</ele>
						<time>2025-02-03T01:30:49Z</time>
					</trkpt>
					<trkpt lat="49.146640" lon="2.440350">
						<ele>33</ele>
						<time>2025-02-03T01:30:59Z</time>
					</trkpt>
					<trkpt lat="49.149190" lon="2.429220">
						<ele>30</ele>
						<time>2025-02-03T01:33:16Z</time>
					</trkpt>
					<trkpt lat="49.149270" lon="2.429050">
						<ele>30</ele>
						<time>2025-02-03T01:33:19Z</time>
					</trkpt>
					<trkpt lat="49.149380" lon="2.428910">
						<ele>31</ele>
						<time>2025-02-03T01:33:21Z</time>
					</trkpt>
					<trkpt lat="49.149450" lon="2.428880">
						<ele>31</ele>
						<time>2025-02-03T01:33:22Z</time>
					</trkpt>
					<trkpt lat="49.149940" lon="2.428950">
						<ele>30</ele>
						<time>2025-02-03T01:33:31Z</time>
					</trkpt>
					<trkpt lat="49.153040" lon="2.429190">
						<ele>32</ele>
						<time>2025-02-03T01:34:26Z</time>
					</trkpt>
					<trkpt lat="49.153220" lon="2.429360">
						<ele>32</ele>
						<time>2025-02-03T01:34:30Z</time>
					</trkpt>
					<trkpt lat="49.153240" lon="2.429540">
						<ele>33</ele>
						<time>2025-02-03T01:34:32Z</time>
					</trkpt>
					<trkpt lat="49.153280" lon="2.429610">
						<ele>33</ele>
						<time>2025-02-03T01:34:33Z</time>
					</trkpt>
					<trkpt lat="49.153370" lon="2.429650">
						<ele>33</ele>
						<time>2025-02-03T01:34:35Z</time>
					</trkpt>
					<trkpt lat="49.153460" lon="2.429610">
						<ele>34</ele>
						<time>2025-02-03T01:34:37Z</time>
					</trkpt>
					<trkpt lat="49.153520" lon="2.429420">
						<ele>34</ele>
						<time>2025-02-03T01:34:39Z</time>
					</trkpt>
					<trkpt lat="49.153670" lon="2.429240">
						<ele>34</ele>
						<time>2025-02-03T01:34:42Z</time>
					</trkpt>
					<trkpt lat="49.155790" lon="2.429380">
						<ele>35</ele>
						<time>2025-02-03T01:35:20Z</time>
					</trkpt>
					<trkpt lat="49.155800" lon="2.420750">
						<ele>34</ele>
						<time>2025-02-03T01:37:01Z</time>
					</trkpt>
					<trkpt lat="49.156540" lon="2.417100">
						<ele>37</ele>
						<time>2025-02-03T01:37:45Z</time>
					</trkpt>
					<trkpt lat="49.156990" lon="2.415850">
						<ele>37</ele>
						<time>2025-02-03T01:38:02Z</time>
					</trkpt>
					<trkpt lat="49.157610" lon="2.413790">
						<ele>37</ele>
						<time>2025-02-03T01:38:28Z</time>
					</trkpt>
					<trkpt lat="49.157710" lon="2.413270">
						<ele>36</ele>
						<time>2025-02-03T01:38:34Z</time>
					</trkpt>
					<trkpt lat="49.157710" lon="2.412930">
						<ele>36</ele>
						<time>2025-02-03T01:38:38Z</time>
					</trkpt>
					<trkpt lat="49.157680" lon="2.412610">
						<ele>35</ele>
						<time>2025-02-03T01:38:42Z</time>
					</trkpt>
					<trkpt lat="49.157400" lon="2.410710">
						<ele>35</ele>
						<time>2025-02-03T01:39:05Z</time>
					</trkpt>
					<trkpt lat="49.157510" lon="2.407560">
						<ele>37</ele>
						<time>2025-02-03T01:39:42Z</time>
					</trkpt>
					<trkpt lat="49.157930" lon="2.403180">
						<ele>36</ele>
						<time>2025-02-03T01:40:33Z</time>
					</trkpt>
					<trkpt lat="49.158200" lon="2.402470">
						<ele>34</ele>
						<time>2025-02-03T01:40:43Z</time>
					</trkpt>
					<trkpt lat="49.158730" lon="2.401370">
						<ele>31</ele>
						<time>2025-02-03T01:40:58Z</time>
					</trkpt>
					<trkpt lat="49.158950" lon="2.401000">
						<ele>31</ele>
						<time>2025-02-03T01:41:04Z</time>
					</trkpt>
					<trkpt lat="49.159020" lon="2.400720">
						<ele>31</ele>
						<time>2025-02-03T01:41:08Z</time>
					</trkpt>
					<trkpt lat="49.159180" lon="2.399360">
						<ele>32</ele>
						<time>2025-02-03T01:41:24Z</time>
					</trkpt>
					<trkpt lat="49.159310" lon="2.397790">
						<ele>32</ele>
						<time>2025-02-03T01:41:42Z</time>
					</trkpt>
					<trkpt lat="49.159340" lon="2.396520">
						<ele>31</ele>
						<time>2025-02-03T01:41:57Z</time>
					</trkpt>
					<trkpt lat="49.159380" lon="2.396120">
						<ele>31</ele>
						<time>2025-02-03T01:42:02Z</time>
					</trkpt>
					<trkpt lat="49.159620" lon="2.394660">
						<ele>32</ele>
						<time>2025-02-03T01:42:19Z</time>
					</trkpt>
					<trkpt lat="49.159730" lon="2.394200">
						<ele>33</ele>
						<time>2025-02-03T01:42:25Z</time>
					</trkpt>
					<trkpt lat="49.160060" lon="2.393380">
						<ele>33</ele>
						<time>2025-02-03T01:42:36Z</time>
					</trkpt>
					<trkpt lat="49.160160" lon="2.393010">
						<ele>32</ele>
						<time>2025-02-03T01:42:41Z</time>
					</trkpt>
					<trkpt lat="49.160390" lon="2.391870">
						<ele>31</ele>
						<time>2025-02-03T01:42:55Z</time>
					</trkpt>
					<trkpt lat="49.160890" lon="2.389060">
						<ele>28</ele>
						<time>2025-02-03T01:43:29Z</time>
					</trkpt>
					<trkpt lat="49.161200" lon="2.387810">
						<ele>29</ele>
						<time>2025-02-03T01:43:44Z</time>
					</trkpt>
					<trkpt lat="49.161310" lon="2.387680">
						<ele>30</ele>
						<time>2025-02-03T01:43:47Z</time>
					</trkpt>
					<trkpt lat="49.161450" lon="2.387570">
						<ele>30</ele>
						<time>2025-02-03T01:43:49Z</time>
					</trkpt>
					<trkpt lat="49.161510" lon="2.387480">
						<ele>30</ele>
						<time>2025-02-03T01:43:51Z</time>
					</trkpt>
					<trkpt lat="49.161510" lon="2.387360">
						<ele>30</ele>
						<time>2025-02-03T01:43:52Z</time>
					</trkpt>
					<trkpt lat="49.161420" lon="2.387230">
						<ele>30</ele>
						<time>2025-02-03T01:43:55Z</time>
					</trkpt>
					<trkpt lat="49.161340" lon="2.387160">
						<ele>30</ele>
						<time>2025-02-03T01:43:56Z</time>
					</trkpt>
					<trkpt lat="49.160790" lon="2.386890">
						<ele>29</ele>
						<time>2025-02-03T01:44:06Z</time>
					</trkpt>
					<trkpt lat="49.160270" lon="2.386580">
						<ele>27</ele>
						<time>2025-02-03T01:44:16Z</time>
					</trkpt>
					<trkpt lat="49.158560" lon="2.385490">
						<ele>27</ele>
						<time>2025-02-03T01:44:49Z</time>
					</trkpt>
					<trkpt lat="49.155450" lon="2.383460">
						<ele>27</ele>
						<time>2025-02-03T01:45:50Z</time>
					</trkpt>
					<trkpt lat="49.154480" lon="2.382860">
						<ele>25</ele>
						<time>2025-02-03T01:46:08Z</time>
					</trkpt>
					<trkpt lat="49.149590" lon="2.379650">
						<ele>33</ele>
						<time>2025-02-03T01:47:43Z</time>
					</trkpt>
					<trkpt lat="49.149480" lon="2.379560">
						<ele>32</ele>
						<time>2025-02-03T01:47:45Z</time>
					</trkpt>
					<trkpt lat="49.146750" lon="2.376770">
						<ele>34</ele>
						<time>2025-02-03T01:48:43Z</time>
					</trkpt>
					<trkpt lat="49.146340" lon="2.376400">
						<ele>31</ele>
						<time>2025-02-03T01:48:52Z</time>
					</trkpt>
					<trkpt lat="49.143250" lon="2.375250">
						<ele>36</ele>
						<time>2025-02-03T01:49:49Z</time>
					</trkpt>
					<trkpt lat="49.138330" lon="2.373470">
						<ele>51</ele>
						<time>2025-02-03T01:51:19Z</time>
					</trkpt>
					<trkpt lat="49.137990" lon="2.373240">
						<ele>48</ele>
						<time>2025-02-03T01:51:25Z</time>
					</trkpt>
					<trkpt lat="49.137870" lon="2.373040">
						<ele>47</ele>
						<time>2025-02-03T01:51:28Z</time>
					</trkpt>
					<trkpt lat="49.137770" lon="2.372970">
						<ele>47</ele>
						<time>2025-02-03T01:51:30Z</time>
					</trkpt>
					<trkpt lat="49.137480" lon="2.373090">
						<ele>45</ele>
						<time>2025-02-03T01:51:36Z</time>
					</trkpt>
					<trkpt lat="49.137060" lon="2.373020">
						<ele>45</ele>
						<time>2025-02-03T01:51:43Z</time>
					</trkpt>
					<trkpt lat="49.136110" lon="2.372690">
						<ele>46</ele>
						<time>2025-02-03T01:52:00Z</time>
					</trkpt>
					<trkpt lat="49.130430" lon="2.370610">
						<ele>49</ele>
						<time>2025-02-03T01:53:44Z</time>
					</trkpt>
					<trkpt lat="49.130040" lon="2.370430">
						<ele>50</ele>
						<time>2025-02-03T01:53:52Z</time>
					</trkpt>
					<trkpt lat="49.129980" lon="2.370350">
						<ele>51</ele>
						<time>2025-02-03T01:53:53Z</time>
					</trkpt>
					<trkpt lat="49.129950" lon="2.370240">
						<ele>51</ele>
						<time>2025-02-03T01:53:54Z</time>
					</trkpt>
					<trkpt lat="49.129900" lon="2.370230">
						<ele>51</ele>
						<time>2025-02-03T01:53:55Z</time>
					</trkpt>
					<trkpt lat="49.129850" lon="2.370280">
						<ele>51</ele>
						<time>2025-02-03T01:53:56Z</time>
					</trkpt>
					<trkpt lat="49.129560" lon="2.370340">
						<ele>51</ele>
						<time>2025-02-03T01:54:02Z</time>
					</trkpt>
					<trkpt lat="49.129140" lon="2.370350">
						<ele>52</ele>
						<time>2025-02-03T01:54:09Z</time>
					</trkpt>
					<trkpt lat="49.128600" lon="2.370310">
						<ele>52</ele>
						<time>2025-02-03T01:54:19Z</time>
					</trkpt>
					<trkpt lat="49.128170" lon="2.370250">
						<ele>52</ele>
						<time>2025-02-03T01:54:26Z</time>
					</trkpt>
					<trkpt lat="49.127490" lon="2.370260">
						<ele>53</ele>
						<time>2025-02-03T01:54:38Z</time>
					</trkpt>
					<trkpt lat="49.127150" lon="2.370230">
						<ele>54</ele>
						<time>2025-02-03T01:54:45Z</time>
					</trkpt>
					<trkpt lat="49.125980" lon="2.369860">
						<ele>56</ele>
						<time>2025-02-03T01:55:06Z</time>
					</trkpt>
					<trkpt lat="49.125460" lon="2.369850">
						<ele>57</ele>
						<time>2025-02-03T01:55:15Z</time>
					</trkpt>
					<trkpt lat="49.124990" lon="2.369580">
						<ele>57</ele>
						<time>2025-02-03T01:55:24Z</time>
					</trkpt>
					<trkpt lat="49.124920" lon="2.369490">
						<ele>57</ele>
						<time>2025-02-03T01:55:26Z</time>
					</trkpt>
					<trkpt lat="49.124600" lon="2.368810">
						<ele>57</ele>
						<time>2025-02-03T01:55:35Z</time>
					</trkpt>
					<trkpt lat="49.124480" lon="2.368470">
						<ele>58</ele>
						<time>2025-02-03T01:55:40Z</time>
					</trkpt>
					<trkpt lat="49.124420" lon="2.368220">
						<ele>58</ele>
						<time>2025-02-03T01:55:43Z</time>
					</trkpt>
					<trkpt lat="49.124450" lon="2.368180">
						<ele>58</ele>
						<time>2025-02-03T01:55:44Z</time>
					</trkpt>
					<trkpt lat="49.124460" lon="2.368070">
						<ele>58</ele>
						<time>2025-02-03T01:55:45Z</time>
					</trkpt>
					<trkpt lat="49.124440" lon="2.368020">
						<ele>58</ele>
						<time>2025-02-03T01:55:46Z</time>
					</trkpt>
					<trkpt lat="49.124360" lon="2.367970">
						<ele>58</ele>
						<time>2025-02-03T01:55:47Z</time>
					</trkpt>
					<trkpt lat="49.124290" lon="2.368070">
						<ele>58</ele>
						<time>2025-02-03T01:55:49Z</time>
					</trkpt>
					<trkpt lat="49.123930" lon="2.367740">
						<ele>58</ele>
						<time>2025-02-03T01:55:56Z</time>
					</trkpt>
					<trkpt lat="49.123700" lon="2.367620">
						<ele>59</ele>
						<time>2025-02-03T01:56:01Z</time>
					</trkpt>
					<trkpt lat="49.123590" lon="2.367580">
						<ele>59</ele>
						<time>2025-02-03T01:56:03Z</time>
					</trkpt>
					<trkpt lat="49.123440" lon="2.367570">
						<ele>60</ele>
						<time>2025-02-03T01:56:05Z</time>
					</trkpt>
					<trkpt lat="49.120990" lon="2.367980">
						<ele>74</ele>
						<time>2025-02-03T01:56:49Z</time>
					</trkpt>
					<trkpt lat="49.120760" lon="2.367990">
						<ele>76</ele>
						<time>2025-02-03T01:56:53Z</time>
					</trkpt>
					<trkpt lat="49.120560" lon="2.367970">
						<ele>77</ele>
						<time>2025-02-03T01:56:57Z</time>
					</trkpt>
					<trkpt lat="49.119200" lon="2.367400">
						<ele>85</ele>
						<time>2025-02-03T01:57:22Z</time>
					</trkpt>
					<trkpt lat="49.119010" lon="2.367340">
						<ele>86</ele>
						<time>2025-02-03T01:57:25Z</time>
					</trkpt>
					<trkpt lat="49.118460" lon="2.367230">
						<ele>90</ele>
						<time>2025-02-03T01:57:35Z</time>
					</trkpt>
					<trkpt lat="49.118250" lon="2.367160">
						<ele>91</ele>
						<time>2025-02-03T01:57:39Z</time>
					</trkpt>
					<trkpt lat="49.117610" lon="2.366610">
						<ele>94</ele>
						<time>2025-02-03T01:57:52Z</time>
					</trkpt>
					<trkpt lat="49.117130" lon="2.366310">
						<ele>101</ele>
						<time>2025-02-03T01:58:01Z</time>
					</trkpt>
					<trkpt lat="49.115650" lon="2.365470">
						<ele>113</ele>
						<time>2025-02-03T01:58:29Z</time>
					</trkpt>
					<trkpt lat="49.115430" lon="2.365270">
						<ele>114</ele>
						<time>2025-02-03T01:58:34Z</time>
					</trkpt>
					<trkpt lat="49.115140" lon="2.365240">
						<ele>115</ele>
						<time>2025-02-03T01:58:39Z</time>
					</trkpt>
					<trkpt lat="49.114900" lon="2.365280">
						<ele>116</ele>
						<time>2025-02-03T01:58:44Z</time>
					</trkpt>
					<trkpt lat="49.114430" lon="2.365440">
						<ele>121</ele>
						<time>2025-02-03T01:58:52Z</time>
					</trkpt>
					<trkpt lat="49.114130" lon="2.365510">
						<ele>124</ele>
						<time>2025-02-03T01:58:57Z</time>
					</trkpt>
					<trkpt lat="49.114000" lon="2.365530">
						<ele>124</ele>
						<time>2025-02-03T01:59:00Z</time>
					</trkpt>
					<trkpt lat="49.113760" lon="2.365510">
						<ele>125</ele>
						<time>2025-02-03T01:59:04Z</time>
					</trkpt>
					<trkpt lat="49.113430" lon="2.365440">
						<ele>125</ele>
						<time>2025-02-03T01:59:10Z</time>
					</trkpt>
					<trkpt lat="49.112060" lon="2.364970">
						<ele>127</ele>
						<time>2025-02-03T01:59:35Z</time>
					</trkpt>
					<trkpt lat="49.111670" lon="2.364880">
						<ele>130</ele>
						<time>2025-02-03T01:59:42Z</time>
					</trkpt>
					<trkpt lat="49.111370" lon="2.365020">
						<ele>132</ele>
						<time>2025-02-03T01:59:48Z</time>
					</trkpt>
					<trkpt lat="49.111200" lon="2.365190">
						<ele>133</ele>
						<time>2025-02-03T01:59:51Z</time>
					</trkpt>
					<trkpt lat="49.111110" lon="2.365320">
						<ele>133</ele>
						<time>2025-02-03T01:59:53Z</time>
					</trkpt>
					<trkpt lat="49.110670" lon="2.366200">
						<ele>137</ele>
						<time>2025-02-03T02:00:06Z</time>
					</trkpt>
					<trkpt lat="49.110500" lon="2.366460">
						<ele>138</ele>
						<time>2025-02-03T02:00:11Z</time>
					</trkpt>
					<trkpt lat="49.110150" lon="2.366810">
						<ele>139</ele>
						<time>2025-02-03T02:00:18Z</time>
					</trkpt>
					<trkpt lat="49.109770" lon="2.367040">
						<ele>140</ele>
						<time>2025-02-03T02:00:25Z</time>
					</trkpt>
					<trkpt lat="49.109650" lon="2.367080">
						<ele>140</ele>
						<time>2025-02-03T02:00:27Z</time>
					</trkpt>
					<trkpt lat="49.109210" lon="2.367140">
						<ele>141</ele>
						<time>2025-02-03T02:00:35Z</time>
					</trkpt>
					<trkpt lat="49.108830" lon="2.367150">
						<ele>142</ele>
						<time>2025-02-03T02:00:42Z</time>
					</trkpt>
					<trkpt lat="49.108770" lon="2.367110">
						<ele>142</ele>
						<time>2025-02-03T02:00:43Z</time>
					</trkpt>
					<trkpt lat="49.108380" lon="2.367140">
						<ele>143</ele>
						<time>2025-02-03T02:00:50Z</time>
					</trkpt>
					<trkpt lat="49.108350" lon="2.367100">
						<ele>143</ele>
						<time>2025-02-03T02:00:51Z</time>
					</trkpt>
					<trkpt lat="49.108280" lon="2.367070">
						<ele>144</ele>
						<time>2025-02-03T02:00:52Z</time>
					</trkpt>
					<trkpt lat="49.108210" lon="2.367110">
						<ele>144</ele>
						<time>2025-02-03T02:00:54Z</time>
					</trkpt>
					<trkpt lat="49.108170" lon="2.367210">
						<ele>144</ele>
						<time>2025-02-03T02:00:55Z</time>
					</trkpt>
					<trkpt lat="49.107630" lon="2.366930">
						<ele>145</ele>
						<time>2025-02-03T02:01:05Z</time>
					</trkpt>
					<trkpt lat="49.105940" lon="2.366150">
						<ele>146</ele>
						<time>2025-02-03T02:01:36Z</time>
					</trkpt>
					<trkpt lat="49.105660" lon="2.366090">
						<ele>147</ele>
						<time>2025-02-03T02:01:42Z</time>
					</trkpt>
					<trkpt lat="49.105440" lon="2.366140">
						<ele>147</ele>
						<time>2025-02-03T02:01:45Z</time>
					</trkpt>
					<trkpt lat="49.105340" lon="2.366140">
						<ele>147</ele>
						<time>2025-02-03T02:01:47Z</time>
					</trkpt>
					<trkpt lat="49.105170" lon="2.365970">
						<ele>147</ele>
						<time>2025-02-03T02:01:51Z</time>
					</trkpt>
					<trkpt lat="49.105100" lon="2.365950">
						<ele>148</ele>
						<time>2025-02-03T02:01:52Z</time>
					</trkpt>
					<trkpt lat="49.104820" lon="2.366040">
						<ele>148</ele>
						<time>2025-02-03T02:01:57Z</time>
					</trkpt>
					<trkpt lat="49.104720" lon="2.365990">
						<ele>148</ele>
						<time>2025-02-03T02:01:59Z</time>
					</trkpt>
					<trkpt lat="49.103800" lon="2.365260">
						<ele>148</ele>
						<time>2025-02-03T02:02:18Z</time>
					</trkpt>
					<trkpt lat="49.102880" lon="2.364700">
						<ele>146</ele>
						<time>2025-02-03T02:02:35Z</time>
					</trkpt>
					<trkpt lat="49.101340" lon="2.363980">
						<ele>143</ele>
						<time>2025-02-03T02:03:04Z</time>
					</trkpt>
					<trkpt lat="49.100440" lon="2.363590">
						<ele>141</ele>
						<time>2025-02-03T02:03:20Z</time>
					</trkpt>
					<trkpt lat="49.100200" lon="2.363520">
						<ele>141</ele>
						<time>2025-02-03T02:03:25Z</time>
					</trkpt>
					<trkpt lat="49.098110" lon="2.362560">
						<ele>139</ele>
						<time>2025-02-03T02:04:04Z</time>
					</trkpt>
					<trkpt lat="49.097870" lon="2.362410">
						<ele>138</ele>
						<time>2025-02-03T02:04:08Z</time>
					</trkpt>
					<trkpt lat="49.097340" lon="2.362210">
						<ele>137</ele>
						<time>2025-02-03T02:04:18Z</time>
					</trkpt>
					<trkpt lat="49.095610" lon="2.361410">
						<ele>135</ele>
						<time>2025-02-03T02:04:50Z</time>
					</trkpt>
					<trkpt lat="49.095240" lon="2.361170">
						<ele>134</ele>
						<time>2025-02-03T02:04:57Z</time>
					</trkpt>
					<trkpt lat="49.094420" lon="2.360810">
						<ele>132</ele>
						<time>2025-02-03T02:05:12Z</time>
					</trkpt>
					<trkpt lat="49.094240" lon="2.360650">
						<ele>132</ele>
						<time>2025-02-03T02:05:16Z</time>
					</trkpt>
					<trkpt lat="49.094120" lon="2.360450">
						<ele>132</ele>
						<time>2025-02-03T02:05:19Z</time>
					</trkpt>
					<trkpt lat="49.094070" lon="2.360410">
						<ele>132</ele>
						<time>2025-02-03T02:05:20Z</time>
					</trkpt>
					<trkpt lat="49.093950" lon="2.360400">
						<ele>131</ele>
						<time>2025-02-03T02:05:22Z</time>
					</trkpt>
					<trkpt lat="49.093900" lon="2.360450">
						<ele>131</ele>
						<time>2025-02-03T02:05:24Z</time>
					</trkpt>
					<trkpt lat="49.093750" lon="2.360470">
						<ele>130</ele>
						<time>2025-02-03T02:05:26Z</time>
					</trkpt>
					<trkpt lat="49.093150" lon="2.360290">
						<ele>129</ele>
						<time>2025-02-03T02:05:37Z</time>
					</trkpt>
					<trkpt lat="49.090850" lon="2.359250">
						<ele>125</ele>
						<time>2025-02-03T02:06:20Z</time>
					</trkpt>
					<trkpt lat="49.089910" lon="2.358750">
						<ele>124</ele>
						<time>2025-02-03T02:06:37Z</time>
					</trkpt>
					<trkpt lat="49.089220" lon="2.358440">
						<ele>124</ele>
						<time>2025-02-03T02:06:50Z</time>
					</trkpt>
					<trkpt lat="49.088310" lon="2.358100">
						<ele>121</ele>
						<time>2025-02-03T02:07:07Z</time>
					</trkpt>
					<trkpt lat="49.086150" lon="2.357110">
						<ele>115</ele>
						<time>2025-02-03T02:07:47Z</time>
					</trkpt>
					<trkpt lat="49.085380" lon="2.356730">
						<ele>112</ele>
						<time>2025-02-03T02:08:01Z</time>
					</trkpt>
					<trkpt lat="49.084810" lon="2.356500">
						<ele>111</ele>
						<time>2025-02-03T02:08:12Z</time>
					</trkpt>
					<trkpt lat="49.081970" lon="2.355200">
						<ele>123</ele>
						<time>2025-02-03T02:09:05Z</time>
					</trkpt>
					<trkpt lat="49.081570" lon="2.354940">
						<ele>123</ele>
						<time>2025-02-03T02:09:12Z</time>
					</trkpt>
					<trkpt lat="49.081250" lon="2.354620">
						<ele>123</ele>
						<time>2025-02-03T02:09:19Z</time>
					</trkpt>
					<trkpt lat="49.079710" lon="2.352760">
						<ele>121</ele>
						<time>2025-02-03T02:09:54Z</time>
					</trkpt>
					<trkpt lat="49.079470" lon="2.352390">
						<ele>121</ele>
						<time>2025-02-03T02:10:00Z</time>
					</trkpt>
					<trkpt lat="49.079440" lon="2.352140">
						<ele>121</ele>
						<time>2025-02-03T02:10:03Z</time>
					</trkpt>
					<trkpt lat="49.079390" lon="2.352030">
						<ele>120</ele>
						<time>2025-02-03T02:10:05Z</time>
					</trkpt>
					<trkpt lat="49.079100" lon="2.351900">
						<ele>120</ele>
						<time>2025-02-03T02:10:10Z</time>
					</trkpt>
					<trkpt lat="49.078770" lon="2.351630">
						<ele>121</ele>
						<time>2025-02-03T02:10:17Z</time>
					</trkpt>
					<trkpt lat="49.074000" lon="2.345860">
						<ele>119</ele>
						<time>2025-02-03T02:12:05Z</time>
					</trkpt>
					<trkpt lat="49.073810" lon="2.345550">
						<ele>119</ele>
						<time>2025-02-03T02:12:10Z</time>
					</trkpt>
					<trkpt lat="49.073700" lon="2.345240">
						<ele>120</ele>
						<time>2025-02-03T02:12:14Z</time>
					</trkpt>
					<trkpt lat="49.073640" lon="2.345130">
						<ele>120</ele>
						<time>2025-02-03T02:12:16Z</time>
					</trkpt>
					<trkpt lat="49.073590" lon="2.345100">
						<ele>120</ele>
						<time>2025-02-03T02:12:17Z</time>
					</trkpt>
					<trkpt lat="49.073520" lon="2.345090">
						<ele>121</ele>
						<time>2025-02-03T02:12:18Z</time>
					</trkpt>
					<trkpt lat="49.073450" lon="2.345140">
						<ele>121</ele>
						<time>2025-02-03T02:12:19Z</time>
					</trkpt>
					<trkpt lat="49.073400" lon="2.345260">
						<ele>120</ele>
						<time>2025-02-03T02:12:21Z</time>
					</trkpt>
					<trkpt lat="49.073440" lon="2.345770">
						<ele>119</ele>
						<time>2025-02-03T02:12:27Z</time>
					</trkpt>
					<trkpt lat="49.073380" lon="2.345870">
						<ele>119</ele>
						<time>2025-02-03T02:12:29Z</time>
					</trkpt>
					<trkpt lat="49.071790" lon="2.347610">
						<ele>116</ele>
						<time>2025-02-03T02:13:03Z</time>
					</trkpt>
					<trkpt lat="49.071700" lon="2.347680">
						<ele>116</ele>
						<time>2025-02-03T02:13:05Z</time>
					</trkpt>
					<trkpt lat="49.066980" lon="2.350370">
						<ele>113</ele>
						<time>2025-02-03T02:14:35Z</time>
					</trkpt>
					<trkpt lat="49.064740" lon="2.350140">
						<ele>110</ele>
						<time>2025-02-03T02:15:15Z</time>
					</trkpt>
					<trkpt lat="49.064360" lon="2.350070">
						<ele>109</ele>
						<time>2025-02-03T02:15:22Z</time>
					</trkpt>
					<trkpt lat="49.063940" lon="2.349970">
						<ele>108</ele>
						<time>2025-02-03T02:15:29Z</time>
					</trkpt>
					<trkpt lat="49.063330" lon="2.349760">
						<ele>106</ele>
						<time>2025-02-03T02:15:40Z</time>
					</trkpt>
					<trkpt lat="49.062440" lon="2.349390">
						<ele>105</ele>
						<time>2025-02-03T02:15:57Z</time>
					</trkpt>
					<trkpt lat="49.062200" lon="2.349330">
						<ele>106</ele>
						<time>2025-02-03T02:16:01Z</time>
					</trkpt>
					<trkpt lat="49.061880" lon="2.349340">
						<ele>107</ele>
						<time>2025-02-03T02:16:07Z</time>
					</trkpt>
					<trkpt lat="49.061570" lon="2.349400">
						<ele>108</ele>
						<time>2025-02-03T02:16:12Z</time>
					</trkpt>
					<trkpt lat="49.061200" lon="2.349520">
						<ele>109</ele>
						<time>2025-02-03T02:16:19Z</time>
					</trkpt>
					<trkpt lat="49.060750" lon="2.349590">
						<ele>110</ele>
						<time>2025-02-03T02:16:27Z</time>
					</trkpt>
					<trkpt lat="49.060630" lon="2.349670">
						<ele>110</ele>
						<time>2025-02-03T02:16:29Z</time>
					</trkpt>
					<trkpt lat="49.060530" lon="2.349800">
						<ele>110</ele>
						<time>2025-02-03T02:16:32Z</time>
					</trkpt>
					<trkpt lat="49.060320" lon="2.349940">
						<ele>110</ele>
						<time>2025-02-03T02:16:36Z</time>
					</trkpt>
					<trkpt lat="49.060200" lon="2.349980">
						<ele>109</ele>
						<time>2025-02-03T02:16:38Z</time>
					</trkpt>
					<trkpt lat="49.060040" lon="2.349940">
						<ele>109</ele>
						<time>2025-02-03T02:16:41Z</time>
					</trkpt>
					<trkpt lat="49.059080" lon="2.349550">
						<ele>108</ele>
						<time>2025-02-03T02:16:59Z</time>
					</trkpt>
					<trkpt lat="49.058280" lon="2.349300">
						<ele>108</ele>
						<time>2025-02-03T02:17:13Z</time>
					</trkpt>
					<trkpt lat="49.058240" lon="2.348100">
						<ele>108</ele>
						<time>2025-02-03T02:17:27Z</time>
					</trkpt>
					<trkpt lat="49.058180" lon="2.347670">
						<ele>108</ele>
						<time>2025-02-03T02:17:32Z</time>
					</trkpt>
					<trkpt lat="49.058020" lon="2.346940">
						<ele>104</ele>
						<time>2025-02-03T02:17:41Z</time>
					</trkpt>
					<trkpt lat="49.057880" lon="2.345680">
						<ele>97</ele>
						<time>2025-02-03T02:17:56Z</time>
					</trkpt>
					<trkpt lat="49.057890" lon="2.345460">
						<ele>96</ele>
						<time>2025-02-03T02:17:59Z</time>
					</trkpt>
					<trkpt lat="49.057560" lon="2.345410">
						<ele>96</ele>
						<time>2025-02-03T02:18:05Z</time>
					</trkpt>
					<trkpt lat="49.056880" lon="2.345010">
						<ele>97</ele>
						<time>2025-02-03T02:18:18Z</time>
					</trkpt>
					<trkpt lat="49.056790" lon="2.344850">
						<ele>96</ele>
						<time>2025-02-03T02:18:20Z</time>
					</trkpt>
					<trkpt lat="49.056410" lon="2.343300">
						<ele>97</ele>
						<time>2025-02-03T02:18:39Z</time>
					</trkpt>
					<trkpt lat="49.056280" lon="2.343070">
						<ele>97</ele>
						<time>2025-02-03T02:18:43Z</time>
					</trkpt>
					<trkpt lat="49.055450" lon="2.342560">
						<ele>98</ele>
						<time>2025-02-03T02:18:59Z</time>
					</trkpt>
					<trkpt lat="49.054930" lon="2.342160">
						<ele>97</ele>
						<time>2025-02-03T02:19:09Z</time>
					</trkpt>
					<trkpt lat="49.051840" lon="2.339160">
						<ele>99</ele>
						<time>2025-02-03T02:20:14Z</time>
					</trkpt>
					<trkpt lat="49.051590" lon="2.338860">
						<ele>99</ele>
						<time>2025-02-03T02:20:20Z</time>
					</trkpt>
					<trkpt lat="49.051000" lon="2.337800">
						<ele>98</ele>
						<time>2025-02-03T02:20:36Z</time>
					</trkpt>
					<trkpt lat="49.050530" lon="2.336860">
						<ele>97</ele>
						<time>2025-02-03T02:20:50Z</time>
					</trkpt>
					<trkpt lat="49.050270" lon="2.335650">
						<ele>95</ele>
						<time>2025-02-03T02:21:05Z</time>
					</trkpt>
					<trkpt lat="49.050210" lon="2.335510">
						<ele>94</ele>
						<time>2025-02-03T02:21:07Z</time>
					</trkpt>
					<trkpt lat="49.050000" lon="2.335170">
						<ele>92</ele>
						<time>2025-02-03T02:21:12Z</time>
					</trkpt>
					<trkpt lat="49.049560" lon="2.334570">
						<ele>88</ele>
						<time>2025-02-03T02:21:23Z</time>
					</trkpt>
					<trkpt lat="49.049310" lon="2.334270">
						<ele>87</ele>
						<time>2025-02-03T02:21:28Z</time>
					</trkpt>
					<trkpt lat="49.049260" lon="2.334240">
						<ele>86</ele>
						<time>2025-02-03T02:21:29Z</time>
					</trkpt>
					<trkpt lat="49.048840" lon="2.333780">
						<ele>86</ele>
						<time>2025-02-03T02:21:39Z</time>
					</trkpt>
					<trkpt lat="49.048610" lon="2.333350">
						<ele>85</ele>
						<time>2025-02-03T02:21:45Z</time>
					</trkpt>
					<trkpt lat="49.048640" lon="2.333240">
						<ele>85</ele>
						<time>2025-02-03T02:21:46Z</time>
					</trkpt>
					<trkpt lat="49.048610" lon="2.333120">
						<ele>85</ele>
						<time>2025-02-03T02:21:48Z</time>
					</trkpt>
					<trkpt lat="49.048550" lon="2.333080">
						<ele>85</ele>
						<time>2025-02-03T02:21:49Z</time>
					</trkpt>
					<trkpt lat="49.048460" lon="2.333120">
						<ele>85</ele>
						<time>2025-02-03T02:21:51Z</time>
					</trkpt>
					<trkpt lat="49.048300" lon="2.333110">
						<ele>85</ele>
						<time>2025-02-03T02:21:54Z</time>
					</trkpt>
					<trkpt lat="49.047660" lon="2.332140">
						<ele>88</ele>
						<time>2025-02-03T02:22:10Z</time>
					</trkpt>
					<trkpt lat="49.047530" lon="2.331870">
						<ele>88</ele>
						<time>2025-02-03T02:22:14Z</time>
					</trkpt>
					<trkpt lat="49.047480" lon="2.331670">
						<ele>88</ele>
						<time>2025-02-03T02:22:16Z</time>
					</trkpt>
					<trkpt lat="49.047430" lon="2.331630">
						<ele>88</ele>
						<time>2025-02-03T02:22:17Z</time>
					</trkpt>
					<trkpt lat="49.047450" lon="2.331540">
						<ele>88</ele>
						<time>2025-02-03T02:22:18Z</time>
					</trkpt>
					<trkpt lat="49.047350" lon="2.331520">
						<ele>89</ele>
						<time>2025-02-03T02:22:20Z</time>
					</trkpt>
					<trkpt lat="49.047100" lon="2.331210">
						<ele>90</ele>
						<time>2025-02-03T02:22:26Z</time>
					</trkpt>
					<trkpt lat="49.046630" lon="2.330550">
						<ele>91</ele>
						<time>2025-02-03T02:22:37Z</time>
					</trkpt>
					<trkpt lat="49.046200" lon="2.329620">
						<ele>92</ele>
						<time>2025-02-03T02:22:50Z</time>
					</trkpt>
					<trkpt lat="49.045810" lon="2.328880">
						<ele>92</ele>
						<time>2025-02-03T02:23:01Z</time>
					</trkpt>
					<trkpt lat="49.045260" lon="2.327410">
						<ele>94</ele>
						<time>2025-02-03T02:23:21Z</time>
					</trkpt>
					<trkpt lat="49.044270" lon="2.324270">
						<ele>97</ele>
						<time>2025-02-03T02:24:02Z</time>
					</trkpt>
					<trkpt lat="49.044020" lon="2.323780">
						<ele>99</ele>
						<time>2025-02-03T02:24:09Z</time>
					</trkpt>
					<trkpt lat="49.043780" lon="2.323220">
						<ele>100</ele>
						<time>2025-02-03T02:24:17Z</time>
					</trkpt>
					<trkpt lat="49.043380" lon="2.322030">
						<ele>100</ele>
						<time>2025-02-03T02:24:32Z</time>
					</trkpt>
					<trkpt lat="49.043110" lon="2.321380">
						<ele>101</ele>
						<time>2025-02-03T02:24:41Z</time>
					</trkpt>
					<trkpt lat="49.042790" lon="2.320920">
						<ele>101</ele>
						<time>2025-02-03T02:24:49Z</time>
					</trkpt>
					<trkpt lat="49.042760" lon="2.320820">
						<ele>101</ele>
						<time>2025-02-03T02:24:51Z</time>
					</trkpt>
					<trkpt lat="49.042320" lon="2.320260">
						<ele>103</ele>
						<time>2025-02-03T02:25:01Z</time>
					</trkpt>
					<trkpt lat="49.042320" lon="2.320140">
						<ele>103</ele>
						<time>2025-02-03T02:25:02Z</time>
					</trkpt>
					<trkpt lat="49.042370" lon="2.320050">
						<ele>104</ele>
						<time>2025-02-03T02:25:03Z</time>
					</trkpt>
					<trkpt lat="49.042360" lon="2.319840">
						<ele>104</ele>
						<time>2025-02-03T02:25:06Z</time>
					</trkpt>
					<trkpt lat="49.042210" lon="2.319750">
						<ele>104</ele>
						<time>2025-02-03T02:25:09Z</time>
					</trkpt>
					<trkpt lat="49.042050" lon="2.319850">
						<ele>104</ele>
						<time>2025-02-03T02:25:12Z</time>
					</trkpt>
					<trkpt lat="49.041910" lon="2.319820">
						<ele>104</ele>
						<time>2025-02-03T02:25:14Z</time>
					</trkpt>
					<trkpt lat="49.041480" lon="2.319320">
						<ele>105</ele>
						<time>2025-02-03T02:25:24Z</time>
					</trkpt>
					<trkpt lat="49.041230" lon="2.318860">
						<ele>106</ele>
						<time>2025-02-03T02:25:31Z</time>
					</trkpt>
					<trkpt lat="49.041070" lon="2.318450">
						<ele>106</ele>
						<time>2025-02-03T02:25:37Z</time>
					</trkpt>
					<trkpt lat="49.040750" lon="2.317390">
						<ele>109</ele>
						<time>2025-02-03T02:25:50Z</time>
					</trkpt>
					<trkpt lat="49.040650" lon="2.317160">
						<ele>109</ele>
						<time>2025-02-03T02:25:53Z</time>
					</trkpt>
					<trkpt lat="49.040160" lon="2.316350">
						<ele>109</ele>
						<time>2025-02-03T02:26:06Z</time>
					</trkpt>
					<trkpt lat="49.038870" lon="2.314360">
						<ele>109</ele>
						<time>2025-02-03T02:26:39Z</time>
					</trkpt>
					<trkpt lat="49.038810" lon="2.314320">
						<ele>109</ele>
						<time>2025-02-03T02:26:40Z</time>
					</trkpt>
					<trkpt lat="49.037540" lon="2.312320">
						<ele>113</ele>
						<time>2025-02-03T02:27:13Z</time>
					</trkpt>
					<trkpt lat="49.037150" lon="2.312060">
						<ele>115</ele>
						<time>2025-02-03T02:27:20Z</time>
					</trkpt>
					<trkpt lat="49.036890" lon="2.311960">
						<ele>116</ele>
						<time>2025-02-03T02:27:25Z</time>
					</trkpt>
					<trkpt lat="49.033670" lon="2.310930">
						<ele>131</ele>
						<time>2025-02-03T02:28:23Z</time>
					</trkpt>
					<trkpt lat="49.033090" lon="2.310580">
						<ele>138</ele>
						<time>2025-02-03T02:28:35Z</time>
					</trkpt>
					<trkpt lat="49.032710" lon="2.310200">
						<ele>143</ele>
						<time>2025-02-03T02:28:43Z</time>
					</trkpt>
					<trkpt lat="49.032450" lon="2.309900">
						<ele>146</ele>
						<time>2025-02-03T02:28:48Z</time>
					</trkpt>
					<trkpt lat="49.031520" lon="2.308470">
						<ele>153</ele>
						<time>2025-02-03T02:29:12Z</time>
					</trkpt>
					<trkpt lat="49.031200" lon="2.308220">
						<ele>154</ele>
						<time>2025-02-03T02:29:18Z</time>
					</trkpt>
					<trkpt lat="49.031070" lon="2.308170">
						<ele>155</ele>
						<time>2025-02-03T02:29:21Z</time>
					</trkpt>
					<trkpt lat="49.030870" lon="2.308160">
						<ele>155</ele>
						<time>2025-02-03T02:29:24Z</time>
					</trkpt>
					<trkpt lat="49.030680" lon="2.308190">
						<ele>156</ele>
						<time>2025-02-03T02:29:28Z</time>
					</trkpt>
					<trkpt lat="49.030530" lon="2.308270">
						<ele>156</ele>
						<time>2025-02-03T02:29:30Z</time>
					</trkpt>
					<trkpt lat="49.029580" lon="2.309300">
						<ele>159</ele>
						<time>2025-02-03T02:29:51Z</time>
					</trkpt>
					<trkpt lat="49.029170" lon="2.309830">
						<ele>158</ele>
						<time>2025-02-03T02:30:01Z</time>
					</trkpt>
					<trkpt lat="49.028640" lon="2.310300">
						<ele>158</ele>
						<time>2025-02-03T02:30:12Z</time>
					</trkpt>
					<trkpt lat="49.028480" lon="2.310550">
						<ele>157</ele>
						<time>2025-02-03T02:30:16Z</time>
					</trkpt>
					<trkpt lat="49.028200" lon="2.311230">
						<ele>156</ele>
						<time>2025-02-03T02:30:25Z</time>
					</trkpt>
					<trkpt lat="49.028100" lon="2.311420">
						<ele>156</ele>
						<time>2025-02-03T02:30:28Z</time>
					</trkpt>
					<trkpt lat="49.027870" lon="2.311710">
						<ele>154</ele>
						<time>2025-02-03T02:30:33Z</time>
					</trkpt>
					<trkpt lat="49.027730" lon="2.311820">
						<ele>154</ele>
						<time>2025-02-03T02:30:36Z</time>
					</trkpt>
					<trkpt lat="49.027520" lon="2.311940">
						<ele>154</ele>
						<time>2025-02-03T02:30:40Z</time>
					</trkpt>
					<trkpt lat="49.027380" lon="2.311980">
						<ele>153</ele>
						<time>2025-02-03T02:30:43Z</time>
					</trkpt>
					<trkpt lat="49.027140" lon="2.312000">
						<ele>153</ele>
						<time>2025-02-03T02:30:47Z</time>
					</trkpt>
					<trkpt lat="49.026860" lon="2.311950">
						<ele>152</ele>
						<time>2025-02-03T02:30:52Z</time>
					</trkpt>
					<trkpt lat="49.026610" lon="2.311860">
						<ele>151</ele>
						<time>2025-02-03T02:30:56Z</time>
					</trkpt>
					<trkpt lat="49.026330" lon="2.311540">
						<ele>149</ele>
						<time>2025-02-03T02:31:03Z</time>
					</trkpt>
					<trkpt lat="49.026220" lon="2.311370">
						<ele>148</ele>
						<time>2025-02-03T02:31:05Z</time>
					</trkpt>
					<trkpt lat="49.026140" lon="2.311200">
						<ele>147</ele>
						<time>2025-02-03T02:31:08Z</time>
					</trkpt>
					<trkpt lat="49.025970" lon="2.310580">
						<ele>145</ele>
						<time>2025-02-03T02:31:16Z</time>
					</trkpt>
					<trkpt lat="49.025210" lon="2.303910">
						<ele>124</ele>
						<time>2025-02-03T02:32:35Z</time>
					</trkpt>
					<trkpt lat="49.025170" lon="2.303390">
						<ele>122</ele>
						<time>2025-02-03T02:32:41Z</time>
					</trkpt>
					<trkpt lat="49.025440" lon="2.299680">
						<ele>108</ele>
						<time>2025-02-03T02:33:24Z</time>
					</trkpt>
					<trkpt lat="49.025450" lon="2.299190">
						<ele>108</ele>
						<time>2025-02-03T02:33:30Z</time>
					</trkpt>
					<trkpt lat="49.025430" lon="2.298770">
						<ele>108</ele>
						<time>2025-02-03T02:33:35Z</time>
					</trkpt>
					<trkpt lat="49.025300" lon="2.298190">
						<ele>107</ele>
						<time>2025-02-03T02:33:42Z</time>
					</trkpt>
					<trkpt lat="49.025210" lon="2.297880">
						<ele>105</ele>
						<time>2025-02-03T02:33:46Z</time>
					</trkpt>
					<trkpt lat="49.025060" lon="2.297490">
						<ele>104</ele>
						<time>2025-02-03T02:33:51Z</time>
					</trkpt>
					<trkpt lat="49.024970" lon="2.297310">
						<ele>103</ele>
						<time>2025-02-03T02:33:54Z</time>
					</trkpt>
					<trkpt lat="49.024600" lon="2.296720">
						<ele>102</ele>
						<time>2025-02-03T02:34:04Z</time>
					</trkpt>
					<trkpt lat="49.024380" lon="2.296490">
						<ele>102</ele>
						<time>2025-02-03T02:34:08Z</time>
					</trkpt>
					<trkpt lat="49.023250" lon="2.295520">
						<ele>103</ele>
						<time>2025-02-03T02:34:31Z</time>
					</trkpt>
					<trkpt lat="49.023150" lon="2.295450">
						<ele>103</ele>
						<time>2025-02-03T02:34:33Z</time>
					</trkpt>
					<trkpt lat="49.023110" lon="2.295470">
						<ele>103</ele>
						<time>2025-02-03T02:34:34Z</time>
					</trkpt>
					<trkpt lat="49.022620" lon="2.295060">
						<ele>103</ele>
						<time>2025-02-03T02:34:44Z</time>
					</trkpt>
					<trkpt lat="49.021640" lon="2.294000">
						<ele>101</ele>
						<time>2025-02-03T02:35:05Z</time>
					</trkpt>
					<trkpt lat="49.021500" lon="2.293800">
						<ele>101</ele>
						<time>2025-02-03T02:35:09Z</time>
					</trkpt>
					<trkpt lat="49.021390" lon="2.293550">
						<ele>100</ele>
						<time>2025-02-03T02:35:12Z</time>
					</trkpt>
					<trkpt lat="49.021140" lon="2.292740">
						<ele>100</ele>
						<time>2025-02-03T02:35:23Z</time>
					</trkpt>
					<trkpt lat="49.021060" lon="2.292550">
						<ele>100</ele>
						<time>2025-02-03T02:35:25Z</time>
					</trkpt>
					<trkpt lat="49.020890" lon="2.292250">
						<ele>100</ele>
						<time>2025-02-03T02:35:30Z</time>
					</trkpt>
					<trkpt lat="49.020720" lon="2.292060">
						<ele>99</ele>
						<time>2025-02-03T02:35:34Z</time>
					</trkpt>
					<trkpt lat="49.020440" lon="2.291920">
						<ele>98</ele>
						<time>2025-02-03T02:35:39Z</time>
					</trkpt>
					<trkpt lat="49.019950" lon="2.291800">
						<ele>97</ele>
						<time>2025-02-03T02:35:48Z</time>
					</trkpt>
					<trkpt lat="49.019110" lon="2.291340">
						<ele>95</ele>
						<time>2025-02-03T02:36:04Z</time>
					</trkpt>
					<trkpt lat="49.018790" lon="2.291080">
						<ele>94</ele>
						<time>2025-02-03T02:36:10Z</time>
					</trkpt>
					<trkpt lat="49.018520" lon="2.290820">
						<ele>91</ele>
						<time>2025-02-03T02:36:16Z</time>
					</trkpt>
					<trkpt lat="49.018180" lon="2.290360">
						<ele>89</ele>
						<time>2025-02-03T02:36:24Z</time>
					</trkpt>
					<trkpt lat="49.017840" lon="2.289760">
						<ele>88</ele>
						<time>2025-02-03T02:36:33Z</time>
					</trkpt>
					<trkpt lat="49.017730" lon="2.289600">
						<ele>87</ele>
						<time>2025-02-03T02:36:36Z</time>
					</trkpt>
					<trkpt lat="49.017570" lon="2.289430">
						<ele>87</ele>
						<time>2025-02-03T02:36:39Z</time>
					</trkpt>
					<trkpt lat="49.017440" lon="2.289350">
						<ele>87</ele>
						<time>2025-02-03T02:36:42Z</time>
					</trkpt>
					<trkpt lat="49.016850" lon="2.289110">
						<ele>86</ele>
						<time>2025-02-03T02:36:53Z</time>
					</trkpt>
					<trkpt lat="49.016420" lon="2.288900">
						<ele>86</ele>
						<time>2025-02-03T02:37:01Z</time>
					</trkpt>
					<trkpt lat="49.015430" lon="2.288210">
						<ele>84</ele>
						<time>2025-02-03T02:37:20Z</time>
					</trkpt>
					<trkpt lat="49.015120" lon="2.287930">
						<ele>82</ele>
						<time>2025-02-03T02:37:27Z</time>
					</trkpt>
					<trkpt lat="49.014360" lon="2.286990">
						<ele>80</ele>
						<time>2025-02-03T02:37:44Z</time>
					</trkpt>
					<trkpt lat="49.014260" lon="2.286760">
						<ele>80</ele>
						<time>2025-02-03T02:37:47Z</time>
					</trkpt>
					<trkpt lat="49.014270" lon="2.286660">
						<ele>80</ele>
						<time>2025-02-03T02:37:48Z</time>
					</trkpt>
					<trkpt lat="49.014250" lon="2.286590">
						<ele>80</ele>
						<time>2025-02-03T02:37:49Z</time>
					</trkpt>
					<trkpt lat="49.014820" lon="2.285230">
						<ele>88</ele>
						<time>2025-02-03T02:38:08Z</time>
					</trkpt>
					<trkpt lat="49.014870" lon="2.285150">
						<ele>88</ele>
						<time>2025-02-03T02:38:09Z</time>
					</trkpt>
					<trkpt lat="49.015020" lon="2.285030">
						<ele>89</ele>
						<time>2025-02-03T02:38:12Z</time>
					</trkpt>
					<trkpt lat="49.014310" lon="2.284550">
						<ele>86</ele>
						<time>2025-02-03T02:38:26Z</time>
					</trkpt>
					<trkpt lat="49.014140" lon="2.284460">
						<ele>86</ele>
						<time>2025-02-03T02:38:29Z</time>
					</trkpt>
					<trkpt lat="49.013640" lon="2.284290">
						<ele>87</ele>
						<time>2025-02-03T02:38:39Z</time>
					</trkpt>
					<trkpt lat="49.012970" lon="2.283890">
						<ele>88</ele>
						<time>2025-02-03T02:38:51Z</time>
					</trkpt>
					<trkpt lat="49.012830" lon="2.283840">
						<ele>87</ele>
						<time>2025-02-03T02:38:54Z</time>
					</trkpt>
					<trkpt lat="49.012200" lon="2.283880">
						<ele>86</ele>
						<time>2025-02-03T02:39:05Z</time>
					</trkpt>
					<trkpt lat="49.011760" lon="2.283780">
						<ele>85</ele>
						<time>2025-02-03T02:39:13Z</time>
					</trkpt>
					<trkpt lat="49.010820" lon="2.283390">
						<ele>82</ele>
						<time>2025-02-03T02:39:30Z</time>
					</trkpt>
					<trkpt lat="49.009520" lon="2.282430">
						<ele>80</ele>
						<time>2025-02-03T02:39:56Z</time>
					</trkpt>
					<trkpt lat="49.008050" lon="2.281740">
						<ele>80</ele>
						<time>2025-02-03T02:40:23Z</time>
					</trkpt>
					<trkpt lat="49.007360" lon="2.281290">
						<ele>77</ele>
						<time>2025-02-03T02:40:37Z</time>
					</trkpt>
					<trkpt lat="49.007320" lon="2.281230">
						<ele>77</ele>
						<time>2025-02-03T02:40:38Z</time>
					</trkpt>
					<trkpt lat="49.007050" lon="2.281280">
						<ele>76</ele>
						<time>2025-02-03T02:40:43Z</time>
					</trkpt>
					<trkpt lat="49.006760" lon="2.281510">
						<ele>74</ele>
						<time>2025-02-03T02:40:48Z</time>
					</trkpt>
					<trkpt lat="49.006390" lon="2.281680">
						<ele>72</ele>
						<time>2025-02-03T02:40:55Z</time>
					</trkpt>
					<trkpt lat="49.005940" lon="2.281650">
						<ele>71</ele>
						<time>2025-02-03T02:41:03Z</time>
					</trkpt>
					<trkpt lat="49.005280" lon="2.281530">
						<ele>70</ele>
						<time>2025-02-03T02:41:15Z</time>
					</trkpt>
					<trkpt lat="49.005060" lon="2.281520">
						<ele>69</ele>
						<time>2025-02-03T02:41:19Z</time>
					</trkpt>
					<trkpt lat="49.004200" lon="2.281680">
						<ele>66</ele>
						<time>2025-02-03T02:41:35Z</time>
					</trkpt>
					<trkpt lat="49.003830" lon="2.281440">
						<ele>65</ele>
						<time>2025-02-03T02:41:42Z</time>
					</trkpt>
					<trkpt lat="49.003690" lon="2.281310">
						<ele>65</ele>
						<time>2025-02-03T02:41:45Z</time>
					</trkpt>
					<trkpt lat="49.003580" lon="2.281100">
						<ele>65</ele>
						<time>2025-02-03T02:41:48Z</time>
					</trkpt>
					<trkpt lat="49.003530" lon="2.281070">
						<ele>65</ele>
						<time>2025-02-03T02:41:49Z</time>
					</trkpt>
					<trkpt lat="49.003470" lon="2.281080">
						<ele>65</ele>
						<time>2025-02-03T02:41:50Z</time>
					</trkpt>
					<trkpt lat="49.003410" lon="2.281130">
						<ele>64</ele>
						<time>2025-02-03T02:41:51Z</time>
					</trkpt>
					<trkpt lat="49.003370" lon="2.281230">
						<ele>64</ele>
						<time>2025-02-03T02:41:52Z</time>
					</trkpt>
					<trkpt lat="49.003440" lon="2.281590">
						<ele>64</ele>
						<time>2025-02-03T02:41:57Z</time>
					</trkpt>
					<trkpt lat="49.003410" lon="2.281740">
						<ele>63</ele>
						<time>2025-02-03T02:41:59Z</time>
					</trkpt>
					<trkpt lat="49.003100" lon="2.282770">
						<ele>63</ele>
						<time>2025-02-03T02:42:12Z</time>
					</trkpt>
					<trkpt lat="49.002640" lon="2.284000">
						<ele>61</ele>
						<time>2025-02-03T02:42:28Z</time>
					</trkpt>
					<trkpt lat="49.002560" lon="2.284270">
						<ele>62</ele>
						<time>2025-02-03T02:42:32Z</time>
					</trkpt>
					<trkpt lat="49.002100" lon="2.286430">
						<ele>66</ele>
						<time>2025-02-03T02:42:58Z</time>
					</trkpt>
					<trkpt lat="49.001960" lon="2.286750">
						<ele>66</ele>
						<time>2025-02-03T02:43:03Z</time>
					</trkpt>
					<trkpt lat="49.001730" lon="2.287400">
						<ele>68</ele>
						<time>2025-02-03T02:43:11Z</time>
					</trkpt>
					<trkpt lat="49.001590" lon="2.287880">
						<ele>70</ele>
						<time>2025-02-03T02:43:18Z</time>
					</trkpt>
					<trkpt lat="49.001250" lon="2.288740">
						<ele>70</ele>
						<time>2025-02-03T02:43:29Z</time>
					</trkpt>
					<trkpt lat="49.001160" lon="2.288860">
						<ele>70</ele>
						<time>2025-02-03T02:43:31Z</time>
					</trkpt>
					<trkpt lat="49.001040" lon="2.289170">
						<ele>70</ele>
						<time>2025-02-03T02:43:36Z</time>
					</trkpt>
					<trkpt lat="49.001250" lon="2.289410">
						<ele>70</ele>
						<time>2025-02-03T02:43:40Z</time>
					</trkpt>
					<trkpt lat="49.001260" lon="2.289540">
						<ele>70</ele>
						<time>2025-02-03T02:43:42Z</time>
					</trkpt>
					<trkpt lat="49.001220" lon="2.289650">
						<ele>71</ele>
						<time>2025-02-03T02:43:43Z</time>
					</trkpt>
					<trkpt lat="49.000620" lon="2.290620">
						<ele>71</ele>
						<time>2025-02-03T02:43:59Z</time>
					</trkpt>
					<trkpt lat="48.999840" lon="2.291820">
						<ele>69</ele>
						<time>2025-02-03T02:44:19Z</time>
					</trkpt>
					<trkpt lat="48.999690" lon="2.292130">
						<ele>69</ele>
						<time>2025-02-03T02:44:23Z</time>
					</trkpt>
					<trkpt lat="48.999540" lon="2.292520">
						<ele>69</ele>
						<time>2025-02-03T02:44:28Z</time>
					</trkpt>
					<trkpt lat="48.999400" lon="2.292800">
						<ele>70</ele>
						<time>2025-02-03T02:44:32Z</time>
					</trkpt>
					<trkpt lat="48.999320" lon="2.293050">
						<ele>70</ele>
						<time>2025-02-03T02:44:36Z</time>
					</trkpt>
					<trkpt lat="48.999270" lon="2.293090">
						<ele>70</ele>
						<time>2025-02-03T02:44:37Z</time>
					</trkpt>
					<trkpt lat="48.999240" lon="2.293160">
						<ele>70</ele>
						<time>2025-02-03T02:44:38Z</time>
					</trkpt>
					<trkpt lat="48.999250" lon="2.293250">
						<ele>70</ele>
						<time>2025-02-03T02:44:39Z</time>
					</trkpt>
					<trkpt lat="48.999190" lon="2.293460">
						<ele>70</ele>
						<time>2025-02-03T02:44:41Z</time>
					</trkpt>
					<trkpt lat="48.998350" lon="2.295030">
						<ele>70</ele>
						<time>2025-02-03T02:45:05Z</time>
					</trkpt>
					<trkpt lat="48.997530" lon="2.297290">
						<ele>65</ele>
						<time>2025-02-03T02:45:35Z</time>
					</trkpt>
					<trkpt lat="48.997050" lon="2.298450">
						<ele>65</ele>
						<time>2025-02-03T02:45:51Z</time>
					</trkpt>
					<trkpt lat="48.997010" lon="2.298500">
						<ele>65</ele>
						<time>2025-02-03T02:45:52Z</time>
					</trkpt>
					<trkpt lat="48.996890" lon="2.298560">
						<ele>65</ele>
						<time>2025-02-03T02:45:54Z</time>
					</trkpt>
					<trkpt lat="48.996860" lon="2.298870">
						<ele>65</ele>
						<time>2025-02-03T02:45:58Z</time>
					</trkpt>
					<trkpt lat="48.996220" lon="2.300300">
						<ele>64</ele>
						<time>2025-02-03T02:46:18Z</time>
					</trkpt>
					<trkpt lat="48.995650" lon="2.301840">
						<ele>66</ele>
						<time>2025-02-03T02:46:39Z</time>
					</trkpt>
					<trkpt lat="48.995550" lon="2.301990">
						<ele>66</ele>
						<time>2025-02-03T02:46:41Z</time>
					</trkpt>
					<trkpt lat="48.995310" lon="2.302140">
						<ele>66</ele>
						<time>2025-02-03T02:46:46Z</time>
					</trkpt>
					<trkpt lat="48.995270" lon="2.302280">
						<ele>66</ele>
						<time>2025-02-03T02:46:48Z</time>
					</trkpt>
					<trkpt lat="48.995300" lon="2.302580">
						<ele>67</ele>
						<time>2025-02-03T02:46:51Z</time>
					</trkpt>
					<trkpt lat="48.995260" lon="2.302790">
						<ele>66</ele>
						<time>2025-02-03T02:46:54Z</time>
					</trkpt>
					<trkpt lat="48.994570" lon="2.304010">
						<ele>65</ele>
						<time>2025-02-03T02:47:13Z</time>
					</trkpt>
					<trkpt lat="48.994310" lon="2.304580">
						<ele>64</ele>
						<time>2025-02-03T02:47:21Z</time>
					</trkpt>
					<trkpt lat="48.994110" lon="2.305140">
						<ele>62</ele>
						<time>2025-02-03T02:47:28Z</time>
					</trkpt>
					<trkpt lat="48.993870" lon="2.305960">
						<ele>60</ele>
						<time>2025-02-03T02:47:39Z</time>
					</trkpt>
					<trkpt lat="48.993140" lon="2.309480">
						<ele>68</ele>
						<time>2025-02-03T02:48:22Z</time>
					</trkpt>
					<trkpt lat="48.993080" lon="2.309680">
						<ele>68</ele>
						<time>2025-02-03T02:48:24Z</time>
					</trkpt>
					<trkpt lat="48.993000" lon="2.309640">
						<ele>68</ele>
						<time>2025-02-03T02:48:26Z</time>
					</trkpt>
					<trkpt lat="48.991390" lon="2.308010">
						<ele>64</ele>
						<time>2025-02-03T02:49:00Z</time>
					</trkpt>
					<trkpt lat="48.989450" lon="2.305980">
						<ele>61</ele>
						<time>2025-02-03T02:49:42Z</time>
					</trkpt>
					<trkpt lat="48.989220" lon="2.305630">
						<ele>60</ele>
						<time>2025-02-03T02:49:48Z</time>
					</trkpt>
					<trkpt lat="48.988850" lon="2.304890">
						<ele>57</ele>
						<time>2025-02-03T02:49:59Z</time>
					</trkpt>
					<trkpt lat="48.988470" lon="2.305260">
						<ele>57</ele>
						<time>2025-02-03T02:50:07Z</time>
					</trkpt>
					<trkpt lat="48.988090" lon="2.305570">
						<ele>56</ele>
						<time>2025-02-03T02:50:14Z</time>
					</trkpt>
					<trkpt lat="48.987490" lon="2.306020">
						<ele>54</ele>
						<time>2025-02-03T02:50:26Z</time>
					</trkpt>
					<trkpt lat="48.987070" lon="2.306290">
						<ele>54</ele>
						<time>2025-02-03T02:50:34Z</time>
					</trkpt>
					<trkpt lat="48.985870" lon="2.303010">
						<ele>45</ele>
						<time>2025-02-03T02:51:18Z</time>
					</trkpt>
					<trkpt lat="48.985800" lon="2.303040">
						<ele>45</ele>
						<time>2025-02-03T02:51:20Z</time>
					</trkpt>
					<trkpt lat="48.985010" lon="2.303630">
						<ele>46</ele>
						<time>2025-02-03T02:51:35Z</time>
					</trkpt>
					<trkpt lat="48.984810" lon="2.303750">
						<ele>46</ele>
						<time>2025-02-03T02:51:39Z</time>
					</trkpt>
					<trkpt lat="48.984290" lon="2.304170">
						<ele>46</ele>
						<time>2025-02-03T02:51:50Z</time>
					</trkpt>
					<trkpt lat="48.984000" lon="2.304370">
						<ele>46</ele>
						<time>2025-02-03T02:51:55Z</time>
					</trkpt>
					<trkpt lat="48.983230" lon="2.305190">
						<ele>49</ele>
						<time>2025-02-03T02:52:12Z</time>
					</trkpt>
					<trkpt lat="48.982820" lon="2.305570">
						<ele>50</ele>
						<time>2025-02-03T02:52:20Z</time>
					</trkpt>
					<trkpt lat="48.982650" lon="2.305680">
						<ele>51</ele>
						<time>2025-02-03T02:52:24Z</time>
					</trkpt>
					<trkpt lat="48.981760" lon="2.306050">
						<ele>52</ele>
						<time>2025-02-03T02:52:40Z</time>
					</trkpt>
					<trkpt lat="48.980380" lon="2.306540">
						<ele>53</ele>
						<time>2025-02-03T02:53:05Z</time>
					</trkpt>
					<trkpt lat="48.980230" lon="2.306500">
						<ele>53</ele>
						<time>2025-02-03T02:53:08Z</time>
					</trkpt>
					<trkpt lat="48.980060" lon="2.306420">
						<ele>53</ele>
						<time>2025-02-03T02:53:11Z</time>
					</trkpt>
					<trkpt lat="48.979720" lon="2.306170">
						<ele>52</ele>
						<time>2025-02-03T02:53:18Z</time>
					</trkpt>
					<trkpt lat="48.978700" lon="2.305270">
						<ele>50</ele>
						<time>2025-02-03T02:53:39Z</time>
					</trkpt>
					<trkpt lat="48.978640" lon="2.305190">
						<ele>50</ele>
						<time>2025-02-03T02:53:40Z</time>
					</trkpt>
					<trkpt lat="48.978590" lon="2.305250">
						<ele>50</ele>
						<time>2025-02-03T02:53:41Z</time>
					</trkpt>
					<trkpt lat="48.978460" lon="2.305160">
						<ele>50</ele>
						<time>2025-02-03T02:53:44Z</time>
					</trkpt>
					<trkpt lat="48.977070" lon="2.303940">
						<ele>48</ele>
						<time>2025-02-03T02:54:13Z</time>
					</trkpt>
					<trkpt lat="48.976690" lon="2.303680">
						<ele>47</ele>
						<time>2025-02-03T02:54:20Z</time>
					</trkpt>
					<trkpt lat="48.976280" lon="2.303550">
						<ele>46</ele>
						<time>2025-02-03T02:54:27Z</time>
					</trkpt>
					<trkpt lat="48.976060" lon="2.303530">
						<ele>46</ele>
						<time>2025-02-03T02:54:31Z</time>
					</trkpt>
					<trkpt lat="48.975720" lon="2.303580">
						<ele>45</ele>
						<time>2025-02-03T02:54:37Z</time>
					</trkpt>
					<trkpt lat="48.975250" lon="2.303870">
						<ele>45</ele>
						<time>2025-02-03T02:54:46Z</time>
					</trkpt>
					<trkpt lat="48.975050" lon="2.304070">
						<ele>46</ele>
						<time>2025-02-03T02:54:51Z</time>
					</trkpt>
					<trkpt lat="48.974040" lon="2.305690">
						<ele>47</ele>
						<time>2025-02-03T02:55:17Z</time>
					</trkpt>
					<trkpt lat="48.973310" lon="2.306750">
						<ele>48</ele>
						<time>2025-02-03T02:55:35Z</time>
					</trkpt>
					<trkpt lat="48.973290" lon="2.306860">
						<ele>48</ele>
						<time>2025-02-03T02:55:36Z</time>
					</trkpt>
					<trkpt lat="48.973150" lon="2.307070">
						<ele>49</ele>
						<time>2025-02-03T02:55:40Z</time>
					</trkpt>
					<trkpt lat="48.973060" lon="2.307200">
						<ele>49</ele>
						<time>2025-02-03T02:55:42Z</time>
					</trkpt>
					<trkpt lat="48.972940" lon="2.307280">
						<ele>49</ele>
						<time>2025-02-03T02:55:44Z</time>
					</trkpt>
					<trkpt lat="48.972850" lon="2.307440">
						<ele>50</ele>
						<time>2025-02-03T02:55:47Z</time>
					</trkpt>
					<trkpt lat="48.972290" lon="2.308200">
						<ele>51</ele>
						<time>2025-02-03T02:56:00Z</time>
					</trkpt>
					<trkpt lat="48.971980" lon="2.308590">
						<ele>52</ele>
						<time>2025-02-03T02:56:07Z</time>
					</trkpt>
					<trkpt lat="48.971940" lon="2.308590">
						<ele>52</ele>
						<time>2025-02-03T02:56:08Z</time>
					</trkpt>
					<trkpt lat="48.971720" lon="2.308270">
						<ele>52</ele>
						<time>2025-02-03T02:56:13Z</time>
					</trkpt>
					<trkpt lat="48.971870" lon="2.308020">
						<ele>52</ele>
						<time>2025-02-03T02:56:17Z</time>
					</trkpt>
					<trkpt lat="48.972670" lon="2.306870">
						<ele>50</ele>
						<time>2025-02-03T02:56:37Z</time>
					</trkpt>
					<trkpt lat="48.972840" lon="2.306570">
						<ele>49</ele>
						<time>2025-02-03T02:56:41Z</time>
					</trkpt>
					<trkpt lat="48.972270" lon="2.305770">
						<ele>48</ele>
						<time>2025-02-03T02:56:55Z</time>
					</trkpt>
					<trkpt lat="48.972150" lon="2.305670">
						<ele>48</ele>
						<time>2025-02-03T02:56:58Z</time>
					</trkpt>
					<trkpt lat="48.972020" lon="2.305420">
						<ele>47</ele>
						<time>2025-02-03T02:57:01Z</time>
					</trkpt>
					<trkpt lat="48.970720" lon="2.303540">
						<ele>44</ele>
						<time>2025-02-03T02:57:33Z</time>
					</trkpt>
					<trkpt lat="48.970680" lon="2.303450">
						<ele>43</ele>
						<time>2025-02-03T02:57:34Z</time>
					</trkpt>
					</trkseg>
				</trk>
			</gpx>